Provisional Data: South Branch Tunkhannock Creek near La Plume, PA


Please select a monitoring station.
Please select start date.
Please select start date.

Toggle Unit: C/F Toggle Unit: C/F
Sample Time Temperature (C) Temperature (F) Specific Conductivity (mS/cm) pH   Turbidity (NTU+) DO (mg/L)
8/9/2021 12:00:00 AM 22.82 73.076 0.245 7.21 6.36 7.02
8/9/2021 12:15:00 AM 22.73 72.914 0.245 7.21 6.7 7.13
8/9/2021 12:30:00 AM 22.64 72.752 0.245 7.21 6.34 7.1
8/9/2021 12:45:00 AM 22.55 72.59 0.246 7.2 6.44 7.19
8/9/2021 1:00:00 AM 22.45 72.41 0.246 7.21 6.29 7.18
8/9/2021 1:15:00 AM 22.35 72.23 0.246 7.21 6.31 7.23
8/9/2021 1:30:00 AM 22.26 72.068 0.246 7.21 6.52 7.25
8/9/2021 1:45:00 AM 22.17 71.906 0.246 7.21 6.29 7.25
8/9/2021 2:00:00 AM 22.08 71.744 0.246 7.21 6.4 7.29
8/9/2021 2:15:00 AM 22 71.6 0.246 7.21 6.49 7.25
8/9/2021 2:30:00 AM 21.91 71.438 0.246 7.2 6.33 7.35
8/9/2021 2:45:00 AM 21.82 71.276 0.246 7.21 6.32 7.36
8/9/2021 3:00:00 AM 21.73 71.114 0.246 7.2 6.73 7.4
8/9/2021 3:15:00 AM 21.64 70.952 0.246 7.21 6.33 7.41
8/9/2021 3:30:00 AM 21.55 70.79 0.246 7.21 6.36 7.42
8/9/2021 3:45:00 AM 21.47 70.646 0.246 7.21 6.35 7.42
8/9/2021 4:00:00 AM 21.38 70.484 0.246 7.21 6.41 7.47
8/9/2021 4:15:00 AM 21.3 70.34 0.247 7.21 6.39 7.49
8/9/2021 4:30:00 AM 21.22 70.196 0.247 7.21 6.58 7.49
8/9/2021 4:45:00 AM 21.14 70.052 0.247 7.21 7.09 7.54
8/9/2021 5:00:00 AM 21.06 69.908 0.247 7.21 6.37 7.52
8/9/2021 5:15:00 AM 20.98 69.764 0.247 7.22 6.42 7.57
8/9/2021 5:30:00 AM 20.91 69.638 0.247 7.22 6.58 7.59
8/9/2021 5:45:00 AM 20.84 69.512 0.247 7.22 6.4 7.56
8/9/2021 6:00:00 AM 20.77 69.386 0.247 7.22 6.52 7.6
8/9/2021 6:15:00 AM 20.7 69.26 0.247 7.22 6.49 7.64
8/9/2021 6:30:00 AM 20.63 69.134 0.247 7.23 6.79 7.73
8/9/2021 6:45:00 AM 20.58 69.044 0.247 7.24 6.52 7.83
8/9/2021 7:00:00 AM 20.53 68.954 0.247 7.26 6.47 7.77
8/9/2021 7:15:00 AM 20.49 68.882 0.247 7.29 7.16 8.03
8/9/2021 7:30:00 AM 20.47 68.846 0.247 7.32 9.91 8.03
8/9/2021 7:45:00 AM 20.47 68.846 0.246 7.37 6.65 8.39
8/9/2021 8:00:00 AM 20.47 68.846 0.246 7.42 7.5 8.55
8/9/2021 8:15:00 AM 20.5 68.9 0.246 7.48 6.76 8.98
8/9/2021 8:30:00 AM 20.55 68.99 0.245 7.54 6.52 9.07
8/9/2021 8:45:00 AM 20.6 69.08 0.245 7.63 7.7 9.26
8/9/2021 9:00:00 AM 20.68 69.224 0.245 7.71 6.54 9.63
8/9/2021 9:15:00 AM 20.75 69.35 0.244 7.8 6.46 9.74
8/9/2021 9:30:00 AM 20.84 69.512 0.244 7.88 6.38 9.98
8/9/2021 9:45:00 AM 20.92 69.656 0.244 7.97 6.45 10.13
8/9/2021 10:00:00 AM 21.02 69.836 0.244 8.04 6.21 10.23
8/9/2021 10:15:00 AM 21.16 70.088 0.243 8.12 6.21 10.5
8/9/2021 10:30:00 AM 21.29 70.32201 0.243 8.19 6.17 10.64
8/9/2021 10:45:00 AM 21.43 70.574 0.243 8.26 6.57 10.74
8/9/2021 11:00:00 AM 21.58 70.844 0.243 8.29 6.05 10.81
8/9/2021 11:15:00 AM 21.73 71.114 0.243 8.35 6.08 10.8
8/9/2021 11:30:00 AM 21.91 71.438 0.242 8.41 6.31 10.96
8/9/2021 11:45:00 AM 22.06 71.708 0.242 8.45 6.03 11.03
8/9/2021 12:00:00 PM 22.25 72.05 0.242 8.5 5.91 11.13
8/9/2021 12:15:00 PM 22.42 72.356 0.241 8.54 6.07 11.21
8/9/2021 12:30:00 PM 22.63 72.734 0.241 8.57 5.98 11.18
8/9/2021 12:45:00 PM 22.83 73.094 0.241 8.6 5.95 11.08
8/9/2021 1:00:00 PM 23.06 73.508 0.241 8.62 7.16 11.2
8/9/2021 1:15:00 PM 23.28 73.904 0.241 8.65 6.04 11.24
8/9/2021 1:30:00 PM 23.5 74.3 0.24 8.67 5.86 11.18
8/9/2021 1:45:00 PM 23.77 74.786 0.24 8.72 5.84 11.33
8/9/2021 2:00:00 PM 23.88 74.984 0.24 8.73 5.84 11.11
8/9/2021 2:15:00 PM 24.11 75.398 0.24 8.75 6.03 11.23
8/9/2021 2:30:00 PM 24.35 75.83 0.24 8.77 5.74 11.07
8/9/2021 2:45:00 PM 24.56 76.208 0.24 8.77 5.62 10.85
8/9/2021 3:00:00 PM 24.77 76.586 0.24 8.77 5.95 10.68
8/9/2021 3:15:00 PM 24.9 76.82 0.24 8.76 5.99 10.82
8/9/2021 3:30:00 PM 25.05 77.09 0.24 8.75 5.61 10.76
8/9/2021 3:45:00 PM 25.04 77.07201 0.24 8.73 5.69 10.36
8/9/2021 4:00:00 PM 25.02 77.036 0.241 8.68 5.65 10.19
8/9/2021 4:15:00 PM 25.1 77.18 0.241 8.67 5.63 10.29
8/9/2021 4:30:00 PM 25.13 77.234 0.241 8.66 5.6 9.92
8/9/2021 4:45:00 PM 25.14 77.252 0.242 8.62 5.52 10.02
8/9/2021 5:00:00 PM 25.12 77.216 0.242 8.56 5.87 9.59
8/9/2021 5:15:00 PM 25.1 77.18 0.242 8.51 5.77 9.75
8/9/2021 5:30:00 PM 25.07 77.126 0.243 8.46 5.63 9.66
8/9/2021 5:45:00 PM 25.02 77.036 0.243 8.4 5.67 9.11
8/9/2021 6:00:00 PM 24.99 76.982 0.243 8.36 5.54 9.28
8/9/2021 6:15:00 PM 24.98 76.964 0.244 8.36 5.57 9.49
8/9/2021 6:30:00 PM 24.89 76.802 0.244 8.28 5.69 9.04
8/9/2021 6:45:00 PM 24.88 76.784 0.244 8.2 6.68 8.65
8/9/2021 7:00:00 PM 24.85 76.73 0.244 8.12 5.63 8.36
8/9/2021 7:15:00 PM 24.78 76.604 0.245 7.98 5.69 8.39
8/9/2021 7:30:00 PM 24.69 76.442 0.245 7.82 5.62 8.14
8/9/2021 7:45:00 PM 24.6 76.28 0.246 7.68 5.68 7.74
8/9/2021 8:00:00 PM 24.53 76.154 0.246 7.58 8.33 7.5
8/9/2021 8:15:00 PM 24.47 76.046 0.246 7.48 5.99 7.3
8/9/2021 8:30:00 PM 24.39 75.902 0.247 7.43 6.21 7.14
8/9/2021 8:45:00 PM 24.34 75.812 0.247 7.38 6.08 6.99
8/9/2021 9:00:00 PM 24.29 75.722 0.247 7.35 5.89 6.85
8/9/2021 9:15:00 PM 24.23 75.614 0.247 7.32 6.01 6.88
8/9/2021 9:30:00 PM 24.17 75.506 0.247 7.3 6.01 6.88
8/9/2021 9:45:00 PM 24.11 75.398 0.248 7.28 6.15 6.8
8/9/2021 10:00:00 PM 24.07 75.326 0.248 7.26 6.17 6.88
8/9/2021 10:15:00 PM 23.89 75.002 0.271 7.24 7.62 7.04
8/9/2021 10:30:00 PM 23.45 74.21 0.344 7.31 8.82 7.17
8/9/2021 10:45:00 PM 23.26 73.868 0.376 7.35 9.38 7.24
8/9/2021 11:00:00 PM 23.1 73.58 0.389 7.36 9.76 7.31
8/9/2021 11:15:00 PM 22.95 73.31 0.389 7.37 9.71 7.36
8/9/2021 11:30:00 PM 22.83 73.094 0.388 7.36 9.24 7.37
8/9/2021 11:45:00 PM 22.79 73.022 0.389 7.36 9.43 7.38
8/10/2021 12:00:00 AM 22.8 73.04 0.39 7.36 9.01 7.32
8/10/2021 12:15:00 AM 22.85 73.13 0.385 7.36 10.63 7.37
8/10/2021 12:30:00 AM 22.85 73.13 0.373 7.34 11 7.26
8/10/2021 12:45:00 AM 22.83 73.094 0.355 7.32 11.88 7.25
8/10/2021 1:00:00 AM 22.78 73.004 0.338 7.3 11.76 7.24
8/10/2021 1:15:00 AM 22.72 72.896 0.327 7.28 11.44 7.21
8/10/2021 1:30:00 AM 22.66 72.788 0.319 7.27 11.38 7.24
8/10/2021 1:45:00 AM 22.61 72.698 0.314 7.26 10.66 7.26
8/10/2021 2:00:00 AM 22.55 72.59 0.31 7.25 10.52 7.27
8/10/2021 2:15:00 AM 22.51 72.518 0.308 7.25 9.67 7.26
8/10/2021 2:30:00 AM 22.48 72.464 0.306 7.24 9.59 7.26
8/10/2021 2:45:00 AM 22.44 72.392 0.305 7.24 9.51 7.25
8/10/2021 3:00:00 AM 22.4 72.32 0.303 7.24 9.1 7.24
8/10/2021 3:15:00 AM 22.38 72.284 0.301 7.24 8.78 7.25
8/10/2021 3:30:00 AM 22.34 72.212 0.3 7.24 8.35 7.21
8/10/2021 3:45:00 AM 22.32 72.176 0.298 7.24 8.6 7.2
8/10/2021 4:00:00 AM 22.29 72.122 0.295 7.23 8.41 7.28
8/10/2021 4:15:00 AM 22.28 72.104 0.293 7.23 8.38 7.25
8/10/2021 4:30:00 AM 22.25 72.05 0.291 7.24 8.34 7.3
8/10/2021 4:45:00 AM 22.21 71.978 0.288 7.24 8.12 7.33
8/10/2021 5:00:00 AM 22.18 71.924 0.286 7.25 8.07 7.34
8/10/2021 5:15:00 AM 22.15 71.87 0.285 7.25 7.98 7.35
8/10/2021 5:30:00 AM 22.13 71.834 0.283 7.24 7.89 7.34
8/10/2021 5:45:00 AM 22.11 71.798 0.282 7.24 8.14 7.29
8/10/2021 6:00:00 AM 22.08 71.744 0.28 7.24 7.68 7.11
8/10/2021 6:15:00 AM 22.07 71.726 0.278 7.24 7.75 7.23
8/10/2021 6:30:00 AM 22.06 71.708 0.277 7.24 7.71 7.32
8/10/2021 6:45:00 AM 22.04 71.672 0.276 7.25 7.85 7.33
8/10/2021 7:00:00 AM 22.03 71.654 0.273 7.25 9 7.39
8/10/2021 7:15:00 AM 22.02 71.636 0.273 7.26 7.53 7.48
8/10/2021 7:30:00 AM 22.01 71.618 0.272 7.27 11.94 7.59
8/10/2021 7:45:00 AM 22.01 71.618 0.271 7.28 7.55 7.59
8/10/2021 8:00:00 AM 22.01 71.618 0.27 7.27 7.58 7.58
8/10/2021 8:15:00 AM 22 71.6 0.269 7.29 7.34 7.68
8/10/2021 8:30:00 AM 22 71.6 0.268 7.3 7.21 7.81
8/10/2021 8:45:00 AM 22.03 71.654 0.267 7.33 7.3 8.04
8/10/2021 9:00:00 AM 22.07 71.726 0.267 7.37 7.05 8.34
8/10/2021 9:15:00 AM 22.2 71.96 0.265 7.48 7.21 9.02
8/10/2021 9:30:00 AM 22.3 72.14 0.264 7.59 11.2 9.32
8/10/2021 9:45:00 AM 22.32 72.176 0.264 7.62 7.2 9.13
8/10/2021 10:00:00 AM 22.32 72.176 0.264 7.6 6.97 8.98
8/10/2021 10:15:00 AM 22.32 72.176 0.262 7.57 7.56 8.75
8/10/2021 10:30:00 AM 22.34 72.212 0.262 7.6 7.15 8.88
8/10/2021 10:45:00 AM 22.37 72.266 0.262 7.63 6.91 8.92
8/10/2021 11:00:00 AM 22.44 72.392 0.261 7.7 6.82 9.33
8/10/2021 11:15:00 AM 22.59 72.662 0.26 7.89 6.69 9.83
8/10/2021 11:30:00 AM 22.57 72.626 0.26 7.8 9.91 9.31
8/10/2021 11:45:00 AM 22.57 72.626 0.26 7.77 8.91 9.08
8/10/2021 12:00:00 PM 22.64 72.752 0.259 7.87 7 9.65
8/10/2021 12:15:00 PM 22.67 72.806 0.259 7.9 6.83 9.7
8/10/2021 12:30:00 PM 22.76 72.968 0.258 8.03 6.61 9.99
8/10/2021 12:45:00 PM 22.84 73.112 0.258 8.1 6.78 10.08
8/10/2021 1:00:00 PM 22.92 73.256 0.257 8.18 6.49 10.23
8/10/2021 1:15:00 PM 22.96 73.328 0.257 8.17 6.52 10.17
8/10/2021 1:30:00 PM 23.06 73.508 0.257 8.27 7.17 10.17
8/10/2021 1:45:00 PM 23.11 73.598 0.256 8.3 6.41 9.36
8/10/2021 2:00:00 PM 23.33 73.994 0.256 8.37 6.64 9.45
8/10/2021 2:15:00 PM 23.38 74.084 0.256 8.41 6.46 10.5
8/10/2021 2:30:00 PM 23.49 74.282 0.256 8.47 6.57 10.66
8/10/2021 2:45:00 PM 23.59 74.462 0.256 8.49 6.5 10.75
8/10/2021 3:00:00 PM 23.77 74.786 0.256 8.53 6.87 10.64
8/10/2021 3:15:00 PM 23.88 74.984 0.256 8.54 6.24 10.69
8/10/2021 3:30:00 PM 23.95 75.11 0.256 8.55 6.26 10.63
8/10/2021 3:45:00 PM 24.08 75.344 0.256 8.56 9.7 10.62
8/10/2021 4:00:00 PM 24.2 75.56 0.255 8.58 6.08 10.35
8/10/2021 4:15:00 PM 24.25 75.65 0.255 8.56 6.15 10.4
8/10/2021 4:30:00 PM 24.31 75.758 0.255 8.55 6.19 10.28
8/10/2021 4:45:00 PM 24.3 75.74 0.255 8.53 6.09 10.15
8/10/2021 5:00:00 PM 24.26 75.668 0.255 8.45 6.12 9.62
8/10/2021 5:15:00 PM 24.17 75.506 0.256 8.29 6.19 9.12
8/10/2021 5:30:00 PM 24.14 75.452 0.256 8.22 6.12 8.99
8/10/2021 5:45:00 PM 24.12 75.416 0.256 8.13 6.17 8.94
8/10/2021 6:00:00 PM 24.1 75.38 0.256 8.05 6.16 8.72
8/10/2021 6:15:00 PM 24.12 75.416 0.256 8.06 6.09 8.79
8/10/2021 6:30:00 PM 24.11 75.398 0.256 8.02 6.26 8.68
8/10/2021 6:45:00 PM 24.12 75.416 0.256 7.98 6.44 8.84
8/10/2021 7:00:00 PM 24.1 75.38 0.256 7.89 6.86 8.61
8/10/2021 7:15:00 PM 24.06 75.308 0.256 7.79 13.51 8.32
8/10/2021 7:30:00 PM 24.03 75.254 0.256 7.7 9.31 8.12
8/10/2021 7:45:00 PM 24 75.2 0.257 7.63 6.25 7.84
8/10/2021 8:00:00 PM 23.95 75.11 0.257 7.54 6.4 7.63
8/10/2021 8:15:00 PM 23.91 75.038 0.258 7.48 6.41 7.09
8/10/2021 8:30:00 PM 23.87 74.966 0.258 7.43 6.48 7.28
8/10/2021 8:45:00 PM 23.83 74.894 0.258 7.39 6.59 7.18
8/10/2021 9:00:00 PM 23.79 74.82201 0.258 7.36 6.57 7.12
8/10/2021 9:15:00 PM 23.74 74.732 0.258 7.33 6.55 7.06
8/10/2021 9:30:00 PM 23.7 74.66 0.258 7.31 6.44 7.04
8/10/2021 9:45:00 PM 23.65 74.57 0.258 7.29 6.5 7.03
8/10/2021 10:00:00 PM 23.61 74.498 0.259 7.29 6.41 7.02
8/10/2021 10:15:00 PM 23.58 74.444 0.259 7.28 6.99 7.03
8/10/2021 10:30:00 PM 23.53 74.354 0.259 7.27 6.45 6.99
8/10/2021 10:45:00 PM 23.49 74.282 0.259 7.26 6.54 6.99
8/10/2021 11:00:00 PM 23.47 74.246 0.259 7.26 6.57 7.01
8/10/2021 11:15:00 PM 23.42 74.156 0.259 7.26 6.4 7
8/10/2021 11:30:00 PM 23.38 74.084 0.259 7.26 7.06 6.93
8/10/2021 11:45:00 PM 23.34 74.012 0.259 7.26 6.5 7.03
8/11/2021 12:00:00 AM 23.31 73.958 0.259 7.26 6.57 6.98
8/11/2021 12:15:00 AM 23.28 73.904 0.26 7.25 6.76 7.02
8/11/2021 12:30:00 AM 23.24 73.832 0.26 7.26 6.79 6.95
8/11/2021 12:45:00 AM 23.2 73.76 0.26 7.26 6.88 7.07
8/11/2021 1:00:00 AM 23.15 73.67 0.26 7.26 6.67 7.08
8/11/2021 1:15:00 AM 23.1 73.58 0.26 7.26 6.52 7.03
8/11/2021 1:30:00 AM 23.05 73.49 0.261 7.26 6.54 7.05
8/11/2021 1:45:00 AM 23.01 73.418 0.26 7.26 6.58 7.08
8/11/2021 2:00:00 AM 22.97 73.346 0.26 7.26 6.62 7.1
8/11/2021 2:15:00 AM 22.94 73.292 0.261 7.26 6.47 7.06
8/11/2021 2:30:00 AM 22.9 73.22 0.261 7.26 6.58 7.1
8/11/2021 2:45:00 AM 22.87 73.166 0.26 7.26 6.41 7.14
8/11/2021 3:00:00 AM 22.84 73.112 0.261 7.26 6.46 7.12
8/11/2021 3:15:00 AM 22.81 73.058 0.261 7.26 6.44 7.15
8/11/2021 3:30:00 AM 22.78 73.004 0.26 7.26 6.51 7.19
8/11/2021 3:45:00 AM 22.75 72.95 0.26 7.26 6.63 7.14
8/11/2021 4:00:00 AM 22.71 72.878 0.26 7.26 6.39 7.12
8/11/2021 4:15:00 AM 22.67 72.806 0.261 7.26 6.61 7.18
8/11/2021 4:30:00 AM 22.64 72.752 0.261 7.26 6.6 7.18
8/11/2021 4:45:00 AM 22.6 72.68 0.261 7.26 6.49 7.13
8/11/2021 5:00:00 AM 22.55 72.59 0.261 7.26 6.55 7.23
8/11/2021 5:15:00 AM 22.51 72.518 0.261 7.27 6.47 7.2
8/11/2021 5:30:00 AM 22.46 72.42799 0.261 7.27 6.61 7.23
8/11/2021 5:45:00 AM 22.41 72.338 0.261 7.26 6.52 7.06
8/11/2021 6:00:00 AM 22.36 72.248 0.261 7.26 6.65 7.21
8/11/2021 6:15:00 AM 22.33 72.194 0.261 7.26 6.52 7.27
8/11/2021 6:30:00 AM 22.31 72.158 0.261 7.27 6.53 7.31
8/11/2021 6:45:00 AM 22.28 72.104 0.262 7.27 6.47 7.29
8/11/2021 7:00:00 AM 22.25 72.05 0.262 7.29 6.84 7.44
8/11/2021 7:15:00 AM 22.22 71.996 0.263 7.31 6.4 7.64
8/11/2021 7:30:00 AM 22.19 71.942 0.264 7.34 6.47 7.8
8/11/2021 7:45:00 AM 22.19 71.942 0.266 7.36 6.45 7.76
8/11/2021 8:00:00 AM 22.2 71.96 0.266 7.38 6.42 7.97
8/11/2021 8:15:00 AM 22.24 72.032 0.266 7.44 6.34 8.31
8/11/2021 8:30:00 AM 22.26 72.068 0.265 7.47 6.43 8.43
8/11/2021 8:45:00 AM 22.28 72.104 0.265 7.5 6.45 8.35
8/11/2021 9:00:00 AM 22.31 72.158 0.264 7.52 6.24 8.61
8/11/2021 9:15:00 AM 22.38 72.284 0.263 7.59 6.31 8.98
8/11/2021 9:30:00 AM 22.51 72.518 0.263 7.71 6.22 9.35
8/11/2021 9:45:00 AM 22.6 72.68 0.263 7.8 7.04 9.51
8/11/2021 10:00:00 AM 22.69 72.842 0.263 7.88 6.17 9.69
8/11/2021 10:15:00 AM 22.81 73.058 0.263 7.96 6.04 9.9
8/11/2021 10:30:00 AM 22.98 73.364 0.263 8.05 6.12 10.05
8/11/2021 10:45:00 AM 23.09 73.562 0.263 8.12 6.11 10.18
8/11/2021 11:00:00 AM 23.17 73.706 0.263 8.17 5.91 10.18
8/11/2021 11:15:00 AM 23.27 73.886 0.263 8.21 6.24 10.24
8/11/2021 11:30:00 AM 23.34 74.012 0.262 8.25 6.07 10.34
8/11/2021 11:45:00 AM 23.46 74.228 0.262 8.31 5.89 10.46
8/11/2021 12:00:00 PM 23.63 74.534 0.261 8.38 5.81 10.52
8/11/2021 12:15:00 PM 23.81 74.858 0.261 8.43 5.77 10.55
8/11/2021 12:30:00 PM 24.04 75.272 0.261 8.48 5.69 10.72
8/11/2021 12:45:00 PM 24.26 75.668 0.262 8.52 5.75 10.72
8/11/2021 1:00:00 PM 24.39 75.902 0.262 8.53 6.04 10.69
8/11/2021 1:15:00 PM 24.57 76.226 0.262 8.56 5.73 10.72
8/11/2021 1:30:00 PM 24.73 76.514 0.262 8.6 5.72 10.69
8/11/2021 1:45:00 PM 24.91 76.838 0.262 8.62 5.97 10.63
8/11/2021 2:00:00 PM 25.13 77.234 0.263 8.63 5.85 10.56
8/11/2021 2:15:00 PM 25.38 77.684 0.262 8.67 6.1 10.59
8/11/2021 2:30:00 PM 25.59 78.062 0.262 8.66 5.94 10.6
8/11/2021 2:45:00 PM 25.74 78.332 0.262 8.69 6.13 10.61
8/11/2021 3:00:00 PM 25.91 78.638 0.261 8.69 6.25 10.46
8/11/2021 3:15:00 PM 25.94 78.692 0.261 8.67 6.36 10.11
8/11/2021 3:30:00 PM 26.01 78.818 0.261 8.65 6.36 10
8/11/2021 3:45:00 PM 26.08 78.944 0.261 8.65 6.81 10.26
8/11/2021 4:00:00 PM 26.1 78.98 0.261 8.64 6.22 10.06
8/11/2021 4:15:00 PM 26.12 79.016 0.261 8.61 6.86 9.99
8/11/2021 4:30:00 PM 26.17 79.106 0.261 8.61 6.52 9.92
8/11/2021 4:45:00 PM 26.17 79.106 0.261 8.58 6.46 9.8
8/11/2021 5:00:00 PM 26.16 79.088 0.262 8.53 6.56 9.55
8/11/2021 5:15:00 PM 26.13 79.034 0.262 8.49 6.54 9.44
8/11/2021 5:30:00 PM 26.11 78.998 0.262 8.43 6.47 9.3
8/11/2021 5:45:00 PM 26.08 78.944 0.262 8.37 6.37 9.06
8/11/2021 6:00:00 PM 26.03 78.854 0.263 8.29 6.2 8.76
8/11/2021 6:15:00 PM 25.97 78.746 0.263 8.19 6.22 8.62
8/11/2021 6:30:00 PM 25.87 78.566 0.264 8.04 5.99 8.24
8/11/2021 6:45:00 PM 25.76 78.368 0.265 7.86 5.87 7.75
8/11/2021 7:00:00 PM 25.69 78.242 0.265 7.75 6.83 7.58
8/11/2021 7:15:00 PM 25.63 78.134 0.265 7.67 9.6 7.43
8/11/2021 7:30:00 PM 25.57 78.026 0.265 7.59 5.77 7.25
8/11/2021 7:45:00 PM 25.51 77.918 0.265 7.53 5.67 7.06
8/11/2021 8:00:00 PM 25.45 77.81 0.265 7.48 5.7 6.94
8/11/2021 8:15:00 PM 25.4 77.72 0.265 7.43 5.76 6.88
8/11/2021 8:30:00 PM 25.33 77.594 0.265 7.39 5.81 6.73
8/11/2021 8:45:00 PM 25.27 77.486 0.265 7.35 5.94 6.68
8/11/2021 9:00:00 PM 25.21 77.378 0.265 7.33 5.97 6.49
8/11/2021 9:15:00 PM 25.12 77.216 0.265 7.32 6.58 6.69
8/11/2021 9:30:00 PM 25.04 77.07201 0.266 7.31 5.81 6.62
8/11/2021 9:45:00 PM 24.96 76.92799 0.266 7.3 6.06 6.63
8/11/2021 10:00:00 PM 24.87 76.766 0.266 7.29 10.9 6.63
8/11/2021 10:15:00 PM 24.8 76.64 0.266 7.28 6.09 6.65
8/11/2021 10:30:00 PM 24.73 76.514 0.266 7.27 5.93 6.58
8/11/2021 10:45:00 PM 24.67 76.406 0.266 7.27 6.16 6.68
8/11/2021 11:00:00 PM 24.6 76.28 0.266 7.26 6.09 6.66
8/11/2021 11:15:00 PM 24.55 76.19 0.267 7.27 6 6.63
8/11/2021 11:30:00 PM 24.49 76.082 0.267 7.26 7.18 6.73
8/11/2021 11:45:00 PM 24.43 75.974 0.267 7.27 6.03 6.73
8/12/2021 12:00:00 AM 24.37 75.866 0.267 7.27 5.99 6.72
8/12/2021 12:15:00 AM 24.31 75.758 0.267 7.27 6.05 6.66
8/12/2021 12:30:00 AM 24.23 75.614 0.267 7.26 6.18 6.64
8/12/2021 12:45:00 AM 24.18 75.524 0.267 7.26 6.54 6.79
8/12/2021 1:00:00 AM 24.11 75.398 0.269 7.26 6.14 6.78
8/12/2021 1:15:00 AM 24.05 75.29 0.267 7.26 6.36 6.78
8/12/2021 1:30:00 AM 24.02 75.236 0.267 7.26 6.46 6.87
8/12/2021 1:45:00 AM 23.97 75.146 0.267 7.27 6.21 6.85
8/12/2021 2:00:00 AM 23.92 75.056 0.267 7.27 6.22 6.85
8/12/2021 2:15:00 AM 23.86 74.948 0.268 7.27 6.17 6.87
8/12/2021 2:30:00 AM 23.81 74.858 0.267 7.27 6.17 6.84
8/12/2021 2:45:00 AM 23.74 74.732 0.267 7.27 6.18 6.87
8/12/2021 3:00:00 AM 23.69 74.642 0.268 7.27 6.13 6.89
8/12/2021 3:15:00 AM 23.63 74.534 0.268 7.26 6.15 6.92
8/12/2021 3:30:00 AM 23.58 74.444 0.267 7.26 6.51 6.93
8/12/2021 3:45:00 AM 23.54 74.372 0.268 7.27 6.25 6.99
8/12/2021 4:00:00 AM 23.48 74.264 0.268 7.27 6.31 6.99
8/12/2021 4:15:00 AM 23.43 74.174 0.267 7.26 6.28 6.97
8/12/2021 4:30:00 AM 23.37 74.066 0.267 7.27 6.18 6.88
8/12/2021 4:45:00 AM 23.3 73.94 0.266 7.27 6.41 6.99
8/12/2021 5:00:00 AM 23.25 73.85 0.266 7.27 6.24 7.01
8/12/2021 5:15:00 AM 23.19 73.742 0.266 7.27 6.29 7.02
8/12/2021 5:30:00 AM 23.13 73.634 0.266 7.27 6.41 7.04
8/12/2021 5:45:00 AM 23.06 73.508 0.266 7.26 6.43 6.99
8/12/2021 6:00:00 AM 23 73.4 0.266 7.27 6.33 6.96
8/12/2021 6:15:00 AM 22.94 73.292 0.266 7.27 6.42 7.1
8/12/2021 6:30:00 AM 22.88 73.184 0.267 7.27 6.37 7.15
8/12/2021 6:45:00 AM 22.82 73.076 0.266 7.28 6.33 7.2
8/12/2021 7:00:00 AM 22.78 73.004 0.266 7.3 6.15 7.25
8/12/2021 7:15:00 AM 22.74 72.932 0.266 7.31 6.41 7.48
8/12/2021 7:30:00 AM 22.71 72.878 0.266 7.33 6.3 7.61
8/12/2021 7:45:00 AM 22.71 72.878 0.265 7.37 6.2 7.83
8/12/2021 8:00:00 AM 22.72 72.896 0.265 7.41 6.18 8.03
8/12/2021 8:15:00 AM 22.74 72.932 0.265 7.44 6.18 8.22
8/12/2021 8:30:00 AM 22.77 72.986 0.265 7.49 6.09 8.41
8/12/2021 8:45:00 AM 22.82 73.076 0.265 7.54 6.11 8.66
8/12/2021 9:00:00 AM 22.88 73.184 0.264 7.61 6.26 8.85
8/12/2021 9:15:00 AM 22.94 73.292 0.264 7.66 6.04 8.99
8/12/2021 9:30:00 AM 23.01 73.418 0.264 7.71 6.1 9.05
8/12/2021 9:45:00 AM 23.08 73.544 0.263 7.77 6.14 9.23
8/12/2021 10:00:00 AM 23.17 73.706 0.263 7.83 6.01 9.36
8/12/2021 10:15:00 AM 23.27 73.886 0.262 7.86 5.92 8.69
8/12/2021 10:30:00 AM 23.39 74.102 0.263 7.92 5.95 9.54
8/12/2021 10:45:00 AM 23.52 74.336 0.263 7.98 5.81 9.66
8/12/2021 11:00:00 AM 23.67 74.606 0.262 8.01 5.83 9.69
8/12/2021 11:15:00 AM 23.81 74.858 0.262 8.07 5.81 9.84
8/12/2021 11:30:00 AM 24.01 75.218 0.262 8.12 5.9 9.89
8/12/2021 11:45:00 AM 24.19 75.542 0.262 8.17 5.78 9.97
8/12/2021 12:00:00 PM 24.24 75.632 0.262 8.21 5.78 9.97
8/12/2021 12:15:00 PM 24.32 75.776 0.262 8.22 5.72 9.93
8/12/2021 12:30:00 PM 24.38 75.884 0.261 8.22 6.11 9.8
8/12/2021 12:45:00 PM 24.5 76.1 0.261 8.23 5.76 9.86
8/12/2021 1:00:00 PM 24.69 76.442 0.261 8.29 5.71 9.99
8/12/2021 1:15:00 PM 24.94 76.892 0.262 8.37 5.9 10.14
8/12/2021 1:30:00 PM 25.23 77.414 0.262 8.44 5.76 10.2
8/12/2021 1:45:00 PM 25.39 77.702 0.262 8.46 5.99 10.18
8/12/2021 2:00:00 PM 25.57 78.026 0.262 8.52 6.19 10.24
8/12/2021 2:15:00 PM 25.73 78.314 0.261 8.55 5.76 10.25
8/12/2021 2:30:00 PM 25.72 78.296 0.262 8.49 5.76 9.6
8/12/2021 2:45:00 PM 25.75 78.35 0.262 8.48 5.84 9.68
8/12/2021 3:00:00 PM 25.64 78.152 0.262 8.32 5.92 9.06
8/12/2021 3:15:00 PM 25.44 77.792 0.261 8.07 5.84 8.3
8/12/2021 3:30:00 PM 25.33 77.594 0.262 7.92 6.14 7.8
8/12/2021 3:45:00 PM 25.22 77.396 0.261 7.8 6.08 7.69
8/12/2021 4:00:00 PM 25.13 77.234 0.261 7.75 5.87 7.77
8/12/2021 4:15:00 PM 25.33 77.594 0.261 7.9 6.27 8.62
8/12/2021 4:30:00 PM 25.34 77.612 0.261 7.96 6.26 8.25
8/12/2021 4:45:00 PM 25.2 77.36 0.261 7.87 5.93 8.23
8/12/2021 5:00:00 PM 25.32 77.576 0.261 7.96 5.97 8.81
8/12/2021 5:15:00 PM 25.35 77.63 0.261 7.99 6.3 8.77
8/12/2021 5:30:00 PM 25.35 77.63 0.261 8 5.97 8.33
8/12/2021 5:45:00 PM 25.3 77.54 0.26 7.96 13.04 8.73
8/12/2021 6:00:00 PM 25.24 77.432 0.261 7.91 10.76 8.5
8/12/2021 6:15:00 PM 25.17 77.306 0.262 7.85 5.95 8.41
8/12/2021 6:30:00 PM 25.11 77.198 0.263 7.79 6.15 8.17
8/12/2021 6:45:00 PM 25.04 77.07201 0.263 7.72 6.33 8.02
8/12/2021 7:00:00 PM 24.98 76.964 0.265 7.65 5.86 7.77
8/12/2021 7:15:00 PM 24.91 76.838 0.268 7.59 5.86 7.23
8/12/2021 7:30:00 PM 24.83 76.694 0.27 7.53 18.8 7.36
8/12/2021 7:45:00 PM 24.77 76.586 0.271 7.48 9.12 7.2
8/12/2021 8:00:00 PM 24.72 76.496 0.271 7.43 6.11 6.86
8/12/2021 8:15:00 PM 24.66 76.388 0.271 7.39 6.08 6.99
8/12/2021 8:30:00 PM 24.61 76.298 0.27 7.38 6.13 7
8/12/2021 8:45:00 PM 24.56 76.208 0.269 7.35 6.96 6.83
8/12/2021 9:00:00 PM 24.52 76.136 0.269 7.33 6.23 6.88
8/12/2021 9:15:00 PM 24.47 76.046 0.268 7.31 6.49 6.84
8/12/2021 9:30:00 PM 24.43 75.974 0.268 7.3 6.27 6.88
8/12/2021 9:45:00 PM 24.4 75.92 0.267 7.3 6.25 6.79
8/12/2021 10:00:00 PM 24.34 75.812 0.267 7.29 7.89 6.81
8/12/2021 10:15:00 PM 23.68 74.624 0.238 7.3 11.52 7.36
8/12/2021 10:30:00 PM 23.54 74.372 0.236 7.27 13.14 7.45
8/12/2021 10:45:00 PM 23.29 73.922 0.221 7.23 72.17 7.52
8/12/2021 11:00:00 PM 23.04 73.472 0.204 7.16 86.96 7.52
8/12/2021 11:15:00 PM 22.96 73.328 0.205 7.11 57.28 7.52
8/12/2021 11:30:00 PM 22.97 73.346 0.221 7.13 44.2 7.43
8/12/2021 11:45:00 PM 23 73.4 0.24 7.18 35.31 7.4
8/13/2021 12:00:00 AM 22.79 73.022 0.248 7.19 51.63 7.41
8/13/2021 12:15:00 AM 22.56 72.608 0.25 7.16 54.02 7.45
8/13/2021 12:30:00 AM 22.36 72.248 0.239 7.15 75.74 7.58
8/13/2021 12:45:00 AM 22.23 72.014 0.245 7.16 62.59 7.65
8/13/2021 1:00:00 AM 22.22 71.996 0.235 7.18 65.74 7.66
8/13/2021 1:15:00 AM 22.19 71.942 0.213 7.17 60.03 7.66
8/13/2021 1:30:00 AM 22.18 71.924 0.213 7.16 60.4 7.68
8/13/2021 1:45:00 AM 22.14 71.852 0.229 7.18 67.17 7.72
8/13/2021 2:00:00 AM 22.09 71.762 0.244 7.21 72.4 7.76
8/13/2021 2:15:00 AM 22.09 71.762 0.255 7.24 70.72 7.78
8/13/2021 2:30:00 AM 22.1 71.78 0.266 7.26 82.33 7.79
8/13/2021 2:45:00 AM 22.13 71.834 0.287 7.29 75.17 7.81
8/13/2021 3:00:00 AM 22.11 71.798 0.301 7.31 46.64 7.83
8/13/2021 3:15:00 AM 22.05 71.69 0.289 7.32 48.69 7.84
8/13/2021 3:30:00 AM 22.02 71.636 0.271 7.31 44.46 7.85
8/13/2021 3:45:00 AM 22.02 71.636 0.26 7.3 32.08 7.83
8/13/2021 4:00:00 AM 22.03 71.654 0.255 7.29 34.25 7.83
8/13/2021 4:15:00 AM 22.02 71.636 0.251 7.29 31.26 7.83
8/13/2021 4:30:00 AM 22 71.6 0.247 7.29 23.59 7.83
8/13/2021 4:45:00 AM 21.97 71.546 0.243 7.29 33.38 7.82
8/13/2021 5:00:00 AM 21.94 71.492 0.239 7.28 25.97 7.83
8/13/2021 5:15:00 AM 21.92 71.456 0.241 7.28 23.23 7.81
8/13/2021 5:30:00 AM 21.9 71.42 0.238 7.28 25.21 7.84
8/13/2021 5:45:00 AM 21.88 71.384 0.237 7.28 20.48 7.85
8/13/2021 6:00:00 AM 21.86 71.348 0.236 7.28 23.33 7.82
8/13/2021 6:15:00 AM 21.86 71.348 0.235 7.28 19.81 7.86
8/13/2021 6:30:00 AM 21.85 71.33 0.234 7.28 27.78 7.84
8/13/2021 6:45:00 AM 21.85 71.33 0.232 7.28 22.26 7.87
8/13/2021 7:00:00 AM 21.85 71.33 0.231 7.29 16.59 7.87
8/13/2021 7:15:00 AM 21.86 71.348 0.23 7.3 15.88 7.9
8/13/2021 7:30:00 AM 21.89 71.402 0.228 7.3 15.04 7.93
8/13/2021 7:45:00 AM 21.91 71.438 0.226 7.3 14.19 7.98
8/13/2021 8:00:00 AM 21.94 71.492 0.226 7.31 13.37 7.85
8/13/2021 8:15:00 AM 21.99 71.582 0.225 7.32 14.07 8.01
8/13/2021 8:30:00 AM 22.07 71.726 0.223 7.34 12.76 8.12
8/13/2021 8:45:00 AM 22.12 71.816 0.222 7.35 12.82 8.15
8/13/2021 9:00:00 AM 22.19 71.942 0.221 7.37 12.28 8.19
8/13/2021 9:15:00 AM 22.26 72.068 0.22 7.38 11.28 8.22
8/13/2021 9:30:00 AM 22.36 72.248 0.221 7.39 12.03 8.25
8/13/2021 9:45:00 AM 22.45 72.41 0.219 7.41 12.36 8.29
8/13/2021 10:00:00 AM 22.55 72.59 0.218 7.43 10.86 8.31
8/13/2021 10:15:00 AM 22.66 72.788 0.217 7.44 10.54 8.37
8/13/2021 10:30:00 AM 22.78 73.004 0.216 7.47 9.79 8.38
8/13/2021 10:45:00 AM 22.92 73.256 0.217 7.47 15.7 8.4
8/13/2021 11:00:00 AM 23.07 73.526 0.218 7.49 11.23 8.44
8/13/2021 11:15:00 AM 23.23 73.814 0.216 7.51 9.14 8.48
8/13/2021 11:30:00 AM 23.39 74.102 0.216 7.53 10.67 8.49
8/13/2021 11:45:00 AM 23.57 74.426 0.217 7.55 9.34 8.52
8/13/2021 12:00:00 PM 23.76 74.768 0.216 7.57 10.34 8.53
8/13/2021 12:15:00 PM 23.97 75.146 0.214 7.59 9.31 8.58
8/13/2021 12:30:00 PM 24.18 75.524 0.215 7.62 8.99 8.59
8/13/2021 12:45:00 PM 24.41 75.938 0.215 7.64 8.72 8.6
8/13/2021 1:00:00 PM 24.63 76.334 0.215 7.66 8.55 8.62
8/13/2021 1:15:00 PM 24.86 76.748 0.215 7.68 9.06 8.55
8/13/2021 1:30:00 PM 25.09 77.162 0.214 7.69 8.74 8.56
8/13/2021 1:45:00 PM 25.32 77.576 0.214 7.71 11.4 8.58
8/13/2021 2:00:00 PM 25.53 77.954 0.214 7.73 9.14 8.52
8/13/2021 2:15:00 PM 25.72 78.296 0.213 7.74 15.88 8.52
8/13/2021 2:30:00 PM 25.93 78.674 0.213 7.76 8.32 8.53
8/13/2021 2:45:00 PM 26.09 78.962 0.213 7.76 8.38 8.4
8/13/2021 3:00:00 PM 26.25 79.25 0.213 7.75 8.24 8.4
8/13/2021 3:15:00 PM 26.37 79.466 0.213 7.74 8.55 8.28
8/13/2021 3:30:00 PM 26.47 79.646 0.213 7.72 8.26 8.21
8/13/2021 3:45:00 PM 26.53 79.754 0.215 7.7 8.2 8.16
8/13/2021 4:00:00 PM 26.6 79.88 0.216 7.68 7.96 8.06
8/13/2021 4:15:00 PM 26.65 79.97 0.215 7.66 12 7.98
8/13/2021 4:30:00 PM 26.69 80.042 0.216 7.63 8.71 7.95
8/13/2021 4:45:00 PM 26.71 80.078 0.216 7.61 7.94 7.84
8/13/2021 5:00:00 PM 26.71 80.078 0.215 7.58 8.47 7.76
8/13/2021 5:15:00 PM 26.71 80.078 0.216 7.55 8.31 7.66
8/13/2021 5:30:00 PM 26.68 80.024 0.215 7.52 8.38 7.64
8/13/2021 5:45:00 PM 26.65 79.97 0.216 7.5 8.07 7.58
8/13/2021 6:00:00 PM 26.61 79.898 0.215 7.46 7.91 7.43
8/13/2021 6:15:00 PM 26.55 79.79 0.217 7.43 8.12 7.3
8/13/2021 6:30:00 PM 26.49 79.682 0.218 7.4 7.9 7.27
8/13/2021 6:45:00 PM 26.43 79.574 0.218 7.38 7.77 7.2
8/13/2021 7:00:00 PM 26.37 79.466 0.218 7.36 7.97 7.16
8/13/2021 7:15:00 PM 26.31 79.358 0.218 7.35 8.34 7.17
8/13/2021 7:30:00 PM 26.23 79.214 0.218 7.34 10.31 7.16
8/13/2021 7:45:00 PM 26.15 79.07 0.217 7.33 7.99 7.14
8/13/2021 8:00:00 PM 26.07 78.926 0.218 7.32 8.28 7.12
8/13/2021 8:15:00 PM 25.99 78.782 0.218 7.3 14.06 7.11
8/13/2021 8:30:00 PM 25.9 78.62 0.219 7.29 8.65 7.09
8/13/2021 8:45:00 PM 25.8 78.44 0.219 7.28 8.91 7.13
8/13/2021 9:00:00 PM 25.71 78.278 0.22 7.27 8.68 7.09
8/13/2021 9:15:00 PM 25.61 78.098 0.22 7.27 8.39 7.12
8/13/2021 9:30:00 PM 25.52 77.936 0.22 7.26 8.69 7.13
8/13/2021 9:45:00 PM 25.44 77.792 0.22 7.25 9.16 7.13
8/13/2021 10:00:00 PM 25.35 77.63 0.22 7.25 8.31 7.12
8/13/2021 10:15:00 PM 25.26 77.468 0.219 7.24 8.88 7.16
8/13/2021 10:30:00 PM 25.18 77.324 0.219 7.24 15.42 7.2
8/13/2021 10:45:00 PM 25.09 77.162 0.219 7.24 8.47 7.19
8/13/2021 11:00:00 PM 25.01 77.018 0.219 7.24 8.88 7.21
8/13/2021 11:15:00 PM 24.93 76.874 0.219 7.24 8.84 7.24
8/13/2021 11:30:00 PM 24.84 76.712 0.218 7.24 8.58 7.22
8/13/2021 11:45:00 PM 24.75 76.55 0.218 7.24 9.07 7.26
8/14/2021 12:00:00 AM 24.66 76.388 0.218 7.24 8.5 7.26
8/14/2021 12:15:00 AM 24.58 76.244 0.217 7.24 8.52 7.29
8/14/2021 12:30:00 AM 24.49 76.082 0.218 7.24 8.59 7.32
8/14/2021 12:45:00 AM 24.42 75.956 0.219 7.24 8.33 7.32
8/14/2021 1:00:00 AM 24.34 75.812 0.219 7.24 8.35 7.32
8/14/2021 1:15:00 AM 24.27 75.686 0.22 7.24 8.45 7.34
8/14/2021 1:30:00 AM 24.2 75.56 0.221 7.25 8.7 7.34
8/14/2021 1:45:00 AM 24.15 75.47 0.221 7.25 8.47 7.38
8/14/2021 2:00:00 AM 24.09 75.362 0.222 7.25 8.51 7.38
8/14/2021 2:15:00 AM 24.04 75.272 0.222 7.25 8.4 7.38
8/14/2021 2:30:00 AM 23.99 75.182 0.222 7.25 8.46 7.37
8/14/2021 2:45:00 AM 23.94 75.092 0.223 7.25 8.43 7.4
8/14/2021 3:00:00 AM 23.89 75.002 0.22 7.26 8.46 7.43
8/14/2021 3:15:00 AM 23.85 74.93 0.22 7.26 8.5 7.39
8/14/2021 3:30:00 AM 23.81 74.858 0.219 7.26 8.65 7.41
8/14/2021 3:45:00 AM 23.77 74.786 0.219 7.26 10.46 7.42
8/14/2021 4:00:00 AM 23.74 74.732 0.219 7.27 9.1 7.46
8/14/2021 4:15:00 AM 23.7 74.66 0.218 7.27 9.04 7.44
8/14/2021 4:30:00 AM 23.67 74.606 0.218 7.27 8.84 7.44
8/14/2021 4:45:00 AM 23.63 74.534 0.219 7.27 8.66 7.43
8/14/2021 5:00:00 AM 23.6 74.48 0.219 7.27 9.03 7.41
8/14/2021 5:15:00 AM 23.57 74.426 0.219 7.27 8.89 7.35
8/14/2021 5:30:00 AM 23.55 74.39 0.219 7.27 9.23 7.44
8/14/2021 5:45:00 AM 23.52 74.336 0.219 7.27 8.74 7.41
8/14/2021 6:00:00 AM 23.5 74.3 0.219 7.27 11.59 7.44
8/14/2021 6:15:00 AM 23.49 74.282 0.219 7.28 9.73 7.48
8/14/2021 6:30:00 AM 23.47 74.246 0.219 7.27 8.27 7.44
8/14/2021 6:45:00 AM 23.45 74.21 0.219 7.28 8.3 7.48
8/14/2021 7:00:00 AM 23.45 74.21 0.219 7.29 8.52 7.54
8/14/2021 7:15:00 AM 23.45 74.21 0.22 7.29 11.05 7.58
8/14/2021 7:30:00 AM 23.45 74.21 0.22 7.3 8.04 7.65
8/14/2021 7:45:00 AM 23.47 74.246 0.221 7.31 10.84 7.72
8/14/2021 8:00:00 AM 23.49 74.282 0.221 7.33 7.57 7.76
8/14/2021 8:15:00 AM 23.51 74.318 0.222 7.34 7.63 7.85
8/14/2021 8:30:00 AM 23.55 74.39 0.222 7.36 7.4 7.97
8/14/2021 8:45:00 AM 23.6 74.48 0.221 7.39 7.51 8.04
8/14/2021 9:00:00 AM 23.6 74.48 0.222 7.39 7.29 7.96
8/14/2021 9:15:00 AM 23.64 74.552 0.222 7.41 7.32 8.08
8/14/2021 9:30:00 AM 23.69 74.642 0.222 7.42 7.38 8.18
8/14/2021 9:45:00 AM 23.77 74.786 0.222 7.47 7.32 8.32
8/14/2021 10:00:00 AM 23.82 74.876 0.222 7.49 7.5 8.36
8/14/2021 10:15:00 AM 23.83 74.894 0.223 7.5 7.59 8.29
8/14/2021 10:30:00 AM 23.82 74.876 0.223 7.49 7.26 8.15
8/14/2021 10:45:00 AM 23.79 74.82201 0.223 7.46 7.94 7.92
8/14/2021 11:00:00 AM 23.76 74.768 0.223 7.45 7.24 8
8/14/2021 11:15:00 AM 23.79 74.82201 0.223 7.46 7.06 8.14
8/14/2021 11:30:00 AM 23.79 74.82201 0.223 7.48 12.36 8.2
8/14/2021 11:45:00 AM 23.85 74.93 0.224 7.52 7.48 8.41
8/14/2021 12:00:00 PM 23.8 74.84 0.223 7.54 7.45 8.29
8/14/2021 12:15:00 PM 23.77 74.786 0.224 7.52 7.46 8.34
8/14/2021 12:30:00 PM 23.77 74.786 0.224 7.55 7.23 8.36
8/14/2021 12:45:00 PM 23.85 74.93 0.224 7.59 8.06 8.65
8/14/2021 1:00:00 PM 23.92 75.056 0.225 7.65 8.12 8.8
8/14/2021 1:15:00 PM 23.99 75.182 0.226 7.71 9.06 8.87
8/14/2021 1:30:00 PM 24.01 75.218 0.227 7.75 7.29 8.92
8/14/2021 1:45:00 PM 24.03 75.254 0.228 7.77 6.83 8.94
8/14/2021 2:00:00 PM 24.08 75.344 0.228 7.8 7.03 8.97
8/14/2021 2:15:00 PM 24.15 75.47 0.227 7.84 6.85 9.03
8/14/2021 2:30:00 PM 24.25 75.65 0.226 7.87 6.94 9.04
8/14/2021 2:45:00 PM 24.3 75.74 0.226 7.9 6.72 9.04
8/14/2021 3:00:00 PM 24.32 75.776 0.227 7.9 6.75 9.01
8/14/2021 3:15:00 PM 24.33 75.794 0.228 7.9 7.48 8.98
8/14/2021 3:30:00 PM 24.34 75.812 0.227 7.91 6.92 8.89
8/14/2021 3:45:00 PM 24.33 75.794 0.228 7.89 6.89 8.91
8/14/2021 4:00:00 PM 24.35 75.83 0.228 7.9 7.34 8.92
8/14/2021 4:15:00 PM 24.4 75.92 0.228 7.9 6.8 8.86
8/14/2021 4:30:00 PM 24.36 75.848 0.228 7.84 6.86 8.69
8/14/2021 4:45:00 PM 24.34 75.812 0.228 7.8 7.85 8.57
8/14/2021 5:00:00 PM 24.33 75.794 0.229 7.77 7.32 8.43
8/14/2021 5:15:00 PM 24.29 75.722 0.229 7.73 6.93 8.37
8/14/2021 5:30:00 PM 24.24 75.632 0.23 7.69 6.86 8.24
8/14/2021 5:45:00 PM 24.15 75.47 0.23 7.65 6.82 8.21
8/14/2021 6:00:00 PM 24.09 75.362 0.23 7.6 6.81 8.1
8/14/2021 6:15:00 PM 24.04 75.272 0.231 7.58 6.89 8.03
8/14/2021 6:30:00 PM 23.98 75.164 0.231 7.55 7.04 7.97
8/14/2021 6:45:00 PM 23.93 75.074 0.231 7.53 6.86 7.93
8/14/2021 7:00:00 PM 23.87 74.966 0.231 7.49 7.06 7.81
8/14/2021 7:15:00 PM 23.79 74.82201 0.232 7.46 8.44 7.74
8/14/2021 7:30:00 PM 23.72 74.696 0.231 7.44 7.01 7.67
8/14/2021 7:45:00 PM 23.64 74.552 0.231 7.41 8.34 7.61
8/14/2021 8:00:00 PM 23.56 74.408 0.231 7.39 8.69 7.56
8/14/2021 8:15:00 PM 23.48 74.264 0.232 7.37 7.09 7.47
8/14/2021 8:30:00 PM 23.41 74.138 0.232 7.36 7.99 7.43
8/14/2021 8:45:00 PM 23.33 73.994 0.232 7.34 8.2 7.44
8/14/2021 9:00:00 PM 23.24 73.832 0.232 7.33 7.29 7.45
8/14/2021 9:15:00 PM 23.15 73.67 0.232 7.32 7.47 7.46
8/14/2021 9:30:00 PM 23.07 73.526 0.233 7.32 7.59 7.49
8/14/2021 9:45:00 PM 22.99 73.382 0.233 7.32 7.45 7.49
8/14/2021 10:00:00 PM 22.89 73.202 0.233 7.31 7.55 7.48
8/14/2021 10:15:00 PM 22.8 73.04 0.233 7.31 7.78 7.52
8/14/2021 10:30:00 PM 22.69 72.842 0.233 7.3 7.27 7.52
8/14/2021 10:45:00 PM 22.6 72.68 0.234 7.3 7.41 7.53
8/14/2021 11:00:00 PM 22.51 72.518 0.234 7.3 7.26 7.54
8/14/2021 11:15:00 PM 22.42 72.356 0.234 7.3 7.35 7.6
8/14/2021 11:30:00 PM 22.31 72.158 0.234 7.3 7.69 7.64
8/14/2021 11:45:00 PM 22.21 71.978 0.235 7.3 7.31 7.64
8/15/2021 12:00:00 AM 22.1 71.78 0.234 7.29 7.52 7.69
8/15/2021 12:15:00 AM 22 71.6 0.234 7.29 7.32 7.67
8/15/2021 12:30:00 AM 21.93 71.474 0.234 7.3 7.37 7.72
8/15/2021 12:45:00 AM 21.81 71.258 0.235 7.29 7.32 7.69
8/15/2021 1:00:00 AM 21.71 71.078 0.234 7.29 7.43 7.71
8/15/2021 1:15:00 AM 21.62 70.916 0.235 7.29 10.87 7.73
8/15/2021 1:30:00 AM 21.54 70.772 0.235 7.3 7.33 7.75
8/15/2021 1:45:00 AM 21.42 70.556 0.235 7.29 7.39 7.78
8/15/2021 2:00:00 AM 21.34 70.412 0.235 7.29 7.47 7.79
8/15/2021 2:15:00 AM 21.26 70.268 0.235 7.29 7.3 7.84
8/15/2021 2:30:00 AM 21.19 70.142 0.236 7.29 10.59 7.91
8/15/2021 2:45:00 AM 21.1 69.98 0.237 7.29 7.31 7.81
8/15/2021 3:00:00 AM 21.04 69.872 0.237 7.3 7.4 7.87
8/15/2021 3:15:00 AM 20.96 69.728 0.236 7.3 7.61 7.89
8/15/2021 3:30:00 AM 20.91 69.638 0.236 7.3 7.3 7.87
8/15/2021 3:45:00 AM 20.84 69.512 0.236 7.3 7.62 7.91
8/15/2021 4:00:00 AM 20.77 69.386 0.236 7.31 7.4 7.89
8/15/2021 4:15:00 AM 20.7 69.26 0.236 7.31 7.34 7.95
8/15/2021 4:30:00 AM 20.61 69.098 0.236 7.31 7.51 7.95
8/15/2021 4:45:00 AM 20.54 68.972 0.236 7.31 7.31 7.96
8/15/2021 5:00:00 AM 20.45 68.81 0.237 7.3 7.42 7.97
8/15/2021 5:15:00 AM 20.36 68.648 0.237 7.3 7.23 8
8/15/2021 5:30:00 AM 20.3 68.54 0.238 7.31 7.6 8.06
8/15/2021 5:45:00 AM 20.21 68.378 0.238 7.3 7.55 8.04
8/15/2021 6:00:00 AM 20.13 68.234 0.237 7.31 7.48 8.11
8/15/2021 6:15:00 AM 20.05 68.09 0.236 7.31 8.2 8.08
8/15/2021 6:30:00 AM 20 68 0.236 7.31 7.64 7.99
8/15/2021 6:45:00 AM 19.96 67.92799 0.237 7.31 7.8 8.18
8/15/2021 7:00:00 AM 19.91 67.838 0.237 7.33 7.61 8.22
8/15/2021 7:15:00 AM 19.87 67.766 0.236 7.34 7.33 8.29
8/15/2021 7:30:00 AM 19.85 67.73 0.237 7.36 7.25 8.44
8/15/2021 7:45:00 AM 19.84 67.712 0.236 7.37 7.34 8.52
8/15/2021 8:00:00 AM 19.81 67.658 0.236 7.39 7.37 8.55
8/15/2021 8:15:00 AM 19.8 67.64 0.236 7.41 7.21 8.67
8/15/2021 8:30:00 AM 19.82 67.676 0.235 7.44 7.18 8.83
8/15/2021 8:45:00 AM 19.85 67.73 0.235 7.47 7.22 8.97
8/15/2021 9:00:00 AM 19.86 67.748 0.235 7.5 7.03 8.98
8/15/2021 9:15:00 AM 19.91 67.838 0.235 7.53 7.19 9.16
8/15/2021 9:30:00 AM 19.96 67.92799 0.236 7.56 7.18 9.22
8/15/2021 9:45:00 AM 20 68 0.236 7.59 6.99 9.25
8/15/2021 10:00:00 AM 20.08 68.144 0.237 7.63 6.98 9.38
8/15/2021 10:15:00 AM 20.15 68.27 0.237 7.66 7.16 9.41
8/15/2021 10:30:00 AM 20.27 68.486 0.237 7.69 7 9.5
8/15/2021 10:45:00 AM 20.4 68.72 0.237 7.72 7.1 9.51
8/15/2021 11:00:00 AM 20.55 68.99 0.237 7.75 7.57 9.54
8/15/2021 11:15:00 AM 20.7 69.26 0.237 7.77 6.73 9.53
8/15/2021 11:30:00 AM 20.86 69.548 0.237 7.8 6.97 9.53
8/15/2021 11:45:00 AM 20.96 69.728 0.237 7.83 6.79 9.58
8/15/2021 12:00:00 PM 21.08 69.944 0.237 7.84 6.89 9.55
8/15/2021 12:15:00 PM 21.22 70.196 0.237 7.84 6.77 9.49
8/15/2021 12:30:00 PM 21.4 70.52 0.237 7.85 6.74 9.48
8/15/2021 12:45:00 PM 21.6 70.88 0.237 7.87 6.66 9.53
8/15/2021 1:00:00 PM 21.75 71.15 0.237 7.88 6.64 9.49
8/15/2021 1:15:00 PM 21.94 71.492 0.237 7.9 6.72 9.48
8/15/2021 1:30:00 PM 22.08 71.744 0.238 7.95 6.62 9.56
8/15/2021 1:45:00 PM 22.25 72.05 0.238 7.98 6.55 9.58
8/15/2021 2:00:00 PM 22.4 72.32 0.238 8.01 6.63 9.57
8/15/2021 2:15:00 PM 22.52 72.536 0.238 8.04 6.65 9.56
8/15/2021 2:30:00 PM 22.65 72.77 0.239 8.04 6.75 9.46
8/15/2021 2:45:00 PM 22.69 72.842 0.239 8.03 6.57 9.32
8/15/2021 3:00:00 PM 22.81 73.058 0.24 8.05 6.49 9.43
8/15/2021 3:15:00 PM 22.92 73.256 0.24 8.07 6.59 9.46
8/15/2021 3:30:00 PM 22.99 73.382 0.24 8.09 6.54 9.42
8/15/2021 3:45:00 PM 23.02 73.436 0.24 8.09 6.59 9.38
8/15/2021 4:00:00 PM 23.05 73.49 0.239 8.08 6.55 9.33
8/15/2021 4:15:00 PM 23.08 73.544 0.239 8.07 6.61 9.3
8/15/2021 4:30:00 PM 23.2 73.76 0.239 8.09 6.55 9.37
8/15/2021 4:45:00 PM 23.16 73.688 0.24 8.05 6.66 9.14
8/15/2021 5:00:00 PM 23.09 73.562 0.24 7.99 6.54 9
8/15/2021 5:15:00 PM 23.06 73.508 0.241 7.94 6.78 8.93
8/15/2021 5:30:00 PM 23.08 73.544 0.241 7.92 6.8 8.89
8/15/2021 5:45:00 PM 23.1 73.58 0.241 7.89 6.72 8.82
8/15/2021 6:00:00 PM 23.03 73.454 0.241 7.84 6.75 8.69
8/15/2021 6:15:00 PM 22.99 73.382 0.241 7.8 6.65 8.54
8/15/2021 6:30:00 PM 22.95 73.31 0.241 7.74 6.69 8.45
8/15/2021 6:45:00 PM 22.93 73.274 0.241 7.71 6.6 8.37
8/15/2021 7:00:00 PM 22.86 73.148 0.241 7.66 6.67 8.19
8/15/2021 7:15:00 PM 22.8 73.04 0.242 7.62 6.75 8.08
8/15/2021 7:30:00 PM 22.73 72.914 0.242 7.57 6.9 7.98
8/15/2021 7:45:00 PM 22.67 72.806 0.243 7.54 7.03 7.83
8/15/2021 8:00:00 PM 22.6 72.68 0.243 7.51 7.18 7.78
8/15/2021 8:15:00 PM 22.52 72.536 0.243 7.47 6.98 7.68
8/15/2021 8:30:00 PM 22.46 72.42799 0.242 7.45 7.13 7.63
8/15/2021 8:45:00 PM 22.39 72.302 0.243 7.43 7.05 7.57
8/15/2021 9:00:00 PM 22.33 72.194 0.243 7.42 7.21 7.6
8/15/2021 9:15:00 PM 22.24 72.032 0.243 7.4 7.06 7.65
8/15/2021 9:30:00 PM 22.18 71.924 0.243 7.39 7.06 7.64
8/15/2021 9:45:00 PM 22.11 71.798 0.245 7.38 7.61 7.65
8/15/2021 10:00:00 PM 22.02 71.636 0.244 7.37 7.11 7.59
8/15/2021 10:15:00 PM 21.97 71.546 0.244 7.37 7.15 7.61
8/15/2021 10:30:00 PM 21.88 71.384 0.243 7.36 9.59 7.65
8/15/2021 10:45:00 PM 21.81 71.258 0.244 7.35 7.04 7.66
8/15/2021 11:00:00 PM 21.76 71.168 0.244 7.35 7.14 7.7
8/15/2021 11:15:00 PM 21.69 71.042 0.243 7.35 7 7.7
8/15/2021 11:30:00 PM 21.6 70.88 0.243 7.34 7.1 7.7
8/15/2021 11:45:00 PM 21.53 70.754 0.244 7.34 7.04 7.7
8/16/2021 12:00:00 AM 21.46 70.628 0.244 7.34 7.05 7.75
8/16/2021 12:15:00 AM 21.39 70.502 0.244 7.34 7.11 7.73
8/16/2021 12:30:00 AM 21.32 70.376 0.244 7.34 7.02 7.76
8/16/2021 12:45:00 AM 21.26 70.268 0.244 7.34 7.17 7.78
8/16/2021 1:00:00 AM 21.18 70.124 0.243 7.34 7.03 7.83
8/16/2021 1:15:00 AM 21.12 70.016 0.244 7.34 7.64 7.8
8/16/2021 1:30:00 AM 21.06 69.908 0.244 7.34 7.3 7.87
8/16/2021 1:45:00 AM 20.99 69.782 0.244 7.34 7.12 7.85
8/16/2021 2:00:00 AM 20.94 69.692 0.244 7.33 7.16 7.83
8/16/2021 2:15:00 AM 20.87 69.566 0.244 7.34 7.23 7.86
8/16/2021 2:30:00 AM 20.82 69.476 0.244 7.34 7.31 7.87
8/16/2021 2:45:00 AM 20.77 69.386 0.244 7.34 7.23 7.89
8/16/2021 3:00:00 AM 20.72 69.296 0.244 7.34 7.15 7.94
8/16/2021 3:15:00 AM 20.68 69.224 0.244 7.34 7.24 7.97
8/16/2021 3:30:00 AM 20.63 69.134 0.244 7.35 7.02 7.92
8/16/2021 3:45:00 AM 20.59 69.062 0.244 7.35 7.32 7.92
8/16/2021 4:00:00 AM 20.55 68.99 0.244 7.35 7.04 7.97
8/16/2021 4:15:00 AM 20.51 68.918 0.243 7.35 7.08 7.99
8/16/2021 4:30:00 AM 20.47 68.846 0.243 7.35 6.99 7.96
8/16/2021 4:45:00 AM 20.43 68.774 0.243 7.35 7.19 8
8/16/2021 5:00:00 AM 20.39 68.702 0.243 7.35 7.08 7.99
8/16/2021 5:15:00 AM 20.35 68.63 0.243 7.35 7.14 8
8/16/2021 5:30:00 AM 20.31 68.558 0.243 7.36 7.16 8.01
8/16/2021 5:45:00 AM 20.27 68.486 0.243 7.35 7.09 8.01
8/16/2021 6:00:00 AM 20.24 68.432 0.243 7.35 7.22 8.04
8/16/2021 6:15:00 AM 20.2 68.36 0.242 7.36 8.18 8
8/16/2021 6:30:00 AM 20.18 68.324 0.243 7.36 7.15 8.07
8/16/2021 6:45:00 AM 20.15 68.27 0.242 7.36 7.07 8.11
8/16/2021 7:00:00 AM 20.14 68.252 0.242 7.37 7.19 8.21
8/16/2021 7:15:00 AM 20.13 68.234 0.242 7.38 9.44 8.19
8/16/2021 7:30:00 AM 20.12 68.216 0.242 7.39 6.94 8.29
8/16/2021 7:45:00 AM 20.13 68.234 0.242 7.42 7.03 8.47
8/16/2021 8:00:00 AM 20.17 68.306 0.241 7.44 6.87 8.65
8/16/2021 8:15:00 AM 20.21 68.378 0.241 7.47 6.7 8.75
8/16/2021 8:30:00 AM 20.21 68.378 0.241 7.49 6.8 8.77
8/16/2021 8:45:00 AM 20.22 68.396 0.241 7.5 6.75 8.79
8/16/2021 9:00:00 AM 20.24 68.432 0.241 7.51 6.73 8.79
8/16/2021 9:15:00 AM 20.28 68.504 0.241 7.52 6.68 8.92
8/16/2021 9:30:00 AM 20.29 68.522 0.242 7.53 6.74 8.87
8/16/2021 9:45:00 AM 20.31 68.558 0.242 7.54 6.69 8.85
8/16/2021 10:00:00 AM 20.36 68.648 0.242 7.56 6.73 9.02
8/16/2021 10:15:00 AM 20.43 68.774 0.242 7.6 6.6 9.13
8/16/2021 10:30:00 AM 20.53 68.954 0.242 7.64 6.54 9.35
8/16/2021 10:45:00 AM 20.65 69.17 0.242 7.71 6.55 9.55
8/16/2021 11:00:00 AM 20.7 69.26 0.242 7.76 6.67 9.59
8/16/2021 11:15:00 AM 20.79 69.422 0.242 7.79 6.41 9.65
8/16/2021 11:30:00 AM 20.9 69.62 0.242 7.85 6.72 9.79
8/16/2021 11:45:00 AM 20.98 69.764 0.242 7.9 6.95 9.89
8/16/2021 12:00:00 PM 21.08 69.944 0.242 7.95 6.35 9.94
8/16/2021 12:15:00 PM 21.19 70.142 0.241 7.99 6.84 10
8/16/2021 12:30:00 PM 21.27 70.286 0.241 8.04 6.38 10.03
8/16/2021 12:45:00 PM 21.32 70.376 0.241 8.05 6.46 9.96
8/16/2021 1:00:00 PM 21.37 70.466 0.241 8.05 6.21 9.88
8/16/2021 1:15:00 PM 21.41 70.538 0.241 8.06 6.26 9.83
8/16/2021 1:30:00 PM 21.54 70.772 0.241 8.08 6.27 9.9
8/16/2021 1:45:00 PM 21.69 71.042 0.241 8.13 6.23 10.02
8/16/2021 2:00:00 PM 21.89 71.402 0.241 8.18 6.22 10.08
8/16/2021 2:15:00 PM 22.03 71.654 0.241 8.22 6.17 10.12
8/16/2021 2:30:00 PM 22.14 71.852 0.242 8.25 6.08 10.06
8/16/2021 2:45:00 PM 22.27 72.086 0.242 8.27 5.97 10.1
8/16/2021 3:00:00 PM 22.31 72.158 0.242 8.28 6.49 10
8/16/2021 3:15:00 PM 22.43 72.374 0.242 8.3 6.07 10.03
8/16/2021 3:30:00 PM 22.51 72.518 0.242 8.31 5.99 9.94
8/16/2021 3:45:00 PM 22.59 72.662 0.242 8.31 6.02 9.91
8/16/2021 4:00:00 PM 22.58 72.644 0.242 8.29 5.99 9.7
8/16/2021 4:15:00 PM 22.61 72.698 0.243 8.25 5.93 9.62
8/16/2021 4:30:00 PM 22.62 72.716 0.243 8.23 5.95 9.54
8/16/2021 4:45:00 PM 22.62 72.716 0.243 8.17 6.06 9.38
8/16/2021 5:00:00 PM 22.63 72.734 0.243 8.13 6.07 9.3
8/16/2021 5:15:00 PM 22.63 72.734 0.243 8.08 5.99 9.17
8/16/2021 5:30:00 PM 22.61 72.698 0.244 8 8.01 8.91
8/16/2021 5:45:00 PM 22.62 72.716 0.244 7.94 6.51 8.78
8/16/2021 6:00:00 PM 22.64 72.752 0.244 7.91 6.19 8.77
8/16/2021 6:15:00 PM 22.65 72.77 0.244 7.87 6.1 8.66
8/16/2021 6:30:00 PM 22.64 72.752 0.245 7.81 6.08 8.13
8/16/2021 6:45:00 PM 22.65 72.77 0.245 7.76 6.2 8.38
8/16/2021 7:00:00 PM 22.65 72.77 0.245 7.73 6.14 8.37
8/16/2021 7:15:00 PM 22.64 72.752 0.245 7.69 6.44 8.29
8/16/2021 7:30:00 PM 22.62 72.716 0.246 7.63 7.07 8.14
8/16/2021 7:45:00 PM 22.58 72.644 0.246 7.59 6.74 7.99
8/16/2021 8:00:00 PM 22.55 72.59 0.247 7.55 6.56 7.83
8/16/2021 8:15:00 PM 22.51 72.518 0.247 7.51 6.33 7.77
8/16/2021 8:30:00 PM 22.49 72.482 0.247 7.48 7.12 7.7
8/16/2021 8:45:00 PM 22.46 72.42799 0.248 7.45 6.48 7.65
8/16/2021 9:00:00 PM 22.42 72.356 0.248 7.43 6.41 7.57
8/16/2021 9:15:00 PM 22.38 72.284 0.249 7.42 6.7 7.49
8/16/2021 9:30:00 PM 22.35 72.23 0.249 7.4 6.49 7.58
8/16/2021 9:45:00 PM 22.31 72.158 0.249 7.39 6.43 7.58
8/16/2021 10:00:00 PM 22.28 72.104 0.25 7.39 6.6 7.55
8/16/2021 10:15:00 PM 22.24 72.032 0.25 7.38 6.58 7.53
8/16/2021 10:30:00 PM 22.21 71.978 0.25 7.37 6.48 7.53
8/16/2021 10:45:00 PM 22.18 71.924 0.25 7.37 6.79 7.54
8/16/2021 11:00:00 PM 22.14 71.852 0.25 7.36 6.66 7.56
8/16/2021 11:15:00 PM 22.11 71.798 0.251 7.36 6.48 7.52
8/16/2021 11:30:00 PM 22.09 71.762 0.251 7.35 6.71 7.58
8/16/2021 11:45:00 PM 22.06 71.708 0.251 7.35 6.44 7.53
8/17/2021 12:00:00 AM 22.03 71.654 0.251 7.35 6.45 7.56
8/17/2021 12:15:00 AM 22 71.6 0.251 7.34 6.53 7.57
8/17/2021 12:30:00 AM 21.97 71.546 0.252 7.35 6.53 7.57
8/17/2021 12:45:00 AM 21.95 71.51 0.252 7.34 6.41 7.59
8/17/2021 1:00:00 AM 21.91 71.438 0.252 7.34 6.5 7.58
8/17/2021 1:15:00 AM 21.88 71.384 0.252 7.34 8.84 7.61
8/17/2021 1:30:00 AM 21.85 71.33 0.252 7.34 6.49 7.62
8/17/2021 1:45:00 AM 21.83 71.294 0.252 7.34 6.5 7.63
8/17/2021 2:00:00 AM 21.8 71.24 0.252 7.34 6.55 7.61
8/17/2021 2:15:00 AM 21.77 71.186 0.253 7.33 6.49 7.61
8/17/2021 2:30:00 AM 21.74 71.132 0.253 7.33 6.59 7.63
8/17/2021 2:45:00 AM 21.72 71.096 0.253 7.34 6.62 7.59
8/17/2021 3:00:00 AM 21.69 71.042 0.253 7.33 6.62 7.66
8/17/2021 3:15:00 AM 21.67 71.006 0.253 7.33 6.56 7.65
8/17/2021 3:30:00 AM 21.65 70.97 0.253 7.33 7.36 7.69
8/17/2021 3:45:00 AM 21.63 70.934 0.253 7.33 6.48 7.61
8/17/2021 4:00:00 AM 21.61 70.898 0.253 7.33 6.55 7.66
8/17/2021 4:15:00 AM 21.59 70.862 0.253 7.33 6.51 7.65
8/17/2021 4:30:00 AM 21.57 70.826 0.253 7.33 6.54 7.7
8/17/2021 4:45:00 AM 21.56 70.808 0.253 7.33 6.62 7.68
8/17/2021 5:00:00 AM 21.53 70.754 0.253 7.33 6.74 7.66
8/17/2021 5:15:00 AM 21.52 70.736 0.253 7.33 6.81 7.76
8/17/2021 5:30:00 AM 21.5 70.7 0.253 7.33 7.3 7.69
8/17/2021 5:45:00 AM 21.48 70.664 0.253 7.34 6.53 7.69
8/17/2021 6:00:00 AM 21.46 70.628 0.253 7.33 8.71 7.73
8/17/2021 6:15:00 AM 21.45 70.61 0.253 7.33 7.18 7.7
8/17/2021 6:30:00 AM 21.43 70.574 0.252 7.33 6.55 7.74
8/17/2021 6:45:00 AM 21.42 70.556 0.252 7.34 6.45 7.73
8/17/2021 7:00:00 AM 21.41 70.538 0.252 7.35 6.59 7.83
8/17/2021 7:15:00 AM 21.4 70.52 0.252 7.36 6.58 7.89
8/17/2021 7:30:00 AM 21.4 70.52 0.252 7.38 6.59 7.98
8/17/2021 7:45:00 AM 21.4 70.52 0.251 7.38 6.53 8.06
8/17/2021 8:00:00 AM 21.4 70.52 0.251 7.4 6.36 8.02
8/17/2021 8:15:00 AM 21.38 70.484 0.25 7.41 6.45 8.03
8/17/2021 8:30:00 AM 21.39 70.502 0.25 7.41 6.41 8
8/17/2021 8:45:00 AM 21.39 70.502 0.25 7.42 6.41 8.19
8/17/2021 9:00:00 AM 21.41 70.538 0.249 7.44 6.34 8.24
8/17/2021 9:15:00 AM 21.45 70.61 0.249 7.47 6.75 8.41
8/17/2021 9:30:00 AM 21.46 70.628 0.249 7.47 6.72 8.41
8/17/2021 9:45:00 AM 21.49 70.682 0.249 7.49 6.87 8.54
8/17/2021 10:00:00 AM 21.5 70.7 0.249 7.51 6.97 8.57
8/17/2021 10:15:00 AM 21.5 70.7 0.25 7.52 6.85 8.4
8/17/2021 10:30:00 AM 21.51 70.718 0.25 7.52 7.81 8.52
8/17/2021 10:45:00 AM 21.53 70.754 0.25 7.53 6.7 8.6
8/17/2021 11:00:00 AM 21.6 70.88 0.249 7.58 6.74 8.78
8/17/2021 11:15:00 AM 21.63 70.934 0.249 7.6 6.86 8.86
8/17/2021 11:30:00 AM 21.68 71.024 0.249 7.64 7.07 9.02
8/17/2021 11:45:00 AM 21.74 71.132 0.249 7.68 7.29 9.05
8/17/2021 12:00:00 PM 21.73 71.114 0.249 7.67 7.06 9
8/17/2021 12:15:00 PM 21.74 71.132 0.249 7.68 7.12 9.02
8/17/2021 12:30:00 PM 21.76 71.168 0.25 7.7 7.04 9.02
8/17/2021 12:45:00 PM 21.78 71.204 0.251 7.71 8.03 9.03
8/17/2021 1:00:00 PM 21.82 71.276 0.251 7.72 7.15 9.14
8/17/2021 1:15:00 PM 21.86 71.348 0.251 7.74 6.94 9.21
8/17/2021 1:30:00 PM 21.89 71.402 0.251 7.75 6.96 9.09
8/17/2021 1:45:00 PM 21.89 71.402 0.251 7.73 7.02 9
8/17/2021 2:00:00 PM 21.9 71.42 0.251 7.71 6.89 8.73
8/17/2021 2:15:00 PM 21.91 71.438 0.251 7.71 15.61 8.95
8/17/2021 2:30:00 PM 21.93 71.474 0.252 7.7 7.2 8.95
8/17/2021 2:45:00 PM 21.98 71.564 0.252 7.72 6.84 9.05
8/17/2021 3:00:00 PM 22.03 71.654 0.251 7.74 7.79 9.11
8/17/2021 3:15:00 PM 22.19 71.942 0.252 7.8 7.56 9.34
8/17/2021 3:30:00 PM 22.28 72.104 0.251 7.87 7.16 9.45
8/17/2021 3:45:00 PM 22.33 72.194 0.253 7.88 7.19 9.36
8/17/2021 4:00:00 PM 22.4 72.32 0.252 7.9 7.08 9.39
8/17/2021 4:15:00 PM 22.49 72.482 0.252 7.95 7.07 9.57
8/17/2021 4:30:00 PM 22.55 72.59 0.252 7.98 7.06 9.52
8/17/2021 4:45:00 PM 22.61 72.698 0.252 7.99 6.9 9.52
8/17/2021 5:00:00 PM 22.64 72.752 0.253 7.99 6.86 9.43
8/17/2021 5:15:00 PM 22.67 72.806 0.253 7.97 6.81 9.42
8/17/2021 5:30:00 PM 22.67 72.806 0.253 7.95 6.84 9.14
8/17/2021 5:45:00 PM 22.65 72.77 0.253 7.87 6.87 8.91
8/17/2021 6:00:00 PM 22.65 72.77 0.253 7.84 6.72 8.81
8/17/2021 6:15:00 PM 22.65 72.77 0.254 7.78 7.33 8.32
8/17/2021 6:30:00 PM 22.64 72.752 0.254 7.73 6.95 8.48
8/17/2021 6:45:00 PM 22.63 72.734 0.255 7.68 7.01 8.32
8/17/2021 7:00:00 PM 22.61 72.698 0.256 7.64 6.94 8.27
8/17/2021 7:15:00 PM 22.59 72.662 0.256 7.59 6.96 7.8
8/17/2021 7:30:00 PM 22.58 72.644 0.255 7.55 7.14 7.87
8/17/2021 7:45:00 PM 22.56 72.608 0.256 7.51 7.12 7.85
8/17/2021 8:00:00 PM 22.54 72.57201 0.256 7.48 6.97 7.81
8/17/2021 8:15:00 PM 22.52 72.536 0.256 7.45 6.91 7.74
8/17/2021 8:30:00 PM 22.5 72.5 0.256 7.43 7.08 7.67
8/17/2021 8:45:00 PM 22.49 72.482 0.257 7.41 7.14 7.64
8/17/2021 9:00:00 PM 22.47 72.446 0.257 7.39 7.1 7.58
8/17/2021 9:15:00 PM 22.45 72.41 0.257 7.38 7.17 7.58
8/17/2021 9:30:00 PM 22.44 72.392 0.258 7.37 7.01 7.51
8/17/2021 9:45:00 PM 22.43 72.374 0.258 7.36 7.32 7.54
8/17/2021 10:00:00 PM 22.41 72.338 0.258 7.36 7.12 7.53
8/17/2021 10:15:00 PM 22.39 72.302 0.258 7.34 7.4 7.48
8/17/2021 10:30:00 PM 22.38 72.284 0.258 7.35 7.17 7.55
8/17/2021 10:45:00 PM 22.35 72.23 0.259 7.34 7.21 7.54
8/17/2021 11:00:00 PM 22.34 72.212 0.259 7.33 7.19 7.54
8/17/2021 11:15:00 PM 22.32 72.176 0.259 7.34 7.33 7.52
8/17/2021 11:30:00 PM 22.3 72.14 0.259 7.33 7.35 7.55
8/17/2021 11:45:00 PM 22.29 72.122 0.258 7.33 7.14 7.57
8/18/2021 12:00:00 AM 22.27 72.086 0.259 7.33 7.22 7.59
8/18/2021 12:15:00 AM 22.25 72.05 0.26 7.33 7.12 7.62
8/18/2021 12:30:00 AM 22.22 71.996 0.259 7.33 7.15 7.59
8/18/2021 12:45:00 AM 22.2 71.96 0.26 7.32 7.14 7.6
8/18/2021 1:00:00 AM 22.18 71.924 0.26 7.32 7.34 7.61
8/18/2021 1:15:00 AM 22.16 71.888 0.26 7.32 7.45 7.61
8/18/2021 1:30:00 AM 22.14 71.852 0.26 7.32 7.35 7.65
8/18/2021 1:45:00 AM 22.11 71.798 0.26 7.32 7.36 7.6
8/18/2021 2:00:00 AM 22.09 71.762 0.26 7.32 7.31 7.59
8/18/2021 2:15:00 AM 22.07 71.726 0.26 7.32 7.59 7.66
8/18/2021 2:30:00 AM 22.05 71.69 0.26 7.32 7.17 7.59
8/18/2021 2:45:00 AM 22.03 71.654 0.259 7.32 7.26 7.67
8/18/2021 3:00:00 AM 22.02 71.636 0.26 7.32 7.11 7.69
8/18/2021 3:15:00 AM 22 71.6 0.26 7.32 7.14 7.68
8/18/2021 3:30:00 AM 21.98 71.564 0.259 7.32 7.15 7.69
8/18/2021 3:45:00 AM 21.96 71.528 0.261 7.32 7.09 7.69
8/18/2021 4:00:00 AM 21.92 71.456 0.262 7.32 7 7.66
8/18/2021 4:15:00 AM 21.9 71.42 0.261 7.31 7.47 7.71
8/18/2021 4:30:00 AM 21.88 71.384 0.262 7.32 7.51 7.71
8/18/2021 4:45:00 AM 21.86 71.348 0.262 7.32 7.22 7.73
8/18/2021 5:00:00 AM 21.83 71.294 0.262 7.31 7.15 7.74
8/18/2021 5:15:00 AM 21.81 71.258 0.262 7.32 7.18 7.75
8/18/2021 5:30:00 AM 21.78 71.204 0.263 7.31 7.27 7.74
8/18/2021 5:45:00 AM 21.76 71.168 0.262 7.31 7.12 7.74
8/18/2021 6:00:00 AM 21.74 71.132 0.263 7.31 7.26 7.77
8/18/2021 6:15:00 AM 21.72 71.096 0.263 7.31 7.24 7.69
8/18/2021 6:30:00 AM 21.7 71.06 0.263 7.31 14.3 7.77
8/18/2021 6:45:00 AM 21.68 71.024 0.262 7.31 7.12 7.76
8/18/2021 7:00:00 AM 21.67 71.006 0.262 7.32 23.21 7.86
8/18/2021 7:15:00 AM 21.66 70.988 0.262 7.33 22.88 7.87
8/18/2021 7:30:00 AM 21.66 70.988 0.262 7.34 7.08 7.91
8/18/2021 7:45:00 AM 21.66 70.988 0.261 7.34 6.96 8.03
8/18/2021 8:00:00 AM 21.67 71.006 0.261 7.36 6.95 8.17
8/18/2021 8:15:00 AM 21.71 71.078 0.261 7.39 7.02 8.28
8/18/2021 8:30:00 AM 21.74 71.132 0.261 7.41 6.85 8.48
8/18/2021 8:45:00 AM 21.8 71.24 0.261 7.44 6.92 8.63
8/18/2021 9:00:00 AM 21.85 71.33 0.26 7.48 6.7 8.76
8/18/2021 9:15:00 AM 21.88 71.384 0.261 7.51 6.74 8.8
8/18/2021 9:30:00 AM 21.93 71.474 0.26 7.53 7.84 8.9
8/18/2021 9:45:00 AM 22 71.6 0.261 7.57 6.72 9.07
8/18/2021 10:00:00 AM 22.04 71.672 0.261 7.6 6.7 9.02
8/18/2021 10:15:00 AM 22.11 71.798 0.26 7.64 6.68 9.13
8/18/2021 10:30:00 AM 22.16 71.888 0.26 7.67 7.44 9.18
8/18/2021 10:45:00 AM 22.23 72.014 0.26 7.71 6.55 9.25
8/18/2021 11:00:00 AM 22.29 72.122 0.26 7.74 7.26 9.33
8/18/2021 11:15:00 AM 22.33 72.194 0.26 7.76 7.98 9.3
8/18/2021 11:30:00 AM 22.35 72.23 0.26 7.77 7.26 9.24
8/18/2021 11:45:00 AM 22.34 72.212 0.26 7.74 8.01 9.06
8/18/2021 12:00:00 PM 22.36 72.248 0.26 7.73 6.78 8.88
8/18/2021 12:15:00 PM 22.45 72.41 0.26 7.76 6.87 9.13
8/18/2021 12:30:00 PM 22.6 72.68 0.26 7.82 6.65 9.38
8/18/2021 12:45:00 PM 22.6 72.68 0.259 7.83 6.64 9.21
8/18/2021 1:00:00 PM 22.69 72.842 0.26 7.85 7.04 9.34
8/18/2021 1:15:00 PM 22.77 72.986 0.26 7.9 6.51 9.41
8/18/2021 1:30:00 PM 22.93 73.274 0.259 7.96 6.48 9.64
8/18/2021 1:45:00 PM 23.04 73.472 0.259 8.01 6.42 9.65
8/18/2021 2:00:00 PM 23.16 73.688 0.26 8.05 6.49 9.7
8/18/2021 2:15:00 PM 23.35 74.03 0.26 8.09 6.52 9.72
8/18/2021 2:30:00 PM 23.39 74.102 0.26 8.11 6.52 9.68
8/18/2021 2:45:00 PM 23.44 74.192 0.26 8.1 6.67 9.46
8/18/2021 3:00:00 PM 23.67 74.606 0.26 8.13 6.32 9.63
8/18/2021 3:15:00 PM 23.66 74.588 0.26 8.17 6.5 9.51
8/18/2021 3:30:00 PM 23.74 74.732 0.26 8.15 6.29 9.47
8/18/2021 3:45:00 PM 23.81 74.858 0.26 8.18 6.29 9.48
8/18/2021 4:00:00 PM 23.78 74.804 0.26 8.14 6.27 9.3
8/18/2021 4:15:00 PM 23.75 74.75 0.26 8.07 6.31 9.09
8/18/2021 4:30:00 PM 23.72 74.696 0.26 8.01 6.24 8.99
8/18/2021 4:45:00 PM 23.7 74.66 0.261 7.97 6.23 8.82
8/18/2021 5:00:00 PM 23.69 74.642 0.26 7.92 6.44 8.76
8/18/2021 5:15:00 PM 23.66 74.588 0.26 7.88 6.39 8.59
8/18/2021 5:30:00 PM 23.61 74.498 0.261 7.8 6.45 8.34
8/18/2021 5:45:00 PM 23.6 74.48 0.261 7.76 6.41 8.35
8/18/2021 6:00:00 PM 23.59 74.462 0.261 7.72 7.2 8.26
8/18/2021 6:15:00 PM 23.55 74.39 0.261 7.68 6.65 8.09
8/18/2021 6:30:00 PM 23.52 74.336 0.261 7.63 6.55 7.9
8/18/2021 6:45:00 PM 23.49 74.282 0.26 7.59 6.65 7.77
8/18/2021 7:00:00 PM 23.46 74.228 0.26 7.55 6.54 7.59
8/18/2021 7:15:00 PM 23.42 74.156 0.26 7.52 6.53 7.58
8/18/2021 7:30:00 PM 23.38 74.084 0.26 7.5 6.84 7.53
8/18/2021 7:45:00 PM 23.36 74.048 0.26 7.48 6.66 7.49
8/18/2021 8:00:00 PM 23.33 73.994 0.26 7.45 6.63 7.39
8/18/2021 8:15:00 PM 23.29 73.922 0.259 7.44 6.94 7.43
8/18/2021 8:30:00 PM 23.26 73.868 0.258 7.43 6.98 7.44
8/18/2021 8:45:00 PM 23.22 73.796 0.256 7.42 6.95 7.4
8/18/2021 9:00:00 PM 23.18 73.724 0.254 7.41 7.31 7.48
8/18/2021 9:15:00 PM 23.13 73.634 0.249 7.39 7.63 7.42
8/18/2021 9:30:00 PM 23.06 73.508 0.245 7.36 9.38 7.5
8/18/2021 9:45:00 PM 22.97 73.346 0.241 7.33 14.44 7.48
8/18/2021 10:00:00 PM 22.88 73.184 0.234 7.32 21.83 7.52
8/18/2021 10:15:00 PM 22.82 73.076 0.227 7.3 22.63 7.56
8/18/2021 10:30:00 PM 22.73 72.914 0.228 7.28 25.78 7.61
8/18/2021 10:45:00 PM 22.6 72.68 0.239 7.28 25.75 7.65
8/18/2021 11:00:00 PM 22.38 72.284 0.268 7.3 30.27 7.74
8/18/2021 11:15:00 PM 22.17 71.906 0.284 7.3 42.73 7.77
8/18/2021 11:30:00 PM 21.98 71.564 0.28 7.29 42.66 7.88
8/18/2021 11:45:00 PM 21.9 71.42 0.253 7.28 51.93 7.92
8/19/2021 12:00:00 AM 21.91 71.438 0.226 7.25 63.2 7.94
8/19/2021 12:15:00 AM 21.85 71.33 0.228 7.25 80.24 7.98
8/19/2021 12:30:00 AM 21.82 71.276 0.229 7.24 69.26 8
8/19/2021 12:45:00 AM 21.82 71.276 0.246 7.25 79.64 8.01
8/19/2021 1:00:00 AM 21.78 71.204 0.268 7.27 62.65 8.05
8/19/2021 1:15:00 AM 21.69 71.042 0.268 7.27 61.04 8.07
8/19/2021 1:30:00 AM 21.67 71.006 0.252 7.26 66.93 8.08
8/19/2021 1:45:00 AM 21.74 71.132 0.238 7.25 60.82 8.07
8/19/2021 2:00:00 AM 21.78 71.204 0.231 7.24 55.29 8.07
8/19/2021 2:15:00 AM 21.8 71.24 0.227 7.24 51.75 8.05
8/19/2021 2:30:00 AM 21.81 71.258 0.224 7.23 46.25 8.06
8/19/2021 2:45:00 AM 21.8 71.24 0.221 7.21 40.21 8.06
8/19/2021 3:00:00 AM 21.78 71.204 0.219 7.21 38.21 8.07
8/19/2021 3:15:00 AM 21.77 71.186 0.216 7.19 33.03 8.07
8/19/2021 3:30:00 AM 21.74 71.132 0.215 7.19 31.79 8.06
8/19/2021 3:45:00 AM 21.73 71.114 0.213 7.18 28.93 8.05
8/19/2021 4:00:00 AM 21.71 71.078 0.211 7.18 26.05 8.05
8/19/2021 4:15:00 AM 21.7 71.06 0.209 7.18 25.43 8.05
8/19/2021 4:30:00 AM 21.69 71.042 0.207 7.18 24.08 8.04
8/19/2021 4:45:00 AM 21.68 71.024 0.206 7.19 22.75 8.02
8/19/2021 5:00:00 AM 21.68 71.024 0.206 7.19 21.11 8.03
8/19/2021 5:15:00 AM 21.68 71.024 0.206 7.2 19.57 8.02
8/19/2021 5:30:00 AM 21.68 71.024 0.206 7.2 20.07 8.02
8/19/2021 5:45:00 AM 21.68 71.024 0.206 7.21 19.53 8.02
8/19/2021 6:00:00 AM 21.69 71.042 0.207 7.22 17.95 8.01
8/19/2021 6:15:00 AM 21.69 71.042 0.207 7.23 21.09 7.99
8/19/2021 6:30:00 AM 21.71 71.078 0.208 7.23 17.03 7.99
8/19/2021 6:45:00 AM 21.72 71.096 0.209 7.24 16.71 7.99
8/19/2021 7:00:00 AM 21.75 71.15 0.21 7.25 16.84 7.99
8/19/2021 7:15:00 AM 21.76 71.168 0.211 7.26 14.75 7.98
8/19/2021 7:30:00 AM 21.8 71.24 0.212 7.26 15.13 8.01
8/19/2021 7:45:00 AM 21.82 71.276 0.213 7.28 14.17 8.01
8/19/2021 8:00:00 AM 21.85 71.33 0.214 7.29 13.17 8.02
8/19/2021 8:15:00 AM 21.87 71.366 0.215 7.31 12.99 8.02
8/19/2021 8:30:00 AM 21.91 71.438 0.215 7.32 12.29 8.03
8/19/2021 8:45:00 AM 21.94 71.492 0.216 7.32 11.95 8.02
8/19/2021 9:00:00 AM 21.98 71.564 0.217 7.33 11.74 8.05
8/19/2021 9:15:00 AM 22.01 71.618 0.218 7.34 11.13 8.12
8/19/2021 9:30:00 AM 22.05 71.69 0.218 7.36 10.96 8.16
8/19/2021 9:45:00 AM 22.1 71.78 0.219 7.37 11.11 8.19
8/19/2021 10:00:00 AM 22.14 71.852 0.219 7.38 10.65 8.23
8/19/2021 10:15:00 AM 22.18 71.924 0.219 7.4 10.58 8.28
8/19/2021 10:30:00 AM 22.21 71.978 0.22 7.41 10.47 8.28
8/19/2021 10:45:00 AM 22.23 72.014 0.22 7.41 9.99 8.24
8/19/2021 11:00:00 AM 22.27 72.086 0.221 7.42 9.98 8.29
8/19/2021 11:15:00 AM 22.31 72.158 0.221 7.43 10.92 8.35
8/19/2021 11:30:00 AM 22.34 72.212 0.221 7.45 9.4 8.34
8/19/2021 11:45:00 AM 22.34 72.212 0.222 7.44 9.36 8.29
8/19/2021 12:00:00 PM 22.39 72.302 0.222 7.45 9.43 8.36
8/19/2021 12:15:00 PM 22.43 72.374 0.222 7.47 9.65 8.41
8/19/2021 12:30:00 PM 22.53 72.554 0.223 7.49 9.38 8.51
8/19/2021 12:45:00 PM 22.55 72.59 0.223 7.49 9.52 8.47
8/19/2021 1:00:00 PM 22.59 72.662 0.223 7.52 9.09 8.5
8/19/2021 1:15:00 PM 22.63 72.734 0.223 7.53 9.02 8.5
8/19/2021 1:30:00 PM 22.73 72.914 0.224 7.54 9.02 8.6
8/19/2021 1:45:00 PM 22.85 73.13 0.224 7.58 8.81 8.62
8/19/2021 2:00:00 PM 22.97 73.346 0.224 7.6 9.01 8.7
8/19/2021 2:15:00 PM 23.02 73.436 0.224 7.61 8.56 8.59
8/19/2021 2:30:00 PM 23.05 73.49 0.224 7.6 8.8 8.61
8/19/2021 2:45:00 PM 23.07 73.526 0.225 7.6 9.31 8.56
8/19/2021 3:00:00 PM 23.08 73.544 0.225 7.6 8.75 8.54
8/19/2021 3:15:00 PM 23.18 73.724 0.225 7.61 8.55 8.63
8/19/2021 3:30:00 PM 23.22 73.796 0.226 7.63 8.59 8.59
8/19/2021 3:45:00 PM 23.19 73.742 0.226 7.61 9.02 8.46
8/19/2021 4:00:00 PM 23.18 73.724 0.226 7.59 8.97 8.43
8/19/2021 4:15:00 PM 23.2 73.76 0.226 7.6 8.68 8.48
8/19/2021 4:30:00 PM 23.2 73.76 0.227 7.6 8.4 8.46
8/19/2021 4:45:00 PM 23.2 73.76 0.227 7.59 9 8.41
8/19/2021 5:00:00 PM 23.22 73.796 0.228 7.58 8.78 8.4
8/19/2021 5:15:00 PM 23.2 73.76 0.228 7.58 8.45 8.34
8/19/2021 5:30:00 PM 23.2 73.76 0.229 7.56 8.73 8.33
8/19/2021 5:45:00 PM 23.17 73.706 0.229 7.54 8.25 8.26
8/19/2021 6:00:00 PM 23.16 73.688 0.229 7.53 8.66 8.21
8/19/2021 6:15:00 PM 23.13 73.634 0.229 7.51 8.59 8.15
8/19/2021 6:30:00 PM 23.11 73.598 0.23 7.49 8.51 8.1
8/19/2021 6:45:00 PM 23.06 73.508 0.23 7.48 8.7 8.02
8/19/2021 7:00:00 PM 23.01 73.418 0.231 7.46 8.19 7.9
8/19/2021 7:15:00 PM 22.96 73.328 0.231 7.43 8.4 7.93
8/19/2021 7:30:00 PM 22.9 73.22 0.231 7.41 8.47 7.9
8/19/2021 7:45:00 PM 22.84 73.112 0.231 7.4 8.43 7.86
8/19/2021 8:00:00 PM 22.78 73.004 0.232 7.39 13.24 7.83
8/19/2021 8:15:00 PM 22.72 72.896 0.233 7.38 8.72 7.8
8/19/2021 8:30:00 PM 22.66 72.788 0.233 7.37 8.86 7.8
8/19/2021 8:45:00 PM 22.6 72.68 0.233 7.36 9.1 7.81
8/19/2021 9:00:00 PM 22.55 72.59 0.233 7.35 8.8 7.8
8/19/2021 9:15:00 PM 22.5 72.5 0.233 7.35 8.86 7.8
8/19/2021 9:30:00 PM 22.46 72.42799 0.234 7.35 8.77 7.81
8/19/2021 9:45:00 PM 22.41 72.338 0.234 7.35 8.98 7.81
8/19/2021 10:00:00 PM 22.37 72.266 0.234 7.34 8.91 7.82
8/19/2021 10:15:00 PM 22.34 72.212 0.234 7.34 8.86 7.84
8/19/2021 10:30:00 PM 22.3 72.14 0.234 7.35 8.79 7.83
8/19/2021 10:45:00 PM 22.27 72.086 0.234 7.35 8.99 7.8
8/19/2021 11:00:00 PM 22.25 72.05 0.234 7.35 8.9 7.83
8/19/2021 11:15:00 PM 22.22 71.996 0.234 7.34 9.02 7.84
8/19/2021 11:30:00 PM 22.19 71.942 0.234 7.34 8.84 7.84
8/19/2021 11:45:00 PM 22.17 71.906 0.234 7.34 9.24 7.85
8/20/2021 12:00:00 AM 22.14 71.852 0.234 7.35 8.82 7.85
8/20/2021 12:15:00 AM 22.12 71.816 0.234 7.35 8.95 7.87
8/20/2021 12:30:00 AM 22.09 71.762 0.234 7.35 8.82 7.84
8/20/2021 12:45:00 AM 22.07 71.726 0.235 7.35 8.93 7.86
8/20/2021 1:00:00 AM 22.05 71.69 0.233 7.34 8.61 7.88
8/20/2021 1:15:00 AM 22.03 71.654 0.233 7.35 9.27 7.86
8/20/2021 1:30:00 AM 22.01 71.618 0.234 7.34 9.08 7.87
8/20/2021 1:45:00 AM 21.99 71.582 0.234 7.35 8.96 7.87
8/20/2021 2:00:00 AM 21.97 71.546 0.233 7.34 9.05 7.89
8/20/2021 2:15:00 AM 21.95 71.51 0.233 7.34 8.64 7.88
8/20/2021 2:30:00 AM 21.93 71.474 0.233 7.34 8.89 7.9
8/20/2021 2:45:00 AM 21.91 71.438 0.233 7.34 8.84 7.89
8/20/2021 3:00:00 AM 21.89 71.402 0.232 7.34 8.82 7.9
8/20/2021 3:15:00 AM 21.86 71.348 0.233 7.34 8.68 7.89
8/20/2021 3:30:00 AM 21.84 71.312 0.233 7.34 8.81 7.9
8/20/2021 3:45:00 AM 21.82 71.276 0.233 7.34 8.65 7.9
8/20/2021 4:00:00 AM 21.79 71.222 0.233 7.33 8.97 7.9
8/20/2021 4:15:00 AM 21.76 71.168 0.233 7.34 8.95 7.9
8/20/2021 4:30:00 AM 21.74 71.132 0.233 7.34 8.99 7.9
8/20/2021 4:45:00 AM 21.71 71.078 0.233 7.33 8.52 7.91
8/20/2021 5:00:00 AM 21.69 71.042 0.234 7.33 8.88 7.93
8/20/2021 5:15:00 AM 21.65 70.97 0.234 7.34 8.74 7.93
8/20/2021 5:30:00 AM 21.63 70.934 0.234 7.33 8.97 7.95
8/20/2021 5:45:00 AM 21.61 70.898 0.234 7.33 8.93 7.93
8/20/2021 6:00:00 AM 21.58 70.844 0.234 7.33 8.79 7.93
8/20/2021 6:15:00 AM 21.56 70.808 0.234 7.33 8.94 7.94
8/20/2021 6:30:00 AM 21.54 70.772 0.234 7.35 8.54 7.96
8/20/2021 6:45:00 AM 21.51 70.718 0.234 7.33 8.7 7.99
8/20/2021 7:00:00 AM 21.5 70.7 0.234 7.34 8.54 8.02
8/20/2021 7:15:00 AM 21.49 70.682 0.235 7.34 8.49 8.07
8/20/2021 7:30:00 AM 21.48 70.664 0.235 7.35 8.54 8.1
8/20/2021 7:45:00 AM 21.47 70.646 0.235 7.36 8.26 8.13
8/20/2021 8:00:00 AM 21.48 70.664 0.235 7.37 8.24 8.21
8/20/2021 8:15:00 AM 21.5 70.7 0.235 7.39 8.17 8.31
8/20/2021 8:30:00 AM 21.53 70.754 0.235 7.4 8.54 8.39
8/20/2021 8:45:00 AM 21.57 70.826 0.235 7.43 8.25 8.49
8/20/2021 9:00:00 AM 21.64 70.952 0.235 7.47 7.87 8.62
8/20/2021 9:15:00 AM 21.69 71.042 0.234 7.49 10.68 8.67
8/20/2021 9:30:00 AM 21.71 71.078 0.235 7.5 7.91 8.64
8/20/2021 9:45:00 AM 21.74 71.132 0.234 7.51 7.79 8.63
8/20/2021 10:00:00 AM 21.78 71.204 0.236 7.53 7.71 8.67
8/20/2021 10:15:00 AM 21.83 71.294 0.235 7.54 7.65 8.69
8/20/2021 10:30:00 AM 21.88 71.384 0.235 7.56 7.72 8.74
8/20/2021 10:45:00 AM 21.92 71.456 0.235 7.57 7.6 8.73
8/20/2021 11:00:00 AM 21.96 71.528 0.235 7.57 7.67 8.68
8/20/2021 11:15:00 AM 22.02 71.636 0.235 7.58 8.37 8.77
8/20/2021 11:30:00 AM 22.08 71.744 0.235 7.6 7.66 8.85
8/20/2021 11:45:00 AM 22.16 71.888 0.235 7.63 7.7 8.9
8/20/2021 12:00:00 PM 22.25 72.05 0.236 7.66 7.93 8.99
8/20/2021 12:15:00 PM 22.32 72.176 0.236 7.68 7.52 9.01
8/20/2021 12:30:00 PM 22.38 72.284 0.236 7.7 7.66 9.01
8/20/2021 12:45:00 PM 22.45 72.41 0.236 7.72 7.58 9
8/20/2021 1:00:00 PM 22.51 72.518 0.236 7.74 7.4 9.03
8/20/2021 1:15:00 PM 22.56 72.608 0.236 7.74 7.43 8.99
8/20/2021 1:30:00 PM 22.62 72.716 0.236 7.75 7.35 8.97
8/20/2021 1:45:00 PM 22.67 72.806 0.236 7.75 7.43 8.98
8/20/2021 2:00:00 PM 22.72 72.896 0.236 7.76 7.44 8.96
8/20/2021 2:15:00 PM 22.77 72.986 0.236 7.76 7.42 8.97
8/20/2021 2:30:00 PM 22.82 73.076 0.236 7.77 7.44 8.97
8/20/2021 2:45:00 PM 22.9 73.22 0.236 7.78 7.37 9
8/20/2021 3:00:00 PM 22.96 73.328 0.237 7.8 7.36 8.96
8/20/2021 3:15:00 PM 22.99 73.382 0.237 7.78 7.83 8.88
8/20/2021 3:30:00 PM 22.98 73.364 0.237 7.74 7.46 8.75
8/20/2021 3:45:00 PM 22.96 73.328 0.238 7.7 7.44 8.53
8/20/2021 4:00:00 PM 22.95 73.31 0.238 7.65 7.5 8.41
8/20/2021 4:15:00 PM 22.92 73.256 0.238 7.61 7.52 8.27
8/20/2021 4:30:00 PM 22.92 73.256 0.239 7.58 7.56 8.19
8/20/2021 4:45:00 PM 22.93 73.274 0.239 7.57 7.57 8.3
8/20/2021 5:00:00 PM 22.94 73.292 0.239 7.58 7.71 8.32
8/20/2021 5:15:00 PM 22.93 73.274 0.239 7.57 7.59 8.27
8/20/2021 5:30:00 PM 22.93 73.274 0.239 7.56 7.5 8.24
8/20/2021 5:45:00 PM 22.92 73.256 0.24 7.56 7.93 8.26
8/20/2021 6:00:00 PM 22.93 73.274 0.24 7.55 7.61 8.28
8/20/2021 6:15:00 PM 22.9 73.22 0.239 7.54 7.7 8.17
8/20/2021 6:30:00 PM 22.88 73.184 0.24 7.52 8.54 8.14
8/20/2021 6:45:00 PM 22.85 73.13 0.24 7.5 8.24 8.06
8/20/2021 7:00:00 PM 22.83 73.094 0.241 7.49 7.77 8.04
8/20/2021 7:15:00 PM 22.79 73.022 0.241 7.47 7.71 7.94
8/20/2021 7:30:00 PM 22.76 72.968 0.241 7.45 7.62 7.9
8/20/2021 7:45:00 PM 22.73 72.914 0.241 7.43 7.92 7.84
8/20/2021 8:00:00 PM 22.69 72.842 0.242 7.42 7.88 7.79
8/20/2021 8:15:00 PM 22.66 72.788 0.241 7.4 7.97 7.73
8/20/2021 8:30:00 PM 22.62 72.716 0.242 7.39 8.3 7.73
8/20/2021 8:45:00 PM 22.59 72.662 0.242 7.38 7.93 7.69
8/20/2021 9:00:00 PM 22.56 72.608 0.242 7.37 8.13 7.68
8/20/2021 9:15:00 PM 22.53 72.554 0.242 7.37 8.15 7.7
8/20/2021 9:30:00 PM 22.5 72.5 0.243 7.36 8.01 7.67
8/20/2021 9:45:00 PM 22.46 72.42799 0.243 7.36 8.12 7.72
8/20/2021 10:00:00 PM 22.43 72.374 0.243 7.36 8.01 7.72
8/20/2021 10:15:00 PM 22.39 72.302 0.243 7.35 8.03 7.74
8/20/2021 10:30:00 PM 22.36 72.248 0.243 7.35 7.94 7.7
8/20/2021 10:45:00 PM 22.33 72.194 0.244 7.35 8.18 7.7
8/20/2021 11:00:00 PM 22.3 72.14 0.244 7.35 8.09 7.73
8/20/2021 11:15:00 PM 22.26 72.068 0.244 7.35 8 7.7
8/20/2021 11:30:00 PM 22.23 72.014 0.244 7.35 8.12 7.74
8/20/2021 11:45:00 PM 22.2 71.96 0.245 7.35 7.97 7.73
8/21/2021 12:00:00 AM 22.17 71.906 0.245 7.35 8.05 7.76
8/21/2021 12:15:00 AM 22.14 71.852 0.245 7.35 8.21 7.77
8/21/2021 12:30:00 AM 22.12 71.816 0.245 7.35 8.01 7.76
8/21/2021 12:45:00 AM 22.09 71.762 0.245 7.35 8.04 7.75
8/21/2021 1:00:00 AM 22.07 71.726 0.245 7.35 8.33 7.73
8/21/2021 1:15:00 AM 22.04 71.672 0.245 7.35 8.17 7.76
8/21/2021 1:30:00 AM 22.03 71.654 0.245 7.35 8.03 7.8
8/21/2021 1:45:00 AM 22 71.6 0.245 7.34 8.61 7.76
8/21/2021 2:00:00 AM 21.99 71.582 0.245 7.34 8.07 7.81
8/21/2021 2:15:00 AM 21.96 71.528 0.245 7.34 8.21 7.77
8/21/2021 2:30:00 AM 21.94 71.492 0.245 7.34 7.99 7.78
8/21/2021 2:45:00 AM 21.92 71.456 0.245 7.34 8.05 7.8
8/21/2021 3:00:00 AM 21.9 71.42 0.245 7.34 8.1 7.75
8/21/2021 3:15:00 AM 21.88 71.384 0.245 7.34 8.28 7.79
8/21/2021 3:30:00 AM 21.87 71.366 0.245 7.34 7.99 7.8
8/21/2021 3:45:00 AM 21.85 71.33 0.245 7.34 8.14 7.8
8/21/2021 4:00:00 AM 21.83 71.294 0.245 7.34 8.3 7.77
8/21/2021 4:15:00 AM 21.82 71.276 0.245 7.34 8.14 7.8
8/21/2021 4:30:00 AM 21.81 71.258 0.245 7.34 8.06 7.8
8/21/2021 4:45:00 AM 21.79 71.222 0.245 7.34 8.36 7.84
8/21/2021 5:00:00 AM 21.76 71.168 0.244 7.35 8.38 7.83
8/21/2021 5:15:00 AM 21.75 71.15 0.244 7.34 8.09 7.84
8/21/2021 5:30:00 AM 21.74 71.132 0.244 7.35 8.18 7.83
8/21/2021 5:45:00 AM 21.71 71.078 0.244 7.34 8.32 7.82
8/21/2021 6:00:00 AM 21.71 71.078 0.245 7.34 8.29 7.81
8/21/2021 6:15:00 AM 21.69 71.042 0.245 7.34 8.74 7.8
8/21/2021 6:30:00 AM 21.67 71.006 0.245 7.34 8.17 7.82
8/21/2021 6:45:00 AM 21.66 70.988 0.245 7.35 8.85 7.88
8/21/2021 7:00:00 AM 21.66 70.988 0.245 7.35 8.17 7.92
8/21/2021 7:15:00 AM 21.65 70.97 0.245 7.36 8.03 7.97
8/21/2021 7:30:00 AM 21.66 70.988 0.245 7.36 8.85 8
8/21/2021 7:45:00 AM 21.65 70.97 0.245 7.37 8.48 8.01
8/21/2021 8:00:00 AM 21.65 70.97 0.245 7.37 7.8 8.04
8/21/2021 8:15:00 AM 21.65 70.97 0.246 7.38 9.13 8.05
8/21/2021 8:30:00 AM 21.66 70.988 0.246 7.39 7.95 8.1
8/21/2021 8:45:00 AM 21.67 71.006 0.246 7.41 7.82 8.19
8/21/2021 9:00:00 AM 21.69 71.042 0.246 7.42 7.79 8.23
8/21/2021 9:15:00 AM 21.72 71.096 0.246 7.44 7.74 8.39
8/21/2021 9:30:00 AM 21.78 71.204 0.246 7.47 8.01 8.57
8/21/2021 9:45:00 AM 21.82 71.276 0.246 7.5 7.67 8.62
8/21/2021 10:00:00 AM 21.87 71.366 0.246 7.53 8.1 8.7
8/21/2021 10:15:00 AM 21.9 71.42 0.246 7.55 7.66 8.75
8/21/2021 10:30:00 AM 21.97 71.546 0.246 7.58 7.61 8.86
8/21/2021 10:45:00 AM 22.05 71.69 0.247 7.62 7.68 8.94
8/21/2021 11:00:00 AM 22.1 71.78 0.247 7.64 7.56 8.97
8/21/2021 11:15:00 AM 22.14 71.852 0.247 7.66 7.6 9.01
8/21/2021 11:30:00 AM 22.23 72.014 0.247 7.69 7.51 9.09
8/21/2021 11:45:00 AM 22.31 72.158 0.248 7.71 7.43 9.12
8/21/2021 12:00:00 PM 22.39 72.302 0.248 7.74 7.46 9.17
8/21/2021 12:15:00 PM 22.49 72.482 0.248 7.78 7.41 9.21
8/21/2021 12:30:00 PM 22.63 72.734 0.248 7.81 7.41 9.2
8/21/2021 12:45:00 PM 22.74 72.932 0.248 7.83 7.88 9.18
8/21/2021 1:00:00 PM 22.83 73.094 0.248 7.85 7.31 9.2
8/21/2021 1:15:00 PM 22.89 73.202 0.248 7.86 7.29 9.18
8/21/2021 1:30:00 PM 23.06 73.508 0.248 7.89 7.48 9.25
8/21/2021 1:45:00 PM 23.19 73.742 0.248 7.91 7.28 9.2
8/21/2021 2:00:00 PM 23.28 73.904 0.248 7.91 7.32 9.17
8/21/2021 2:15:00 PM 23.29 73.922 0.248 7.9 7.25 9.12
8/21/2021 2:30:00 PM 23.36 74.048 0.249 7.91 7.21 9.16
8/21/2021 2:45:00 PM 23.47 74.246 0.249 7.93 7.24 9.16
8/21/2021 3:00:00 PM 23.59 74.462 0.249 7.94 7.5 9.13
8/21/2021 3:15:00 PM 23.67 74.606 0.249 7.94 7.18 9.08
8/21/2021 3:30:00 PM 23.74 74.732 0.249 7.93 7.08 9.07
8/21/2021 3:45:00 PM 23.83 74.894 0.249 7.94 7.22 9.04
8/21/2021 4:00:00 PM 23.83 74.894 0.249 7.92 7.22 8.9
8/21/2021 4:15:00 PM 23.85 74.93 0.25 7.9 7.15 8.79
8/21/2021 4:30:00 PM 23.84 74.912 0.25 7.86 7.22 8.69
8/21/2021 4:45:00 PM 23.82 74.876 0.25 7.81 7.27 8.55
8/21/2021 5:00:00 PM 23.91 75.038 0.25 7.8 7.4 8.63
8/21/2021 5:15:00 PM 23.92 75.056 0.25 7.79 7.32 8.61
8/21/2021 5:30:00 PM 23.93 75.074 0.25 7.78 7.22 8.51
8/21/2021 5:45:00 PM 23.92 75.056 0.25 7.75 7.26 8.41
8/21/2021 6:00:00 PM 23.93 75.074 0.25 7.72 7.36 8.35
8/21/2021 6:15:00 PM 23.9 75.02 0.25 7.68 7.42 8.19
8/21/2021 6:30:00 PM 23.87 74.966 0.25 7.65 7.51 8.1
8/21/2021 6:45:00 PM 23.81 74.858 0.25 7.61 7.5 7.94
8/21/2021 7:00:00 PM 23.77 74.786 0.25 7.58 7.52 7.92
8/21/2021 7:15:00 PM 23.73 74.714 0.25 7.54 7.55 7.77
8/21/2021 7:30:00 PM 23.67 74.606 0.25 7.51 7.78 7.74
8/21/2021 7:45:00 PM 23.62 74.516 0.25 7.48 7.75 7.61
8/21/2021 8:00:00 PM 23.56 74.408 0.251 7.46 7.68 7.55
8/21/2021 8:15:00 PM 23.52 74.336 0.251 7.43 7.84 7.52
8/21/2021 8:30:00 PM 23.46 74.228 0.251 7.42 7.79 7.47
8/21/2021 8:45:00 PM 23.4 74.12 0.251 7.4 7.93 7.49
8/21/2021 9:00:00 PM 23.36 74.048 0.251 7.39 7.8 7.44
8/21/2021 9:15:00 PM 23.31 73.958 0.251 7.38 8.35 7.45
8/21/2021 9:30:00 PM 23.27 73.886 0.251 7.37 8.11 7.45
8/21/2021 9:45:00 PM 23.22 73.796 0.251 7.36 8.28 7.46
8/21/2021 10:00:00 PM 23.17 73.706 0.251 7.35 7.96 7.45
8/21/2021 10:15:00 PM 23.12 73.616 0.252 7.35 7.88 7.44
8/21/2021 10:30:00 PM 23.07 73.526 0.253 7.35 8 7.48
8/21/2021 10:45:00 PM 23.02 73.436 0.253 7.35 8.14 7.5
8/21/2021 11:00:00 PM 22.97 73.346 0.253 7.34 8.13 7.44
8/21/2021 11:15:00 PM 22.92 73.256 0.253 7.34 7.94 7.49
8/21/2021 11:30:00 PM 22.87 73.166 0.253 7.34 7.92 7.46
8/21/2021 11:45:00 PM 22.83 73.094 0.253 7.34 8.05 7.52
8/22/2021 12:00:00 AM 22.79 73.022 0.253 7.34 7.99 7.52
8/22/2021 12:15:00 AM 22.75 72.95 0.251 7.34 8.05 7.54
8/22/2021 12:30:00 AM 22.71 72.878 0.25 7.33 7.96 7.52
8/22/2021 12:45:00 AM 22.68 72.824 0.253 7.33 8.18 7.54
8/22/2021 1:00:00 AM 22.63 72.734 0.252 7.34 8.18 7.55
8/22/2021 1:15:00 AM 22.6 72.68 0.251 7.34 8.08 7.57
8/22/2021 1:30:00 AM 22.56 72.608 0.252 7.33 8.08 7.55
8/22/2021 1:45:00 AM 22.52 72.536 0.253 7.33 8.13 7.6
8/22/2021 2:00:00 AM 22.49 72.482 0.251 7.34 8.11 7.57
8/22/2021 2:15:00 AM 22.45 72.41 0.254 7.34 8.6 7.58
8/22/2021 2:30:00 AM 22.42 72.356 0.253 7.34 8.11 7.58
8/22/2021 2:45:00 AM 22.39 72.302 0.253 7.34 8.02 7.57
8/22/2021 3:00:00 AM 22.36 72.248 0.253 7.33 8.07 7.57
8/22/2021 3:15:00 AM 22.33 72.194 0.254 7.33 8.06 7.59
8/22/2021 3:30:00 AM 22.32 72.176 0.253 7.34 8.11 7.61
8/22/2021 3:45:00 AM 22.3 72.14 0.254 7.34 8.13 7.65
8/22/2021 4:00:00 AM 22.27 72.086 0.253 7.34 8.26 7.64
8/22/2021 4:30:00 AM 22.23 72.014 0.252 7.34 8.42 7.66
8/22/2021 4:45:00 AM 22.21 71.978 0.253 7.34 8.2 7.67
8/22/2021 5:00:00 AM 22.2 71.96 0.253 7.34 8.18 7.67
8/22/2021 5:15:00 AM 22.17 71.906 0.252 7.34 8.07 7.64
8/22/2021 5:30:00 AM 22.16 71.888 0.252 7.34 8.12 7.66
8/22/2021 5:45:00 AM 22.14 71.852 0.252 7.34 8.13 7.64
8/22/2021 6:00:00 AM 22.12 71.816 0.252 7.34 8.5 7.71
8/22/2021 6:15:00 AM 22.1 71.78 0.252 7.34 8.16 7.64
8/22/2021 6:30:00 AM 22.09 71.762 0.252 7.34 8.15 7.69
8/22/2021 6:45:00 AM 22.07 71.726 0.252 7.34 8.2 7.71
8/22/2021 7:00:00 AM 22.07 71.726 0.252 7.35 8.26 7.79
8/22/2021 7:15:00 AM 22.07 71.726 0.252 7.35 8 7.84
8/22/2021 7:30:00 AM 22.08 71.744 0.252 7.36 8.07 7.91
8/22/2021 7:45:00 AM 22.07 71.726 0.252 7.37 7.98 7.93
8/22/2021 8:00:00 AM 22.11 71.798 0.252 7.39 7.97 8.09
8/22/2021 8:15:00 AM 22.16 71.888 0.251 7.42 8.08 8.26
8/22/2021 8:30:00 AM 22.18 71.924 0.251 7.44 8.07 8.29
8/22/2021 8:45:00 AM 22.21 71.978 0.251 7.45 8.03 8.33
8/22/2021 9:00:00 AM 22.23 72.014 0.251 7.46 7.93 8.39
8/22/2021 9:15:00 AM 22.29 72.122 0.251 7.49 7.88 8.55
8/22/2021 9:30:00 AM 22.33 72.194 0.251 7.52 7.78 8.61
8/22/2021 9:45:00 AM 22.34 72.212 0.251 7.53 7.81 8.49
8/22/2021 10:00:00 AM 22.35 72.23 0.25 7.53 7.8 8.51
8/22/2021 10:15:00 AM 22.38 72.284 0.251 7.54 7.77 8.57
8/22/2021 10:30:00 AM 22.38 72.284 0.251 7.55 7.71 8.48
8/22/2021 10:45:00 AM 22.38 72.284 0.251 7.54 7.82 8.43
8/22/2021 11:00:00 AM 22.39 72.302 0.251 7.54 7.84 8.41
8/22/2021 11:15:00 AM 22.39 72.302 0.251 7.53 7.76 8.34
8/22/2021 11:30:00 AM 22.4 72.32 0.251 7.53 7.78 8.38
8/22/2021 11:45:00 AM 22.42 72.356 0.251 7.53 7.83 8.45
8/22/2021 12:00:00 PM 22.45 72.41 0.251 7.55 7.79 8.47
8/22/2021 12:15:00 PM 22.49 72.482 0.251 7.56 7.86 8.58
8/22/2021 12:30:00 PM 22.53 72.554 0.251 7.59 7.78 8.7
8/22/2021 12:45:00 PM 22.58 72.644 0.251 7.62 7.89 8.77
8/22/2021 1:00:00 PM 22.62 72.716 0.252 7.64 7.77 8.8
8/22/2021 1:15:00 PM 22.67 72.806 0.251 7.66 7.72 8.86
8/22/2021 1:30:00 PM 22.71 72.878 0.251 7.68 8 8.87
8/22/2021 1:45:00 PM 22.75 72.95 0.252 7.7 7.68 8.8
8/22/2021 2:00:00 PM 22.8 73.04 0.252 7.71 7.96 8.88
8/22/2021 2:15:00 PM 22.81 73.058 0.251 7.71 7.71 8.81
8/22/2021 2:30:00 PM 22.83 73.094 0.251 7.71 7.69 8.77
8/22/2021 2:45:00 PM 22.83 73.094 0.253 7.69 7.72 8.62
8/22/2021 3:00:00 PM 22.85 73.13 0.253 7.68 7.68 8.58
8/22/2021 3:15:00 PM 22.9 73.22 0.253 7.69 7.78 8.66
8/22/2021 3:30:00 PM 22.93 73.274 0.253 7.7 7.73 8.67
8/22/2021 3:45:00 PM 22.96 73.328 0.253 7.7 7.73 8.71
8/22/2021 4:00:00 PM 22.98 73.364 0.253 7.7 7.74 8.64
8/22/2021 4:15:00 PM 22.99 73.382 0.253 7.69 7.82 8.59
8/22/2021 4:30:00 PM 23.01 73.418 0.253 7.69 7.89 8.57
8/22/2021 4:45:00 PM 23.02 73.436 0.253 7.67 7.84 8.43
8/22/2021 5:00:00 PM 23.03 73.454 0.253 7.66 7.78 8.35
8/22/2021 5:15:00 PM 23.02 73.436 0.253 7.62 7.87 8.23
8/22/2021 5:30:00 PM 23 73.4 0.253 7.58 8.18 8.07
8/22/2021 5:45:00 PM 23 73.4 0.253 7.55 7.9 8.04
8/22/2021 6:00:00 PM 22.98 73.364 0.253 7.53 7.93 7.92
8/22/2021 6:15:00 PM 22.97 73.346 0.253 7.51 8.06 7.82
8/22/2021 6:30:00 PM 22.95 73.31 0.252 7.48 8.02 7.75
8/22/2021 6:45:00 PM 22.94 73.292 0.251 7.47 9.12 7.75
8/22/2021 7:00:00 PM 22.92 73.256 0.251 7.45 8.16 7.73
8/22/2021 7:15:00 PM 22.89 73.202 0.251 7.44 8.11 7.69
8/22/2021 7:30:00 PM 22.87 73.166 0.251 7.43 8.35 7.66
8/22/2021 7:45:00 PM 22.84 73.112 0.251 7.42 8.99 7.6
8/22/2021 8:00:00 PM 22.8 73.04 0.252 7.4 9 7.63
8/22/2021 8:15:00 PM 22.77 72.986 0.252 7.4 8.85 7.57
8/22/2021 8:30:00 PM 22.73 72.914 0.252 7.39 8.8 7.57
8/22/2021 8:45:00 PM 22.71 72.878 0.251 7.39 8.72 7.57
8/22/2021 9:00:00 PM 22.66 72.788 0.25 7.39 8.93 7.6
8/22/2021 9:15:00 PM 22.58 72.644 0.251 7.38 9.66 7.71
8/22/2021 9:30:00 PM 22.43 72.374 0.228 7.41 12.89 7.95
8/22/2021 9:45:00 PM 22.2 71.96 0.191 7.36 144.23 8.01
8/22/2021 10:00:00 PM 21.99 71.582 0.17 7.22 165.16 8.09
8/22/2021 10:15:00 PM 21.68 71.024 0.203 7.16 134.33 8.1
8/22/2021 10:30:00 PM 21.69 71.042 0.174 7.1 230.47 8.08
8/22/2021 10:45:00 PM 21.67 71.006 0.164 7.08 201.63 8.13
8/22/2021 11:00:00 PM 21.66 70.988 0.161 7.07 208.39 8.14
8/22/2021 11:15:00 PM 21.59 70.862 0.162 7.06 198.25 8.13
8/22/2021 11:30:00 PM 21.52 70.736 0.165 7.05 144.46 8.17
8/22/2021 11:45:00 PM 21.42 70.556 0.189 7.06 120.34 8.23
8/23/2021 12:00:00 AM 21.44 70.592 0.188 7.06 144.92 8.23
8/23/2021 12:15:00 AM 21.5 70.7 0.172 7.05 158.52 8.19
8/23/2021 12:30:00 AM 21.56 70.808 0.162 7.04 142.58 8.18
8/23/2021 12:45:00 AM 21.64 70.952 0.162 7.05 113.77 8.18
8/23/2021 1:00:00 AM 21.74 71.132 0.162 7.07 97.49 8.16
8/23/2021 1:15:00 AM 21.9 71.42 0.163 7.09 90.59 8.15
8/23/2021 1:30:00 AM 22.03 71.654 0.164 7.11 77.95 8.14
8/23/2021 1:45:00 AM 22.07 71.726 0.164 7.12 68.74 8.15
8/23/2021 2:00:00 AM 22.04 71.672 0.165 7.11 57.49 8.18
8/23/2021 2:15:00 AM 22.01 71.618 0.165 7.12 50.55 8.2
8/23/2021 2:30:00 AM 21.98 71.564 0.167 7.12 48.14 8.21
8/23/2021 2:45:00 AM 21.95 71.51 0.168 7.12 43.79 8.23
8/23/2021 3:00:00 AM 21.92 71.456 0.165 7.12 39.42 8.24
8/23/2021 3:15:00 AM 21.92 71.456 0.166 7.12 39.99 8.25
8/23/2021 3:30:00 AM 21.91 71.438 0.165 7.12 39.06 8.27
8/23/2021 3:45:00 AM 21.85 71.33 0.166 7.12 37.23 8.29
8/23/2021 4:00:00 AM 21.78 71.204 0.166 7.1 43.22 8.31
8/23/2021 4:15:00 AM 21.7 71.06 0.162 7.08 43.15 8.33
8/23/2021 4:30:00 AM 21.62 70.916 0.154 7.07 51.1 8.33
8/23/2021 4:45:00 AM 21.53 70.754 0.156 7.03 51.97 8.37
8/23/2021 5:00:00 AM 21.46 70.628 0.153 7.01 60.36 8.39
8/23/2021 5:15:00 AM 21.39 70.502 0.151 7.03 58.41 8.35
8/23/2021 5:30:00 AM 21.36 70.448 0.147 6.99 61.71 8.36
8/23/2021 5:45:00 AM 21.38 70.484 0.133 6.96 84.39 8.36
8/23/2021 6:00:00 AM 21.36 70.448 0.114 6.9 77.68 8.39
8/23/2021 6:15:00 AM 21.33 70.394 0.115 6.95 74.74 8.42
8/23/2021 6:30:00 AM 21.29 70.32201 0.117 7 59.65 8.39
8/23/2021 6:45:00 AM 21.28 70.304 0.118 7 54.42 8.39
8/23/2021 7:00:00 AM 21.24 70.232 0.119 6.99 50.92 8.4
8/23/2021 7:15:00 AM 21.22 70.196 0.12 6.98 55.81 8.41
8/23/2021 7:30:00 AM 21.22 70.196 0.144 6.98 62.87 8.41
8/23/2021 7:45:00 AM 21.21 70.17799 0.152 6.98 45.89 8.42
8/23/2021 8:00:00 AM 21.2 70.16 0.158 6.97 35.35 8.42
8/23/2021 8:15:00 AM 21.22 70.196 0.16 6.98 37.78 8.42
8/23/2021 8:30:00 AM 21.24 70.232 0.161 6.98 35.59 8.43
8/23/2021 8:45:00 AM 21.23 70.214 0.162 7 33.87 8.43
8/23/2021 9:00:00 AM 21.23 70.214 0.164 7 32.07 8.42
8/23/2021 9:15:00 AM 21.25 70.25 0.164 7 31.09 8.44
8/23/2021 9:30:00 AM 21.27 70.286 0.165 7.01 30.41 8.44
8/23/2021 9:45:00 AM 21.27 70.286 0.166 7.02 28.69 8.44
8/23/2021 10:00:00 AM 21.29 70.32201 0.166 7.01 28.28 8.43
8/23/2021 10:15:00 AM 21.3 70.34 0.167 7.02 28.35 8.43
8/23/2021 10:30:00 AM 21.31 70.358 0.165 7.03 26.63 8.43
8/23/2021 10:45:00 AM 21.34 70.412 0.152 7.03 27.08 8.44
8/23/2021 11:00:00 AM 21.35 70.43 0.166 7.04 25.3 8.44
8/23/2021 11:15:00 AM 21.36 70.448 0.165 7.04 26.35 8.45
8/23/2021 11:30:00 AM 21.38 70.484 0.166 7.04 27.67 8.44
8/23/2021 11:45:00 AM 21.41 70.538 0.169 7.04 26.9 8.43
8/23/2021 12:00:00 PM 21.47 70.646 0.169 7.05 26.49 8.44
8/23/2021 12:15:00 PM 21.5 70.7 0.166 7.06 25.69 8.41
8/23/2021 12:30:00 PM 21.55 70.79 0.164 7.07 26.32 8.42
8/23/2021 12:45:00 PM 21.56 70.808 0.164 7.07 25.94 8.42
8/23/2021 1:00:00 PM 21.58 70.844 0.164 7.08 26.14 8.42
8/23/2021 1:15:00 PM 21.65 70.97 0.164 7.07 26.39 8.38
8/23/2021 1:30:00 PM 21.73 71.114 0.164 7.08 25.54 8.4
8/23/2021 1:45:00 PM 21.81 71.258 0.164 7.1 24.69 8.37
8/23/2021 2:00:00 PM 21.89 71.402 0.164 7.1 22.99 8.36
8/23/2021 2:15:00 PM 21.99 71.582 0.165 7.1 29.22 8.33
8/23/2021 2:30:00 PM 22.12 71.816 0.165 7.11 26.2 8.31
8/23/2021 2:45:00 PM 22.22 71.996 0.165 7.11 25.72 8.3
8/23/2021 3:00:00 PM 22.29 72.122 0.164 7.12 27.1 8.28
8/23/2021 3:15:00 PM 22.29 72.122 0.165 7.12 26.06 8.27
8/23/2021 3:30:00 PM 22.26 72.068 0.164 7.11 26.42 8.21
8/23/2021 3:45:00 PM 22.25 72.05 0.164 7.11 26.04 8.21
8/23/2021 4:00:00 PM 22.26 72.068 0.163 7.09 27.05 8.21
8/23/2021 4:15:00 PM 22.27 72.086 0.162 7.09 26.22 8.19
8/23/2021 4:30:00 PM 22.23 72.014 0.162 7.07 26.86 8.19
8/23/2021 4:45:00 PM 22.22 71.996 0.163 7.07 30.08 8.2
8/23/2021 5:00:00 PM 22.27 72.086 0.163 7.08 25.27 8.17
8/23/2021 5:15:00 PM 22.32 72.176 0.163 7.08 26.01 8.17
8/23/2021 5:30:00 PM 22.37 72.266 0.163 7.08 26.16 8.15
8/23/2021 5:45:00 PM 22.43 72.374 0.163 7.08 25.73 8.17
8/23/2021 6:00:00 PM 22.48 72.464 0.162 7.09 25.67 8.14
8/23/2021 6:15:00 PM 22.49 72.482 0.16 7.09 26.29 8.14
8/23/2021 6:30:00 PM 22.48 72.464 0.164 7.09 24.05 8.13
8/23/2021 6:45:00 PM 22.48 72.464 0.166 7.09 23.69 8.12
8/23/2021 7:00:00 PM 22.46 72.42799 0.165 7.08 24.43 8.13
8/23/2021 7:15:00 PM 22.41 72.338 0.165 7.08 24.48 8.12
8/23/2021 7:30:00 PM 22.36 72.248 0.164 7.09 24.18 8.1
8/23/2021 7:45:00 PM 22.34 72.212 0.164 7.08 24.45 8.11
8/23/2021 8:00:00 PM 22.33 72.194 0.162 7.08 23.21 8.07
8/23/2021 8:15:00 PM 22.32 72.176 0.162 7.07 23.8 8.11
8/23/2021 8:30:00 PM 22.31 72.158 0.162 7.07 23.44 8.08
8/23/2021 8:45:00 PM 22.29 72.122 0.161 7.06 23.58 8.08
8/23/2021 9:00:00 PM 22.26 72.068 0.162 7.05 23.97 8.12
8/23/2021 9:15:00 PM 22.22 71.996 0.163 7.05 23.46 8.11
8/23/2021 9:30:00 PM 22.19 71.942 0.163 7.05 22.98 8.09
8/23/2021 9:45:00 PM 22.17 71.906 0.161 7.05 23.88 8.1
8/23/2021 10:00:00 PM 22.14 71.852 0.161 7.05 23.62 8.12
8/23/2021 10:15:00 PM 22.09 71.762 0.162 7.05 23.89 8.12
8/23/2021 10:30:00 PM 22.04 71.672 0.162 7.05 23.74 8.16
8/23/2021 10:45:00 PM 22 71.6 0.161 7.04 23.18 8.16
8/23/2021 11:00:00 PM 21.97 71.546 0.161 7.04 22.92 8.16
8/23/2021 11:15:00 PM 21.95 71.51 0.161 7.04 23.29 8.16
8/23/2021 11:30:00 PM 21.94 71.492 0.161 7.05 23.04 8.16
8/23/2021 11:45:00 PM 21.92 71.456 0.16 7.04 20.53 8.17
8/24/2021 12:00:00 AM 21.9 71.42 0.159 7.04 23.49 8.16
8/24/2021 12:15:00 AM 21.88 71.384 0.159 7.05 23.15 8.15
8/24/2021 12:30:00 AM 21.86 71.348 0.159 7.04 23.38 8.18
8/24/2021 12:45:00 AM 21.84 71.312 0.159 7.04 21.94 8.18
8/24/2021 1:00:00 AM 21.82 71.276 0.158 7.04 22.55 8.14
8/24/2021 1:15:00 AM 21.81 71.258 0.152 7.03 22.8 8.18
8/24/2021 1:30:00 AM 21.79 71.222 0.16 7.04 22.79 8.17
8/24/2021 1:45:00 AM 21.78 71.204 0.159 7.04 22.94 8.19
8/24/2021 2:00:00 AM 21.75 71.15 0.161 7.04 21.09 8.17
8/24/2021 2:15:00 AM 21.73 71.114 0.161 7.04 21.73 8.18
8/24/2021 2:30:00 AM 21.7 71.06 0.161 7.04 21.16 8.18
8/24/2021 2:45:00 AM 21.68 71.024 0.162 7.04 20.38 8.19
8/24/2021 3:00:00 AM 21.65 70.97 0.161 7.04 20.53 8.2
8/24/2021 3:15:00 AM 21.63 70.934 0.163 7.04 20.76 8.18
8/24/2021 3:30:00 AM 21.61 70.898 0.163 7.04 20.77 8.2
8/24/2021 3:45:00 AM 21.58 70.844 0.163 7.05 20.63 8.18
8/24/2021 4:00:00 AM 21.56 70.808 0.163 7.04 20.54 8.22
8/24/2021 4:15:00 AM 21.54 70.772 0.163 7.05 23.49 8.2
8/24/2021 4:30:00 AM 21.51 70.718 0.163 7.04 20.47 8.22
8/24/2021 4:45:00 AM 21.49 70.682 0.164 7.05 20.23 8.22
8/24/2021 5:00:00 AM 21.47 70.646 0.164 7.04 20.89 8.24
8/24/2021 5:15:00 AM 21.44 70.592 0.164 7.05 20.44 8.21
8/24/2021 5:30:00 AM 21.42 70.556 0.164 7.06 20.24 8.21
8/24/2021 5:45:00 AM 21.4 70.52 0.163 7.04 20.11 8.24
8/24/2021 6:00:00 AM 21.38 70.484 0.163 7.05 20.11 8.23
8/24/2021 6:15:00 AM 21.36 70.448 0.163 7.05 20.28 8.24
8/24/2021 6:30:00 AM 21.34 70.412 0.163 7.04 20.41 8.25
8/24/2021 6:45:00 AM 21.33 70.394 0.163 7.05 20.78 8.24
8/24/2021 7:00:00 AM 21.32 70.376 0.163 7.05 19.81 8.26
8/24/2021 7:15:00 AM 21.32 70.376 0.163 7.05 19.73 8.26
8/24/2021 7:30:00 AM 21.32 70.376 0.163 7.05 19.86 8.27
8/24/2021 7:45:00 AM 21.32 70.376 0.163 7.07 19.21 8.25
8/24/2021 8:00:00 AM 21.33 70.394 0.163 7.06 19.41 8.27
8/24/2021 8:15:00 AM 21.34 70.412 0.163 7.07 19.32 8.29
8/24/2021 8:30:00 AM 21.36 70.448 0.163 7.07 19.22 8.29
8/24/2021 8:45:00 AM 21.38 70.484 0.163 7.08 18.91 8.3
8/24/2021 9:00:00 AM 21.41 70.538 0.163 7.08 19.09 8.3
8/24/2021 9:15:00 AM 21.44 70.592 0.163 7.1 18.38 8.31
8/24/2021 9:30:00 AM 21.48 70.664 0.163 7.1 18.41 8.29
8/24/2021 9:45:00 AM 21.51 70.718 0.163 7.11 19.05 8.29
8/24/2021 10:00:00 AM 21.57 70.826 0.163 7.12 18.83 8.3
8/24/2021 10:15:00 AM 21.61 70.898 0.163 7.13 18.69 8.3
8/24/2021 10:30:00 AM 21.67 71.006 0.163 7.13 18.83 8.31
8/24/2021 10:45:00 AM 21.73 71.114 0.163 7.14 20.36 8.32
8/24/2021 11:00:00 AM 21.78 71.204 0.164 7.15 17.56 8.31
8/24/2021 11:15:00 AM 21.84 71.312 0.163 7.16 18.65 8.29
8/24/2021 11:30:00 AM 21.92 71.456 0.163 7.16 19.59 8.31
8/24/2021 11:45:00 AM 21.97 71.546 0.164 7.16 17.76 8.3
8/24/2021 12:00:00 PM 22.04 71.672 0.163 7.18 17.52 8.28
8/24/2021 12:15:00 PM 22.13 71.834 0.164 7.17 17.39 8.3
8/24/2021 12:30:00 PM 22.21 71.978 0.164 7.19 17.13 8.28
8/24/2021 12:45:00 PM 22.3 72.14 0.164 7.18 18.18 8.27
8/24/2021 1:00:00 PM 22.38 72.284 0.164 7.19 17.5 8.26
8/24/2021 1:15:00 PM 22.45 72.41 0.165 7.2 16.78 8.26
8/24/2021 1:30:00 PM 22.5 72.5 0.165 7.19 16.88 8.25
8/24/2021 1:45:00 PM 22.56 72.608 0.164 7.19 17.17 8.25
8/24/2021 2:00:00 PM 22.61 72.698 0.165 7.19 16.69 8.24
8/24/2021 2:15:00 PM 22.64 72.752 0.164 7.19 16.72 8.21
8/24/2021 2:30:00 PM 22.67 72.806 0.164 7.19 17.18 8.21
8/24/2021 2:45:00 PM 22.69 72.842 0.164 7.19 16.66 8.21
8/24/2021 3:00:00 PM 22.71 72.878 0.163 7.19 16.76 8.18
8/24/2021 3:15:00 PM 22.72 72.896 0.163 7.18 17.07 8.19
8/24/2021 3:30:00 PM 22.72 72.896 0.163 7.19 16.93 8.18
8/24/2021 3:45:00 PM 22.72 72.896 0.162 7.18 17.42 8.17
8/24/2021 4:00:00 PM 22.71 72.878 0.163 7.17 17.41 8.15
8/24/2021 4:15:00 PM 22.71 72.878 0.163 7.18 16.94 8.13
8/24/2021 4:30:00 PM 22.69 72.842 0.163 7.17 17.37 8.14
8/24/2021 4:45:00 PM 22.67 72.806 0.163 7.18 16.71 8.11
8/24/2021 5:00:00 PM 22.66 72.788 0.163 7.17 16.91 8.11
8/24/2021 5:15:00 PM 22.64 72.752 0.163 7.17 17.11 8.09
8/24/2021 5:30:00 PM 22.63 72.734 0.163 7.17 16.88 8.1
8/24/2021 5:45:00 PM 22.62 72.716 0.163 7.16 16.43 8.1
8/24/2021 6:00:00 PM 22.61 72.698 0.164 7.16 16.71 8.1
8/24/2021 6:15:00 PM 22.61 72.698 0.164 7.16 16.54 8.07
8/24/2021 6:30:00 PM 22.62 72.716 0.165 7.16 16.25 8.05
8/24/2021 6:45:00 PM 22.63 72.734 0.165 7.16 16.37 8.06
8/24/2021 7:00:00 PM 22.63 72.734 0.165 7.16 16.49 8.02
8/24/2021 7:15:00 PM 22.63 72.734 0.166 7.16 16.63 8.02
8/24/2021 7:30:00 PM 22.63 72.734 0.166 7.16 16.31 8.04
8/24/2021 7:45:00 PM 22.64 72.752 0.167 7.16 16.26 8.02
8/24/2021 8:00:00 PM 22.65 72.77 0.168 7.16 15.55 8.01
8/24/2021 8:15:00 PM 22.65 72.77 0.169 7.16 15.69 8.02
8/24/2021 8:30:00 PM 22.63 72.734 0.17 7.16 15.81 8.04
8/24/2021 8:45:00 PM 22.6 72.68 0.171 7.17 15.44 8.01
8/24/2021 9:00:00 PM 22.58 72.644 0.171 7.17 15.84 8.01
8/24/2021 9:15:00 PM 22.58 72.644 0.172 7.17 15.55 8.02
8/24/2021 9:30:00 PM 22.58 72.644 0.172 7.17 15.27 8.01
8/24/2021 9:45:00 PM 22.58 72.644 0.172 7.18 15.22 8.01
8/24/2021 10:00:00 PM 22.58 72.644 0.172 7.18 15.18 8.02
8/24/2021 10:15:00 PM 22.58 72.644 0.173 7.17 15.33 8.03
8/24/2021 10:30:00 PM 22.58 72.644 0.173 7.18 15.49 8.02
8/24/2021 10:45:00 PM 22.57 72.626 0.173 7.17 15.4 8.02
8/24/2021 11:00:00 PM 22.57 72.626 0.173 7.18 15.24 7.99
8/24/2021 11:15:00 PM 22.56 72.608 0.173 7.18 14.84 8.02
8/24/2021 11:30:00 PM 22.56 72.608 0.173 7.18 15.1 8.02
8/24/2021 11:45:00 PM 22.55 72.59 0.173 7.18 15.25 8.02
8/25/2021 12:00:00 AM 22.54 72.57201 0.173 7.19 15.37 8.01
8/25/2021 12:15:00 AM 22.52 72.536 0.173 7.18 15.31 8.02
8/25/2021 12:30:00 AM 22.49 72.482 0.173 7.17 15.52 8.05
8/25/2021 12:45:00 AM 22.45 72.41 0.173 7.18 15.42 8.03
8/25/2021 1:00:00 AM 22.42 72.356 0.172 7.18 15.19 8.04
8/25/2021 1:15:00 AM 22.38 72.284 0.173 7.17 15.34 8.06
8/25/2021 1:30:00 AM 22.33 72.194 0.173 7.17 15.36 8.05
8/25/2021 1:45:00 AM 22.28 72.104 0.172 7.17 15.47 8.06
8/25/2021 2:00:00 AM 22.23 72.014 0.172 7.17 15.76 8.06
8/25/2021 2:15:00 AM 22.19 71.942 0.172 7.17 15.34 8.07
8/25/2021 2:30:00 AM 22.14 71.852 0.172 7.17 15.66 8.08
8/25/2021 2:45:00 AM 22.1 71.78 0.172 7.16 15.7 8.09
8/25/2021 3:00:00 AM 22.06 71.708 0.172 7.17 15.83 8.09
8/25/2021 3:15:00 AM 22.02 71.636 0.172 7.17 15.67 8.11
8/25/2021 3:30:00 AM 21.97 71.546 0.172 7.17 15.91 8.1
8/25/2021 3:45:00 AM 21.94 71.492 0.172 7.17 15.85 8.11
8/25/2021 4:00:00 AM 21.91 71.438 0.172 7.17 16 8.12
8/25/2021 4:15:00 AM 21.88 71.384 0.173 7.17 16.24 8.12
8/25/2021 4:30:00 AM 21.85 71.33 0.172 7.17 15.76 8.13
8/25/2021 4:45:00 AM 21.82 71.276 0.173 7.17 15.76 8.14
8/25/2021 5:00:00 AM 21.79 71.222 0.173 7.17 15.86 8.13
8/25/2021 5:15:00 AM 21.76 71.168 0.173 7.17 16.27 8.14
8/25/2021 5:30:00 AM 21.74 71.132 0.173 7.17 16.57 8.16
8/25/2021 5:45:00 AM 21.71 71.078 0.173 7.18 16.59 8.15
8/25/2021 6:00:00 AM 21.69 71.042 0.173 7.17 16.8 8.15
8/25/2021 6:15:00 AM 21.68 71.024 0.173 7.17 16.07 8.14
8/25/2021 6:30:00 AM 21.65 70.97 0.173 7.17 16.17 8.15
8/25/2021 6:45:00 AM 21.62 70.916 0.174 7.18 16.4 8.12
8/25/2021 7:00:00 AM 21.6 70.88 0.174 7.18 16.72 8.14
8/25/2021 7:15:00 AM 21.58 70.844 0.174 7.18 16.67 8.13
8/25/2021 7:30:00 AM 21.57 70.826 0.173 7.18 16.67 8.17
8/25/2021 7:45:00 AM 21.56 70.808 0.174 7.18 16.71 8.22
8/25/2021 8:00:00 AM 21.56 70.808 0.174 7.19 17.01 8.23
8/25/2021 8:15:00 AM 21.56 70.808 0.174 7.2 17.19 8.23
8/25/2021 8:30:00 AM 21.57 70.826 0.173 7.2 16.82 8.21
8/25/2021 8:45:00 AM 21.59 70.862 0.174 7.21 16.81 8.18
8/25/2021 9:00:00 AM 21.61 70.898 0.174 7.22 17.09 8.18
8/25/2021 9:15:00 AM 21.65 70.97 0.174 7.23 17.75 8.17
8/25/2021 9:30:00 AM 21.7 71.06 0.174 7.23 17.34 8.26
8/25/2021 9:45:00 AM 21.75 71.15 0.174 7.24 17.39 8.29
8/25/2021 10:00:00 AM 21.81 71.258 0.174 7.24 17.64 8.28
8/25/2021 10:15:00 AM 21.89 71.402 0.174 7.26 17.51 8.32
8/25/2021 10:30:00 AM 21.98 71.564 0.174 7.27 17.42 8.31
8/25/2021 10:45:00 AM 22.09 71.762 0.174 7.28 17.8 8.29
8/25/2021 11:00:00 AM 22.2 71.96 0.174 7.29 17.72 8.31
8/25/2021 11:15:00 AM 22.31 72.158 0.174 7.29 17.51 8.31
8/25/2021 11:30:00 AM 22.44 72.392 0.174 7.29 17.97 8.32
8/25/2021 11:45:00 AM 22.59 72.662 0.174 7.31 17.67 8.3
8/25/2021 12:00:00 PM 22.71 72.878 0.173 7.32 17.7 8.27
8/25/2021 12:15:00 PM 22.85 73.13 0.174 7.33 17.79 8.26
8/25/2021 12:30:00 PM 23 73.4 0.173 7.33 17.94 8.26
8/25/2021 12:45:00 PM 23.15 73.67 0.173 7.33 18.62 8.24
8/25/2021 1:00:00 PM 23.3 73.94 0.173 7.34 18.36 8.21
8/25/2021 1:15:00 PM 23.4 74.12 0.172 7.34 18.56 8.14
8/25/2021 1:30:00 PM 23.53 74.354 0.172 7.35 18.7 8.17
8/25/2021 1:45:00 PM 23.58 74.444 0.172 7.34 19.44 8.15
8/25/2021 2:00:00 PM 23.65 74.57 0.171 7.33 19.23 8.13
8/25/2021 2:15:00 PM 23.82 74.876 0.171 7.34 19.16 8.14
8/25/2021 2:30:00 PM 23.93 75.074 0.171 7.35 19.01 8.1
8/25/2021 2:45:00 PM 23.98 75.164 0.171 7.34 19.72 8.08
8/25/2021 3:00:00 PM 24.05 75.29 0.171 7.34 19.53 8.06
8/25/2021 3:15:00 PM 24.08 75.344 0.171 7.34 19.81 8.05
8/25/2021 3:30:00 PM 24 75.2 0.171 7.34 19.92 8.01
8/25/2021 3:45:00 PM 23.96 75.128 0.171 7.32 20.53 7.99
8/25/2021 4:00:00 PM 23.93 75.074 0.171 7.32 20.25 8
8/25/2021 4:15:00 PM 23.88 74.984 0.17 7.31 20.87 7.97
8/25/2021 4:30:00 PM 23.82 74.876 0.17 7.3 21.12 7.96
8/25/2021 4:45:00 PM 23.81 74.858 0.17 7.3 22.78 7.91
8/25/2021 5:00:00 PM 23.79 74.82201 0.17 7.28 22.31 7.93
8/25/2021 5:15:00 PM 23.74 74.732 0.17 7.29 22.18 7.95
8/25/2021 5:30:00 PM 23.68 74.624 0.169 7.28 21.57 7.89
8/25/2021 5:45:00 PM 23.62 74.516 0.169 7.27 21.98 7.92
8/25/2021 6:00:00 PM 23.57 74.426 0.169 7.27 21.69 7.93
8/25/2021 6:15:00 PM 23.53 74.354 0.17 7.26 20.21 7.91
8/25/2021 6:30:00 PM 23.49 74.282 0.17 7.26 20.07 7.91
8/25/2021 6:45:00 PM 23.45 74.21 0.17 7.25 20.08 7.82
8/25/2021 7:00:00 PM 23.4 74.12 0.169 7.24 20.22 7.78
8/25/2021 7:15:00 PM 23.34 74.012 0.17 7.23 21.06 7.8
8/25/2021 7:30:00 PM 23.29 73.922 0.17 7.22 418.26 7.7
8/25/2021 7:45:00 PM 23.24 73.832 0.169 7.21 21.79 7.78
8/25/2021 8:00:00 PM 23.19 73.742 0.169 7.21 22.15 7.85
8/25/2021 8:15:00 PM 23.17 73.706 0.169 7.21 20.14 7.85
8/25/2021 8:30:00 PM 23.15 73.67 0.17 7.2 20.4 7.89
8/25/2021 8:45:00 PM 23.13 73.634 0.17 7.21 20.68 7.85
8/25/2021 9:00:00 PM 23.1 73.58 0.17 7.2 20.56 7.81
8/25/2021 9:15:00 PM 23.07 73.526 0.17 7.2 21.22 7.87
8/25/2021 9:30:00 PM 23.03 73.454 0.17 7.2 21.4 7.87
8/25/2021 9:45:00 PM 22.99 73.382 0.17 7.2 22.03 7.89
8/25/2021 10:00:00 PM 22.94 73.292 0.171 7.2 22.54 7.85
8/25/2021 10:15:00 PM 22.9 73.22 0.171 7.2 22 7.89
8/25/2021 10:30:00 PM 22.86 73.148 0.171 7.19 21.86 7.91
8/25/2021 10:45:00 PM 22.81 73.058 0.164 7.2 23.45 7.87
8/25/2021 11:00:00 PM 22.77 72.986 0.169 7.2 23.55 7.88
8/25/2021 11:15:00 PM 22.73 72.914 0.169 7.19 23.5 7.89
8/25/2021 11:30:00 PM 22.69 72.842 0.169 7.19 23.71 7.9
8/25/2021 11:45:00 PM 22.67 72.806 0.169 7.2 23.59 7.92
8/26/2021 12:00:00 AM 22.65 72.77 0.169 7.2 24.15 7.92
8/26/2021 12:15:00 AM 22.64 72.752 0.169 7.2 24.46 7.91
8/26/2021 12:30:00 AM 22.64 72.752 0.169 7.19 24.65 7.93
8/26/2021 12:45:00 AM 22.64 72.752 0.17 7.19 25.02 7.92
8/26/2021 1:00:00 AM 22.65 72.77 0.17 7.2 25.02 7.89
8/26/2021 1:15:00 AM 22.66 72.788 0.17 7.21 26.14 7.91
8/26/2021 1:30:00 AM 22.67 72.806 0.171 7.21 26.18 7.9
8/26/2021 1:45:00 AM 22.69 72.842 0.171 7.21 26.56 7.89
8/26/2021 2:00:00 AM 22.71 72.878 0.171 7.21 25.08 7.92
8/26/2021 2:15:00 AM 22.72 72.896 0.171 7.21 25.65 7.91
8/26/2021 2:30:00 AM 22.72 72.896 0.171 7.21 26.21 7.92
8/26/2021 2:45:00 AM 22.7 72.86 0.171 7.22 25.82 7.86
8/26/2021 3:00:00 AM 22.68 72.824 0.171 7.22 26.49 7.92
8/26/2021 3:15:00 AM 22.65 72.77 0.171 7.21 26.28 7.88
8/26/2021 3:30:00 AM 22.62 72.716 0.171 7.21 26.46 7.91
8/26/2021 3:45:00 AM 22.58 72.644 0.171 7.21 27.56 7.92
8/26/2021 4:00:00 AM 22.54 72.57201 0.171 7.2 27.44 7.94
8/26/2021 4:15:00 AM 22.5 72.5 0.172 7.2 27.89 7.96
8/26/2021 4:30:00 AM 22.46 72.42799 0.172 7.21 28.78 7.91
8/26/2021 4:45:00 AM 22.42 72.356 0.172 7.2 29.3 7.93
8/26/2021 5:00:00 AM 22.38 72.284 0.172 7.2 29.46 7.85
8/26/2021 5:15:00 AM 22.35 72.23 0.172 7.2 29.73 7.89
8/26/2021 5:30:00 AM 22.31 72.158 0.172 7.2 29.38 7.88
8/26/2021 5:45:00 AM 22.29 72.122 0.172 7.19 25.48 7.82
8/26/2021 6:00:00 AM 22.26 72.068 0.172 7.2 26.69 7.81
8/26/2021 6:15:00 AM 22.24 72.032 0.172 7.19 27.38 7.85
8/26/2021 6:30:00 AM 22.21 71.978 0.172 7.2 28.04 7.76
8/26/2021 6:45:00 AM 22.19 71.942 0.172 7.2 28.37 7.87
8/26/2021 7:00:00 AM 22.17 71.906 0.172 7.2 28.37 7.99
8/26/2021 7:15:00 AM 22.15 71.87 0.172 7.2 29.26 7.93
8/26/2021 7:30:00 AM 22.13 71.834 0.172 7.2 30.6 7.98
8/26/2021 7:45:00 AM 22.12 71.816 0.172 7.2 30.45 7.92
8/26/2021 8:00:00 AM 22.12 71.816 0.172 7.2 30.78 7.88
8/26/2021 8:15:00 AM 22.12 71.816 0.172 7.21 31.03 8.01
8/26/2021 8:30:00 AM 22.13 71.834 0.172 7.21 31.79 8.12
8/26/2021 8:45:00 AM 22.16 71.888 0.172 7.22 31.79 8.15
8/26/2021 9:00:00 AM 22.18 71.924 0.172 7.22 32.54 8.15
8/26/2021 9:15:00 AM 22.22 71.996 0.172 7.23 32.91 8.12
8/26/2021 9:30:00 AM 22.27 72.086 0.171 7.24 33.41 8.17
8/26/2021 9:45:00 AM 22.32 72.176 0.172 7.24 33.39 8.11
8/26/2021 10:00:00 AM 22.39 72.302 0.171 7.25 35.12 8.01
8/26/2021 10:15:00 AM 22.47 72.446 0.172 7.26 35.26 8.19
8/26/2021 10:30:00 AM 22.55 72.59 0.172 7.27 35.73 8.14
8/26/2021 10:45:00 AM 22.64 72.752 0.172 7.27 35.25 8.14
8/26/2021 11:00:00 AM 22.74 72.932 0.172 7.28 35.5 8.2
8/26/2021 11:15:00 AM 22.86 73.148 0.172 7.29 36.38 8.16
8/26/2021 11:30:00 AM 22.98 73.364 0.172 7.3 36.35 8.04
8/26/2021 11:45:00 AM 23.11 73.598 0.172 7.31 36.86 8.01
8/26/2021 12:00:00 PM 23.26 73.868 0.172 7.31 37.58 7.95
8/26/2021 12:15:00 PM 23.42 74.156 0.172 7.32 37.39 7.88
8/26/2021 12:30:00 PM 23.59 74.462 0.172 7.33 38.59 7.96
8/26/2021 12:45:00 PM 23.75 74.75 0.172 7.35 39.62 7.91
8/26/2021 1:00:00 PM 23.89 75.002 0.172 7.36 39.99 8
8/26/2021 1:15:00 PM 24.04 75.272 0.172 7.37 40.89 8.04
8/26/2021 1:30:00 PM 24.19 75.542 0.172 7.37 40.45 7.92
8/26/2021 1:45:00 PM 24.37 75.866 0.172 7.38 40.85 7.98
8/26/2021 2:00:00 PM 24.48 76.064 0.172 7.37 41.54 7.94
8/26/2021 2:15:00 PM 24.55 76.19 0.173 7.37 42.32 7.88
8/26/2021 2:30:00 PM 24.64 76.352 0.173 7.36 41.16 7.67
8/26/2021 2:45:00 PM 24.76 76.568 0.173 7.36 41.99 7.72
8/26/2021 3:00:00 PM 24.77 76.586 0.173 7.35 41.45 7.62
8/26/2021 3:15:00 PM 24.78 76.604 0.173 7.35 43.77 7.64
8/26/2021 3:30:00 PM 24.82 76.676 0.173 7.35 43.87 7.7
8/26/2021 3:45:00 PM 24.89 76.802 0.173 7.35 46.11 7.53
8/26/2021 4:00:00 PM 24.9 76.82 0.173 7.34 46.39 7.52
8/26/2021 4:15:00 PM 24.85 76.73 0.173 7.34 46.05 7.64
8/26/2021 4:30:00 PM 24.76 76.568 0.173 7.32 46.38 7.52
8/26/2021 4:45:00 PM 24.68 76.424 0.173 7.31 47.91 7.54
8/26/2021 5:00:00 PM 24.59 76.262 0.173 7.3 48.57 7.49
8/26/2021 5:15:00 PM 24.49 76.082 0.173 7.29 49.77 7.52
8/26/2021 5:30:00 PM 24.4 75.92 0.173 7.27 67.63 7.56
8/26/2021 5:45:00 PM 24.33 75.794 0.173 7.27 47.12 7.37
8/26/2021 6:00:00 PM 24.25 75.65 0.173 7.26 47.6 7.45
8/26/2021 6:15:00 PM 24.17 75.506 0.173 7.26 46.92 7.45
8/26/2021 6:30:00 PM 24.08 75.344 0.173 7.25 46.72 7.62
8/26/2021 6:45:00 PM 24.01 75.218 0.173 7.25 48.04 7.79
8/26/2021 7:00:00 PM 23.93 75.074 0.173 7.24 51.77 7.73
8/26/2021 7:15:00 PM 23.85 74.93 0.173 7.23 49.47 7.71
8/26/2021 7:30:00 PM 23.78 74.804 0.173 7.23 49.58 7.66
8/26/2021 7:45:00 PM 23.73 74.714 0.173 7.22 49.94 7.64
8/26/2021 8:00:00 PM 23.68 74.624 0.172 7.23 49.81 7.56
8/26/2021 8:15:00 PM 23.64 74.552 0.172 7.23 51.42 7.56
8/26/2021 8:30:00 PM 23.6 74.48 0.173 7.23 52.35 7.6
8/26/2021 8:45:00 PM 23.57 74.426 0.173 7.23 51.92 7.63
8/26/2021 9:00:00 PM 23.53 74.354 0.173 7.23 52.36 7.44
8/26/2021 9:15:00 PM 23.5 74.3 0.173 7.24 53.01 7.55
8/26/2021 9:30:00 PM 23.46 74.228 0.172 7.23 52.47 7.55
8/26/2021 9:45:00 PM 23.42 74.156 0.172 7.24 54.82 7.61
8/26/2021 10:00:00 PM 23.38 74.084 0.172 7.23 54.21 7.63
8/26/2021 10:15:00 PM 23.33 73.994 0.172 7.23 53.92 7.63
8/26/2021 10:30:00 PM 23.29 73.922 0.172 7.22 53.62 7.67
8/26/2021 10:45:00 PM 23.24 73.832 0.172 7.23 53.95 7.54
8/26/2021 11:00:00 PM 23.21 73.778 0.172 7.23 55.82 7.61
8/26/2021 11:15:00 PM 23.18 73.724 0.172 7.23 55.35 7.66
8/26/2021 11:30:00 PM 23.16 73.688 0.172 7.23 54.94 7.72
8/26/2021 11:45:00 PM 23.13 73.634 0.172 7.23 56.3 7.65
8/27/2021 12:00:00 AM 23.12 73.616 0.172 7.23 56.94 7.62
8/27/2021 12:15:00 AM 23.11 73.598 0.172 7.23 57.12 7.66
8/27/2021 12:30:00 AM 23.1 73.58 0.172 7.23 57.8 7.69
8/27/2021 12:45:00 AM 23.1 73.58 0.172 7.23 59.09 7.75
8/27/2021 1:00:00 AM 23.09 73.562 0.172 7.23 57.31 7.72
8/27/2021 1:15:00 AM 23.06 73.508 0.172 7.23 58.04 7.61
8/27/2021 1:30:00 AM 23.02 73.436 0.172 7.24 58.39 7.59
8/27/2021 1:45:00 AM 22.99 73.382 0.172 7.23 59.13 7.64
8/27/2021 2:00:00 AM 22.94 73.292 0.172 7.23 59.07 7.51
8/27/2021 2:15:00 AM 22.9 73.22 0.172 7.22 58.95 7.64
8/27/2021 2:30:00 AM 22.86 73.148 0.173 7.22 59.59 7.8
8/27/2021 2:45:00 AM 22.84 73.112 0.173 7.22 59.68 7.85
8/27/2021 3:00:00 AM 22.81 73.058 0.173 7.22 60.95 7.81
8/27/2021 3:15:00 AM 22.78 73.004 0.173 7.22 60.61 7.74
8/27/2021 3:30:00 AM 22.74 72.932 0.173 7.22 61.19 7.77
8/27/2021 3:45:00 AM 22.7 72.86 0.174 7.23 61.17 7.79
8/27/2021 4:00:00 AM 22.67 72.806 0.174 7.22 61.11 7.81
8/27/2021 4:15:00 AM 22.64 72.752 0.174 7.22 61.37 7.88
8/27/2021 4:30:00 AM 22.61 72.698 0.174 7.22 61.99 7.88
8/27/2021 4:45:00 AM 22.59 72.662 0.174 7.23 61.37 7.87
8/27/2021 5:00:00 AM 22.56 72.608 0.174 7.22 62.74 7.76
8/27/2021 5:15:00 AM 22.53 72.554 0.174 7.23 62.73 7.85
8/27/2021 5:30:00 AM 22.5 72.5 0.175 7.23 61.73 7.9
8/27/2021 5:45:00 AM 22.46 72.42799 0.175 7.23 63.95 7.9
8/27/2021 6:00:00 AM 22.44 72.392 0.175 7.23 67.16 7.85
8/27/2021 6:15:00 AM 22.4 72.32 0.175 7.23 67.13 7.81
8/27/2021 6:30:00 AM 22.37 72.266 0.175 7.23 66.34 7.73
8/27/2021 6:45:00 AM 22.33 72.194 0.175 7.23 66 7.63
8/27/2021 7:00:00 AM 22.32 72.176 0.175 7.22 65.16 7.66
8/27/2021 7:15:00 AM 22.3 72.14 0.175 7.23 65.36 7.75
8/27/2021 7:30:00 AM 22.3 72.14 0.176 7.24 66.47 8.01
8/27/2021 7:45:00 AM 22.3 72.14 0.176 7.25 65.04 7.99
8/27/2021 8:00:00 AM 22.31 72.158 0.176 7.25 65.89 8
8/27/2021 8:15:00 AM 22.32 72.176 0.176 7.26 64.74 8.01
8/27/2021 8:30:00 AM 22.33 72.194 0.176 7.26 64.7 7.88
8/27/2021 8:45:00 AM 22.36 72.248 0.176 7.27 64.21 7.93
8/27/2021 9:00:00 AM 22.39 72.302 0.176 7.27 64.15 8.14
8/27/2021 9:15:00 AM 22.43 72.374 0.176 7.28 64.47 8.15
8/27/2021 9:30:00 AM 22.48 72.464 0.176 7.29 65 7.7
8/27/2021 9:45:00 AM 22.52 72.536 0.175 7.3 63.16 8.07
8/27/2021 10:00:00 AM 22.57 72.626 0.175 7.31 62.76 8.1
8/27/2021 10:15:00 AM 22.61 72.698 0.176 7.32 63.87 8.22
8/27/2021 10:30:00 AM 22.66 72.788 0.176 7.33 62.32 8.18
8/27/2021 10:45:00 AM 22.69 72.842 0.176 7.33 62.86 8.08
8/27/2021 11:00:00 AM 22.71 72.878 0.176 7.33 63.41 8.25
8/27/2021 11:15:00 AM 22.74 72.932 0.176 7.33 63.83 8.08
8/27/2021 11:30:00 AM 22.77 72.986 0.176 7.33 62.19 8.22
8/27/2021 11:45:00 AM 22.81 73.058 0.176 7.33 62.77 8.08
8/27/2021 12:00:00 PM 22.85 73.13 0.177 7.33 63.03 8.16
8/27/2021 12:15:00 PM 22.9 73.22 0.177 7.33 62.12 8.12
8/27/2021 12:30:00 PM 22.95 73.31 0.177 7.33 62.46 8.21
8/27/2021 12:45:00 PM 23.03 73.454 0.177 7.34 61.94 8.06
8/27/2021 1:00:00 PM 23.12 73.616 0.177 7.35 62.74 8.09
8/27/2021 1:15:00 PM 23.19 73.742 0.177 7.36 63.72 8.31
8/27/2021 1:30:00 PM 23.26 73.868 0.177 7.37 63.77 8.31
8/27/2021 1:45:00 PM 23.34 74.012 0.177 7.38 63.78 8.34
8/27/2021 2:00:00 PM 23.39 74.102 0.177 7.38 63.31 8.23
8/27/2021 2:15:00 PM 23.49 74.282 0.177 7.39 62.84 8.19
8/27/2021 2:30:00 PM 23.63 74.534 0.177 7.39 63.61 8.24
8/27/2021 2:45:00 PM 23.69 74.642 0.177 7.4 63.24 8.28
8/27/2021 3:00:00 PM 23.78 74.804 0.177 7.4 62.73 8.27
8/27/2021 3:15:00 PM 23.86 74.948 0.177 7.41 63.52 8.24
8/27/2021 3:30:00 PM 23.95 75.11 0.178 7.42 63.79 8.23
8/27/2021 3:45:00 PM 24 75.2 0.178 7.42 65.54 8.19
8/27/2021 4:00:00 PM 24.03 75.254 0.178 7.42 65.19 8.21
8/27/2021 4:15:00 PM 24.03 75.254 0.178 7.41 67.04 8.08
8/27/2021 4:30:00 PM 24 75.2 0.178 7.41 64.4 8.12
8/27/2021 4:45:00 PM 23.97 75.146 0.178 7.39 64.55 8.05
8/27/2021 5:00:00 PM 23.92 75.056 0.178 7.39 65.87 8.02
8/27/2021 5:15:00 PM 23.87 74.966 0.178 7.38 65.09 7.94
8/27/2021 5:30:00 PM 23.85 74.93 0.178 7.37 49.96 7.92
8/27/2021 5:45:00 PM 23.85 74.93 0.178 7.37 52.17 7.92
8/27/2021 6:00:00 PM 23.86 74.948 0.178 7.37 52.47 7.89
8/27/2021 6:15:00 PM 23.82 74.876 0.178 7.37 56.83 7.96
8/27/2021 6:30:00 PM 23.77 74.786 0.179 7.36 55.39 7.93
8/27/2021 6:45:00 PM 23.58 74.444 0.195 7.35 59.16 7.88
8/27/2021 7:00:00 PM 23.31 73.958 0.216 7.34 59.87 7.83
8/27/2021 7:15:00 PM 23.22 73.796 0.217 7.34 36.89 7.79
8/27/2021 7:30:00 PM 23.17 73.706 0.212 7.34 753.83 7.79
8/27/2021 7:45:00 PM 23.12 73.616 0.206 7.33 105.82 7.82
8/27/2021 8:00:00 PM 23.06 73.508 0.203 7.32 40.88 7.82
8/27/2021 8:15:00 PM 23.06 73.508 0.192 7.31 44.25 7.75
8/27/2021 8:30:00 PM 23.09 73.562 0.181 7.3 48.58 7.59
8/27/2021 8:45:00 PM 23.11 73.598 0.177 7.29 49.07 7.65
8/27/2021 9:00:00 PM 23.1 73.58 0.178 7.28 51.31 7.67
8/27/2021 9:15:00 PM 23.08 73.544 0.18 7.27 51.16 7.7
8/27/2021 9:30:00 PM 23.07 73.526 0.182 7.27 54.33 7.71
8/27/2021 9:45:00 PM 23.08 73.544 0.183 7.27 54.63 7.73
8/27/2021 10:00:00 PM 23.11 73.598 0.185 7.27 53.76 7.78
8/27/2021 10:15:00 PM 23.17 73.706 0.187 7.28 54.44 7.69
8/27/2021 10:30:00 PM 23.21 73.778 0.188 7.28 54.05 7.72
8/27/2021 10:45:00 PM 23.25 73.85 0.189 7.29 55.17 7.68
8/27/2021 11:00:00 PM 23.27 73.886 0.19 7.3 54.89 7.76
8/27/2021 11:15:00 PM 23.29 73.922 0.191 7.3 55.53 7.67
8/27/2021 11:30:00 PM 23.29 73.922 0.191 7.3 54.22 7.73
8/27/2021 11:45:00 PM 23.29 73.922 0.192 7.3 57.62 7.7
8/28/2021 12:00:00 AM 23.28 73.904 0.192 7.3 54.33 7.7
8/28/2021 12:15:00 AM 23.26 73.868 0.193 7.3 54.44 7.74
8/28/2021 12:30:00 AM 23.22 73.796 0.192 7.3 55.9 7.8
8/28/2021 12:45:00 AM 23.17 73.706 0.193 7.3 55.53 7.84
8/28/2021 1:00:00 AM 23.1 73.58 0.193 7.3 56.96 7.79
8/28/2021 1:15:00 AM 23.03 73.454 0.193 7.29 57.44 7.76
8/28/2021 1:30:00 AM 22.95 73.31 0.193 7.28 57.75 7.87
8/28/2021 1:45:00 AM 22.88 73.184 0.193 7.28 64.15 7.85
8/28/2021 2:00:00 AM 22.81 73.058 0.193 7.27 54.51 7.88
8/28/2021 2:15:00 AM 22.75 72.95 0.193 7.27 61.31 7.88
8/28/2021 2:30:00 AM 22.68 72.824 0.193 7.27 55.04 7.9
8/28/2021 2:45:00 AM 22.62 72.716 0.193 7.27 52.36 7.93
8/28/2021 3:00:00 AM 22.56 72.608 0.192 7.27 50.48 7.94
8/28/2021 3:15:00 AM 22.5 72.5 0.191 7.27 51.57 7.97
8/28/2021 3:30:00 AM 22.45 72.41 0.19 7.27 52.46 7.96
8/28/2021 3:45:00 AM 22.41 72.338 0.189 7.27 52.06 7.95
8/28/2021 4:00:00 AM 22.37 72.266 0.188 7.27 51.95 8.01
8/28/2021 4:15:00 AM 22.35 72.23 0.187 7.27 53.46 7.99
8/28/2021 4:30:00 AM 22.34 72.212 0.186 7.27 53.27 8
8/28/2021 4:45:00 AM 22.33 72.194 0.186 7.28 52.99 7.99
8/28/2021 5:00:00 AM 22.32 72.176 0.185 7.28 51.6 7.99
8/28/2021 5:15:00 AM 22.32 72.176 0.185 7.28 53.44 7.98
8/28/2021 5:30:00 AM 22.31 72.158 0.185 7.29 53.02 7.99
8/28/2021 5:45:00 AM 22.32 72.176 0.184 7.28 52.75 7.99
8/28/2021 6:00:00 AM 22.32 72.176 0.184 7.29 53.69 7.97
8/28/2021 6:15:00 AM 22.33 72.194 0.184 7.29 55.15 7.96
8/28/2021 6:30:00 AM 22.33 72.194 0.184 7.3 54.35 7.96
8/28/2021 6:45:00 AM 22.33 72.194 0.184 7.29 56.02 7.98
8/28/2021 7:00:00 AM 22.33 72.194 0.184 7.29 56.88 7.96
8/28/2021 7:15:00 AM 22.32 72.176 0.184 7.29 56.29 7.95
8/28/2021 7:30:00 AM 22.31 72.158 0.184 7.29 56.94 7.97
8/28/2021 7:45:00 AM 22.29 72.122 0.184 7.29 55.43 7.69
8/28/2021 8:00:00 AM 22.27 72.086 0.184 7.29 56 8.03
8/28/2021 8:15:00 AM 22.25 72.05 0.183 7.29 56.01 8.04
8/28/2021 8:30:00 AM 22.24 72.032 0.184 7.29 55.92 8.07
8/28/2021 8:45:00 AM 22.24 72.032 0.183 7.3 53.72 8.11
8/28/2021 9:00:00 AM 22.24 72.032 0.183 7.31 56.23 8.13
8/28/2021 9:15:00 AM 22.26 72.068 0.183 7.32 56.17 8.21
8/28/2021 9:30:00 AM 22.27 72.086 0.183 7.33 55.83 8.26
8/28/2021 9:45:00 AM 22.26 72.068 0.182 7.34 55.47 8.31
8/28/2021 10:00:00 AM 22.27 72.086 0.182 7.35 56.86 8.25
8/28/2021 10:15:00 AM 22.27 72.086 0.182 7.36 58.94 8.27
8/28/2021 10:30:00 AM 22.27 72.086 0.183 7.36 56.85 8.11
8/28/2021 10:45:00 AM 22.31 72.158 0.183 7.38 49.51 8.12
8/28/2021 11:00:00 AM 22.34 72.212 0.183 7.39 49.96 7.85
8/28/2021 11:15:00 AM 22.39 72.302 0.183 7.4 48.82 8.07
8/28/2021 11:30:00 AM 22.45 72.41 0.184 7.42 50.23 8.29
8/28/2021 11:45:00 AM 22.47 72.446 0.184 7.43 49.34 8.44
8/28/2021 12:00:00 PM 22.48 72.464 0.185 7.43 48.41 8.55
8/28/2021 12:15:00 PM 22.49 72.482 0.186 7.43 49.02 8.49
8/28/2021 12:30:00 PM 22.51 72.518 0.186 7.44 48.67 8.54
8/28/2021 12:45:00 PM 22.53 72.554 0.187 7.44 49.51 8.52
8/28/2021 1:00:00 PM 22.53 72.554 0.188 7.45 49.24 8.52
8/28/2021 1:15:00 PM 22.58 72.644 0.187 7.45 48.94 8.54
8/28/2021 1:30:00 PM 22.65 72.77 0.188 7.46 49.08 8.57
8/28/2021 1:45:00 PM 22.7 72.86 0.188 7.47 47.47 8.57
8/28/2021 2:00:00 PM 22.73 72.914 0.188 7.48 48.22 8.57
8/28/2021 2:15:00 PM 22.74 72.932 0.188 7.48 48.4 8.52
8/28/2021 2:30:00 PM 22.8 73.04 0.187 7.48 48.01 8.57
8/28/2021 2:45:00 PM 22.85 73.13 0.187 7.49 48.59 8.57
8/28/2021 3:00:00 PM 22.89 73.202 0.187 7.49 49.28 8.57
8/28/2021 3:15:00 PM 22.93 73.274 0.186 7.49 50.13 8.55
8/28/2021 3:30:00 PM 22.97 73.346 0.186 7.49 49.75 8.55
8/28/2021 3:45:00 PM 22.99 73.382 0.186 7.5 49.99 8.53
8/28/2021 4:00:00 PM 23 73.4 0.186 7.5 56.83 8.47
8/28/2021 4:15:00 PM 22.98 73.364 0.186 7.49 56.12 8.4
8/28/2021 4:30:00 PM 22.98 73.364 0.186 7.48 55.83 8.28
8/28/2021 4:45:00 PM 22.97 73.346 0.185 7.47 55.57 8.26
8/28/2021 5:00:00 PM 22.97 73.346 0.186 7.46 54.4 8.1
8/28/2021 5:15:00 PM 22.97 73.346 0.186 7.46 53.74 8.22
8/28/2021 5:30:00 PM 22.95 73.31 0.186 7.44 54.35 8.19
8/28/2021 5:45:00 PM 22.93 73.274 0.186 7.43 55.41 8.11
8/28/2021 6:00:00 PM 22.91 73.238 0.186 7.42 53.13 8.05
8/28/2021 6:15:00 PM 22.89 73.202 0.186 7.4 55.36 8.07
8/28/2021 6:30:00 PM 22.87 73.166 0.186 7.39 53.4 8.05
8/28/2021 6:45:00 PM 22.86 73.148 0.187 7.37 54.63 8.08
8/28/2021 7:00:00 PM 22.84 73.112 0.186 7.36 53.42 8.06
8/28/2021 7:15:00 PM 22.81 73.058 0.187 7.36 54.76 8
8/28/2021 7:30:00 PM 22.79 73.022 0.187 7.35 53.39 7.98
8/28/2021 7:45:00 PM 22.75 72.95 0.187 7.35 53.95 7.92
8/28/2021 8:00:00 PM 22.72 72.896 0.187 7.34 110.13 7.93
8/28/2021 8:15:00 PM 22.69 72.842 0.187 7.34 55.14 7.9
8/28/2021 8:30:00 PM 22.65 72.77 0.187 7.33 55.59 7.95
8/28/2021 8:45:00 PM 22.62 72.716 0.188 7.33 56.26 7.9
8/28/2021 9:00:00 PM 22.6 72.68 0.188 7.32 56.97 7.93
8/28/2021 9:15:00 PM 22.57 72.626 0.188 7.33 65.1 7.9
8/28/2021 9:30:00 PM 22.55 72.59 0.188 7.32 59.22 7.93
8/28/2021 9:45:00 PM 22.52 72.536 0.188 7.32 56.67 7.97
8/28/2021 10:00:00 PM 22.5 72.5 0.188 7.32 57.01 7.93
8/28/2021 10:15:00 PM 22.48 72.464 0.188 7.32 60.12 7.94
8/28/2021 10:30:00 PM 22.45 72.41 0.188 7.32 58.78 7.93
8/28/2021 10:45:00 PM 22.43 72.374 0.188 7.32 59.43 7.96
8/28/2021 11:00:00 PM 22.41 72.338 0.188 7.32 58.32 7.95
8/28/2021 11:15:00 PM 22.39 72.302 0.188 7.32 58.64 7.97
8/28/2021 11:30:00 PM 22.36 72.248 0.188 7.32 61.81 7.97
8/28/2021 11:45:00 PM 22.34 72.212 0.188 7.32 60.9 7.97
8/29/2021 12:00:00 AM 22.32 72.176 0.188 7.32 60.64 8
8/29/2021 12:15:00 AM 22.29 72.122 0.188 7.32 59.98 8.01
8/29/2021 12:30:00 AM 22.27 72.086 0.188 7.32 60.62 7.99
8/29/2021 12:45:00 AM 22.24 72.032 0.188 7.33 59.47 8.02
8/29/2021 1:00:00 AM 22.22 71.996 0.188 7.33 58.45 8.02
8/29/2021 1:15:00 AM 22.2 71.96 0.188 7.32 60.24 8.04
8/29/2021 1:30:00 AM 22.17 71.906 0.188 7.32 58.81 8.01
8/29/2021 1:45:00 AM 22.14 71.852 0.189 7.32 58.54 8.02
8/29/2021 2:00:00 AM 22.11 71.798 0.188 7.32 59.97 8.02
8/29/2021 2:15:00 AM 22.07 71.726 0.188 7.33 59.42 8.05
8/29/2021 2:30:00 AM 22.03 71.654 0.188 7.33 67.03 8.05
8/29/2021 2:45:00 AM 21.99 71.582 0.188 7.33 59.08 8.06
8/29/2021 3:00:00 AM 21.95 71.51 0.188 7.33 59.78 8.1
8/29/2021 3:15:00 AM 21.91 71.438 0.187 7.33 61.14 8.1
8/29/2021 3:30:00 AM 21.87 71.366 0.187 7.33 60.47 8.09
8/29/2021 3:45:00 AM 21.83 71.294 0.187 7.33 59.23 8.09
8/29/2021 4:00:00 AM 21.81 71.258 0.187 7.33 58.37 8.09
8/29/2021 4:15:00 AM 21.78 71.204 0.188 7.33 58.76 8.01
8/29/2021 4:30:00 AM 21.77 71.186 0.187 7.33 57.84 8.01
8/29/2021 4:45:00 AM 21.75 71.15 0.188 7.32 59.15 8.02
8/29/2021 5:00:00 AM 21.73 71.114 0.188 7.34 61.54 8.06
8/29/2021 5:15:00 AM 21.72 71.096 0.187 7.34 61.58 8.07
8/29/2021 5:30:00 AM 21.7 71.06 0.188 7.33 59.69 8.07
8/29/2021 5:45:00 AM 21.68 71.024 0.188 7.34 57.38 8.14
8/29/2021 6:00:00 AM 21.66 70.988 0.188 7.34 59.06 8.14
8/29/2021 6:15:00 AM 21.64 70.952 0.187 7.33 57.02 8.12
8/29/2021 6:30:00 AM 21.62 70.916 0.187 7.33 57.87 8.09
8/29/2021 6:45:00 AM 21.61 70.898 0.188 7.33 56.85 8.12
8/29/2021 7:00:00 AM 21.59 70.862 0.188 7.33 59.15 8.12
8/29/2021 7:15:00 AM 21.57 70.826 0.188 7.32 57.77 8.11
8/29/2021 7:30:00 AM 21.56 70.808 0.188 7.34 64.63 8.16
8/29/2021 7:45:00 AM 21.55 70.79 0.188 7.34 53.96 8.23
8/29/2021 8:00:00 AM 21.55 70.79 0.188 7.34 54.74 8.25
8/29/2021 8:15:00 AM 21.54 70.772 0.188 7.36 54.38 8.31
8/29/2021 8:30:00 AM 21.53 70.754 0.188 7.36 53.08 8.3
8/29/2021 8:45:00 AM 21.53 70.754 0.188 7.36 52.28 8.36
8/29/2021 9:00:00 AM 21.53 70.754 0.188 7.37 52.81 8.39
8/29/2021 9:15:00 AM 21.55 70.79 0.189 7.38 55.73 8.47
8/29/2021 9:30:00 AM 21.55 70.79 0.189 7.39 52.55 8.47
8/29/2021 9:45:00 AM 21.56 70.808 0.188 7.4 51.36 8.53
8/29/2021 10:00:00 AM 21.59 70.862 0.188 7.42 53.71 8.59
8/29/2021 10:15:00 AM 21.62 70.916 0.188 7.43 53.78 8.61
8/29/2021 10:30:00 AM 21.65 70.97 0.188 7.45 52.26 8.72
8/29/2021 10:45:00 AM 21.69 71.042 0.188 7.47 51.72 8.75
8/29/2021 11:00:00 AM 21.76 71.168 0.189 7.48 54.41 8.79
8/29/2021 11:15:00 AM 21.82 71.276 0.189 7.5 50.5 8.76
8/29/2021 11:30:00 AM 21.85 71.33 0.189 7.5 52.23 8.75
8/29/2021 11:45:00 AM 21.9 71.42 0.189 7.5 51.8 8.76
8/29/2021 12:00:00 PM 22 71.6 0.189 7.52 51.97 8.82
8/29/2021 12:15:00 PM 22.09 71.762 0.189 7.53 51.45 8.83
8/29/2021 12:30:00 PM 22.22 71.996 0.19 7.54 54.01 8.86
8/29/2021 12:45:00 PM 22.38 72.284 0.19 7.56 52.27 8.9
8/29/2021 1:00:00 PM 22.53 72.554 0.19 7.59 52.72 8.93
8/29/2021 1:15:00 PM 22.62 72.716 0.19 7.6 47.37 8.92
8/29/2021 1:30:00 PM 22.69 72.842 0.19 7.61 48.2 8.92
8/29/2021 1:45:00 PM 22.83 73.094 0.19 7.63 48.24 8.94
8/29/2021 2:00:00 PM 22.95 73.31 0.19 7.64 38.05 8.88
8/29/2021 2:15:00 PM 23.05 73.49 0.191 7.65 38.77 8.82
8/29/2021 2:30:00 PM 23.13 73.634 0.191 7.63 38.94 8.65
8/29/2021 2:45:00 PM 23.25 73.85 0.191 7.63 40.11 8.82
8/29/2021 3:00:00 PM 23.38 74.084 0.191 7.64 41.34 8.83
8/29/2021 3:15:00 PM 23.39 74.102 0.191 7.65 43.04 8.77
8/29/2021 3:30:00 PM 23.42 74.156 0.191 7.65 41.3 8.74
8/29/2021 3:45:00 PM 23.45 74.21 0.191 7.64 38.86 8.72
8/29/2021 4:00:00 PM 23.47 74.246 0.191 7.63 40.44 8.65
8/29/2021 4:15:00 PM 23.46 74.228 0.191 7.62 39.14 8.61
8/29/2021 4:30:00 PM 23.45 74.21 0.193 7.6 39.14 8.54
8/29/2021 4:45:00 PM 23.44 74.192 0.192 7.58 39.98 8.46
8/29/2021 5:00:00 PM 23.41 74.138 0.192 7.55 39.57 8.25
8/29/2021 5:15:00 PM 23.38 74.084 0.192 7.52 39.24 8.21
8/29/2021 5:30:00 PM 23.37 74.066 0.192 7.49 39.27 8.16
8/29/2021 5:45:00 PM 23.35 74.03 0.192 7.47 39.1 8.16
8/29/2021 6:00:00 PM 23.31 73.958 0.193 7.47 38.28 8.13
8/29/2021 6:15:00 PM 23.29 73.922 0.192 7.46 38.78 8.15
8/29/2021 6:30:00 PM 23.24 73.832 0.193 7.45 37.85 8.05
8/29/2021 6:45:00 PM 23.19 73.742 0.193 7.43 38.21 7.98
8/29/2021 7:00:00 PM 23.14 73.652 0.193 7.41 38.13 7.91
8/29/2021 7:15:00 PM 23.1 73.58 0.193 7.4 40.68 7.82
8/29/2021 7:30:00 PM 23.05 73.49 0.194 7.38 38.92 7.83
8/29/2021 7:45:00 PM 23 73.4 0.193 7.37 39.24 7.84
8/29/2021 8:00:00 PM 22.95 73.31 0.194 7.35 39.01 7.84
8/29/2021 8:15:00 PM 22.89 73.202 0.194 7.35 39.2 7.84
8/29/2021 8:30:00 PM 22.83 73.094 0.194 7.34 39.13 7.85
8/29/2021 8:45:00 PM 22.78 73.004 0.194 7.34 38.83 7.85
8/29/2021 9:00:00 PM 22.73 72.914 0.194 7.33 39.22 7.85
8/29/2021 9:15:00 PM 22.67 72.806 0.195 7.33 39.51 7.87
8/29/2021 9:30:00 PM 22.61 72.698 0.195 7.32 39.08 7.87
8/29/2021 9:45:00 PM 22.56 72.608 0.195 7.32 39.46 7.83
8/29/2021 10:00:00 PM 22.5 72.5 0.195 7.32 39.87 7.91
8/29/2021 10:15:00 PM 22.43 72.374 0.195 7.31 38.98 7.89
8/29/2021 10:30:00 PM 22.36 72.248 0.195 7.31 39.89 7.92
8/29/2021 10:45:00 PM 22.3 72.14 0.195 7.31 39.14 7.9
8/29/2021 11:00:00 PM 22.23 72.014 0.195 7.31 39.41 7.94
8/29/2021 11:15:00 PM 22.17 71.906 0.195 7.31 38.77 7.95
8/29/2021 11:30:00 PM 22.11 71.798 0.195 7.3 37.01 7.93
8/29/2021 11:45:00 PM 22.05 71.69 0.195 7.31 38.06 7.97
8/30/2021 12:00:00 AM 22 71.6 0.195 7.3 38.58 7.99
8/30/2021 12:15:00 AM 21.96 71.528 0.195 7.31 39.03 7.99
8/30/2021 12:30:00 AM 21.91 71.438 0.195 7.31 38.07 7.99
8/30/2021 12:45:00 AM 21.88 71.384 0.195 7.31 37.49 8
8/30/2021 1:00:00 AM 21.84 71.312 0.195 7.31 39.06 7.99
8/30/2021 1:15:00 AM 21.8 71.24 0.195 7.31 38.6 8.02
8/30/2021 1:30:00 AM 21.77 71.186 0.195 7.31 36.96 8.01
8/30/2021 1:45:00 AM 21.75 71.15 0.195 7.31 37.39 8.01
8/30/2021 2:00:00 AM 21.73 71.114 0.196 7.32 36.91 8.02
8/30/2021 2:15:00 AM 21.72 71.096 0.196 7.32 37.82 8.04
8/30/2021 2:30:00 AM 21.72 71.096 0.196 7.33 37.84 8.05
8/30/2021 2:45:00 AM 21.73 71.114 0.196 7.33 37.3 8.02
8/30/2021 3:00:00 AM 21.74 71.132 0.196 7.33 37.44 8.02
8/30/2021 3:15:00 AM 21.75 71.15 0.196 7.34 36.88 8.03
8/30/2021 3:30:00 AM 21.76 71.168 0.196 7.34 37.28 8.03
8/30/2021 3:45:00 AM 21.77 71.186 0.196 7.34 36.29 7.98
8/30/2021 4:00:00 AM 21.78 71.204 0.196 7.35 36.75 8.04
8/30/2021 4:15:00 AM 21.78 71.204 0.196 7.35 36.88 8.03
8/30/2021 4:30:00 AM 21.8 71.24 0.196 7.34 37.33 8.05
8/30/2021 4:45:00 AM 21.8 71.24 0.196 7.35 37.62 8.04
8/30/2021 5:00:00 AM 21.81 71.258 0.197 7.34 37.02 8.04
8/30/2021 5:15:00 AM 21.8 71.24 0.196 7.34 36.67 8.03
8/30/2021 5:30:00 AM 21.81 71.258 0.196 7.34 37.85 8
8/30/2021 5:45:00 AM 21.8 71.24 0.196 7.34 37.76 8.04
8/30/2021 6:00:00 AM 21.79 71.222 0.197 7.34 37.07 8.02
8/30/2021 6:15:00 AM 21.8 71.24 0.196 7.33 36.88 7.97
8/30/2021 6:30:00 AM 21.8 71.24 0.196 7.34 36.45 8.01
8/30/2021 6:45:00 AM 21.81 71.258 0.196 7.34 35.84 8.03
8/30/2021 7:00:00 AM 21.81 71.258 0.197 7.34 36.42 8.02
8/30/2021 7:15:00 AM 21.82 71.276 0.197 7.34 33.65 8.06
8/30/2021 7:30:00 AM 21.85 71.33 0.196 7.35 33.89 8.11
8/30/2021 7:45:00 AM 21.88 71.384 0.196 7.36 36.4 8.22
8/30/2021 8:00:00 AM 21.93 71.474 0.196 7.38 35.06 8.25
8/30/2021 8:15:00 AM 21.95 71.51 0.196 7.39 34.57 8.32
8/30/2021 8:30:00 AM 21.98 71.564 0.196 7.4 34.99 8.32
8/30/2021 8:45:00 AM 22.02 71.636 0.197 7.42 38.08 8.39
8/30/2021 9:00:00 AM 22.07 71.726 0.196 7.43 34.82 8.47
8/30/2021 9:15:00 AM 22.12 71.816 0.196 7.44 33.53 8.52
8/30/2021 9:30:00 AM 22.17 71.906 0.214 7.65 2.04 8.79
8/30/2021 9:45:00 AM 22.24 72.032 0.214 7.71 1.64 8.84
8/30/2021 10:00:00 AM 22.31 72.158 0.214 7.68 1.77 8.92
8/30/2021 10:15:00 AM 22.38 72.284 0.214 7.7 1.65 8.94
8/30/2021 10:30:00 AM 22.43 72.374 0.213 7.65 1.62 8.94
8/30/2021 10:45:00 AM 22.5 72.5 0.214 7.67 1.6 8.91
8/30/2021 11:00:00 AM 22.63 72.734 0.214 7.72 1.62 9.01
8/30/2021 11:15:00 AM 22.72 72.896 0.214 7.74 1.54 9.05
8/30/2021 11:30:00 AM 22.8 73.04 0.214 7.77 1.57 9.1
8/30/2021 11:45:00 AM 22.88 73.184 0.214 7.78 1.57 9.1
8/30/2021 12:00:00 PM 22.97 73.346 0.214 7.78 1.66 9.11
8/30/2021 12:15:00 PM 23.09 73.562 0.214 7.83 1.56 9.1
8/30/2021 12:30:00 PM 23.22 73.796 0.214 7.85 1.52 9.1
8/30/2021 12:45:00 PM 23.32 73.976 0.214 7.87 1.58 9.13
8/30/2021 1:00:00 PM 23.4 74.12 0.214 7.85 1.5 9.13
8/30/2021 1:15:00 PM 23.47 74.246 0.214 7.87 1.51 9.06
8/30/2021 1:30:00 PM 23.56 74.408 0.213 7.88 1.53 9.06
8/30/2021 1:45:00 PM 23.57 74.426 0.214 7.83 1.51 8.87
8/30/2021 2:00:00 PM 23.61 74.498 0.214 7.82 1.48 8.89
8/30/2021 2:15:00 PM 23.71 74.67799 0.214 7.83 1.81 8.91
8/30/2021 2:30:00 PM 23.83 74.894 0.214 7.88 2.06 8.98
8/30/2021 2:45:00 PM 23.9 75.02 0.214 7.85 1.46 8.87
8/30/2021 3:00:00 PM 24 75.2 0.214 7.86 1.52 8.89
8/30/2021 3:15:00 PM 24.1 75.38 0.214 7.85 1.5 8.88
8/30/2021 3:30:00 PM 24.14 75.452 0.214 7.87 1.57 8.83
8/30/2021 3:45:00 PM 24.19 75.542 0.214 7.85 1.6 8.81
8/30/2021 4:00:00 PM 24.21 75.578 0.214 7.83 1.53 8.68
8/30/2021 4:15:00 PM 24.25 75.65 0.213 7.79 1.55 8.65
8/30/2021 4:30:00 PM 24.22 75.596 0.214 7.81 1.49 8.6
8/30/2021 4:45:00 PM 24.21 75.578 0.214 7.78 1.5 8.51
8/30/2021 5:00:00 PM 24.17 75.506 0.214 7.75 1.61 8.41
8/30/2021 5:15:00 PM 24.12 75.416 0.215 7.74 1.57 8.32
8/30/2021 5:30:00 PM 24.08 75.344 0.215 7.71 1.56 8.24
8/30/2021 5:45:00 PM 24.04 75.272 0.215 7.71 1.48 8.23
8/30/2021 6:00:00 PM 24 75.2 0.214 7.69 1.61 8.16
8/30/2021 6:15:00 PM 23.98 75.164 0.214 7.69 1.6 8.23
8/30/2021 6:30:00 PM 23.89 75.002 0.215 7.64 1.46 8.13
8/30/2021 6:45:00 PM 23.83 74.894 0.215 7.63 1.53 8.13
8/30/2021 7:00:00 PM 23.76 74.768 0.215 7.62 1.52 8.08
8/30/2021 7:15:00 PM 23.66 74.588 0.215 7.58 1.5 7.99
8/30/2021 7:30:00 PM 23.58 74.444 0.215 7.53 1.55 7.93
8/30/2021 7:45:00 PM 23.49 74.282 0.215 7.54 1.61 7.89
8/30/2021 8:00:00 PM 23.41 74.138 0.216 7.52 1.61 7.86
8/30/2021 8:15:00 PM 23.33 73.994 0.217 7.5 1.74 7.86
8/30/2021 8:30:00 PM 23.24 73.832 0.218 7.53 1.65 7.87
8/30/2021 8:45:00 PM 23.13 73.634 0.22 7.52 1.73 7.89
8/30/2021 9:00:00 PM 23.05 73.49 0.221 7.52 1.76 7.89
8/30/2021 9:15:00 PM 22.99 73.382 0.221 7.52 1.83 7.89
8/30/2021 9:30:00 PM 22.92 73.256 0.22 7.51 1.93 7.89
8/30/2021 9:45:00 PM 22.87 73.166 0.219 7.52 2.28 7.89
8/30/2021 10:00:00 PM 22.81 73.058 0.22 7.52 2.25 7.89
8/30/2021 10:15:00 PM 22.76 72.968 0.22 7.52 1.96 7.9
8/30/2021 10:30:00 PM 22.72 72.896 0.22 7.52 1.9 7.9
8/30/2021 10:45:00 PM 22.68 72.824 0.221 7.52 1.84 7.91
8/30/2021 11:00:00 PM 22.65 72.77 0.221 7.52 1.91 7.92
8/30/2021 11:15:00 PM 22.63 72.734 0.221 7.52 2.01 7.93
8/30/2021 11:30:00 PM 22.59 72.662 0.222 7.52 1.94 7.93
8/30/2021 11:45:00 PM 22.57 72.626 0.221 7.53 1.87 7.93
8/31/2021 12:00:00 AM 22.55 72.59 0.22 7.5 1.95 7.93
8/31/2021 12:15:00 AM 22.52 72.536 0.219 7.52 1.94 7.94
8/31/2021 12:30:00 AM 22.49 72.482 0.219 7.5 1.94 7.94
8/31/2021 12:45:00 AM 22.45 72.41 0.218 7.5 2.06 7.95
8/31/2021 1:00:00 AM 22.43 72.374 0.219 7.52 2.04 7.96
8/31/2021 1:15:00 AM 22.4 72.32 0.219 7.51 2.05 7.96
8/31/2021 1:30:00 AM 22.38 72.284 0.219 7.51 1.95 7.98
8/31/2021 1:45:00 AM 22.34 72.212 0.22 7.52 2.01 7.99
8/31/2021 2:00:00 AM 22.3 72.14 0.22 7.51 2.05 8
8/31/2021 2:15:00 AM 22.28 72.104 0.22 7.52 2.46 8.01
8/31/2021 2:30:00 AM 22.24 72.032 0.22 7.51 2.07 8.02
8/31/2021 2:45:00 AM 22.2 71.96 0.221 7.51 2.81 8.03
8/31/2021 3:00:00 AM 22.16 71.888 0.221 7.51 2.12 8.04
8/31/2021 3:15:00 AM 22.12 71.816 0.221 7.51 2.09 8.04
8/31/2021 3:30:00 AM 22.09 71.762 0.221 7.51 2.13 8.05
8/31/2021 3:45:00 AM 22.05 71.69 0.221 7.52 2.11 8.06
8/31/2021 4:00:00 AM 22.02 71.636 0.221 7.51 2.12 8.06
8/31/2021 4:15:00 AM 21.98 71.564 0.221 7.52 2.08 8.08
8/31/2021 4:30:00 AM 21.96 71.528 0.22 7.52 2.08 8.08
8/31/2021 4:45:00 AM 21.95 71.51 0.219 7.51 2.07 8.09
8/31/2021 5:00:00 AM 21.92 71.456 0.218 7.52 2.16 8.09
8/31/2021 5:15:00 AM 21.9 71.42 0.217 7.51 2.14 8.1
8/31/2021 5:30:00 AM 21.88 71.384 0.216 7.51 2.07 8.09
8/31/2021 5:45:00 AM 21.87 71.366 0.215 7.51 2.23 8.11
8/31/2021 6:00:00 AM 21.86 71.348 0.214 7.51 2.23 8.11
8/31/2021 6:15:00 AM 21.85 71.33 0.213 7.51 2.27 8.12
8/31/2021 6:30:00 AM 21.85 71.33 0.212 7.51 2.2 8.12
8/31/2021 6:45:00 AM 21.84 71.312 0.211 7.51 2.3 8.14
8/31/2021 7:00:00 AM 21.85 71.33 0.21 7.51 2.24 8.15
8/31/2021 7:15:00 AM 21.85 71.33 0.209 7.52 2.34 8.18
8/31/2021 7:30:00 AM 21.86 71.348 0.208 7.51 2.43 8.24
8/31/2021 7:45:00 AM 21.86 71.348 0.207 7.53 2.28 8.29
8/31/2021 8:00:00 AM 21.88 71.384 0.207 7.55 2.53 8.35
8/31/2021 8:15:00 AM 21.89 71.402 0.206 7.54 2.32 8.41
8/31/2021 8:30:00 AM 21.91 71.438 0.205 7.57 2.36 8.49
8/31/2021 8:45:00 AM 21.93 71.474 0.205 7.59 2.3 8.57
8/31/2021 9:00:00 AM 21.96 71.528 0.205 7.62 2.35 8.65
8/31/2021 9:15:00 AM 21.99 71.582 0.204 7.63 2.58 8.71
8/31/2021 9:30:00 AM 22.02 71.636 0.204 7.65 2.34 8.77
8/31/2021 9:45:00 AM 22.05 71.69 0.203 7.67 2.45 8.83
8/31/2021 10:00:00 AM 22.08 71.744 0.203 7.68 2.3 8.89
8/31/2021 10:15:00 AM 22.12 71.816 0.202 7.68 2.56 8.95
8/31/2021 10:30:00 AM 22.15 71.87 0.202 7.71 2.45 8.99
8/31/2021 10:45:00 AM 22.2 71.96 0.201 7.74 2.49 9.04
8/31/2021 11:00:00 AM 22.27 72.086 0.201 7.77 2.54 9.11
8/31/2021 11:15:00 AM 22.33 72.194 0.2 7.8 2.49 9.15
8/31/2021 11:30:00 AM 22.41 72.338 0.2 7.85 2.55 9.22
8/31/2021 11:45:00 AM 22.49 72.482 0.199 7.86 2.55 9.27
8/31/2021 12:00:00 PM 22.57 72.626 0.199 7.9 2.52 9.29
8/31/2021 12:15:00 PM 22.64 72.752 0.198 7.91 2.55 9.28
8/31/2021 12:30:00 PM 22.72 72.896 0.198 7.93 5.35 9.28
8/31/2021 12:45:00 PM 22.77 72.986 0.198 7.93 2.78 9.25
8/31/2021 1:00:00 PM 22.85 73.13 0.198 7.91 2.74 9.25
8/31/2021 1:15:00 PM 22.95 73.31 0.197 7.97 2.68 9.28
8/31/2021 1:30:00 PM 23.03 73.454 0.197 7.97 2.67 9.27
8/31/2021 1:45:00 PM 23.08 73.544 0.197 7.97 2.71 9.22
8/31/2021 2:00:00 PM 23.17 73.706 0.197 7.96 2.62 9.16
8/31/2021 2:15:00 PM 23.27 73.886 0.196 7.94 2.66 9.11
8/31/2021 2:30:00 PM 23.38 74.084 0.196 7.93 2.62 9.06
8/31/2021 2:45:00 PM 23.49 74.282 0.196 7.93 2.94 9.03
8/31/2021 3:00:00 PM 23.58 74.444 0.196 7.94 2.65 9.04
8/31/2021 3:15:00 PM 23.63 74.534 0.196 7.93 2.76 8.99
8/31/2021 3:30:00 PM 23.68 74.624 0.196 7.91 2.63 8.94
8/31/2021 3:45:00 PM 23.72 74.696 0.196 7.88 2.74 8.87
8/31/2021 4:00:00 PM 23.72 74.696 0.196 7.83 2.66 8.8
8/31/2021 4:15:00 PM 23.7 74.66 0.195 7.82 2.73 8.72
8/31/2021 4:30:00 PM 23.69 74.642 0.196 7.79 2.64 8.66
8/31/2021 4:45:00 PM 23.68 74.624 0.195 7.78 2.74 8.64
8/31/2021 5:00:00 PM 23.67 74.606 0.195 7.75 2.65 8.57
8/31/2021 5:15:00 PM 23.65 74.57 0.195 7.71 2.61 8.53
8/31/2021 5:30:00 PM 23.63 74.534 0.195 7.7 2.66 8.47
8/31/2021 5:45:00 PM 23.6 74.48 0.195 7.67 2.8 8.41
8/31/2021 6:00:00 PM 23.56 74.408 0.195 7.61 2.6 8.34
8/31/2021 6:15:00 PM 23.52 74.336 0.194 7.61 2.66 8.31
8/31/2021 6:30:00 PM 23.46 74.228 0.194 7.58 2.84 8.23
8/31/2021 6:45:00 PM 23.42 74.156 0.194 7.55 2.69 8.19
8/31/2021 7:00:00 PM 23.36 74.048 0.194 7.51 2.74 8.14
8/31/2021 7:15:00 PM 23.29 73.922 0.194 7.51 2.74 8.08
8/31/2021 7:30:00 PM 23.23 73.814 0.194 7.49 2.79 8.05
8/31/2021 7:45:00 PM 23.15 73.67 0.194 7.48 2.84 8.01
8/31/2021 8:00:00 PM 23.08 73.544 0.194 7.46 2.86 7.98
8/31/2021 8:15:00 PM 23.01 73.418 0.194 7.45 2.81 7.97
8/31/2021 8:30:00 PM 22.94 73.292 0.194 7.44 2.71 7.97
8/31/2021 8:45:00 PM 22.87 73.166 0.194 7.44 2.75 7.96
8/31/2021 9:00:00 PM 22.8 73.04 0.194 7.43 3.01 7.96
8/31/2021 9:15:00 PM 22.74 72.932 0.194 7.42 2.89 7.97
8/31/2021 9:30:00 PM 22.67 72.806 0.194 7.41 2.71 7.98
8/31/2021 9:45:00 PM 22.6 72.68 0.194 7.4 2.85 7.99
8/31/2021 10:00:00 PM 22.53 72.554 0.194 7.39 2.94 8
8/31/2021 10:15:00 PM 22.47 72.446 0.194 7.37 2.79 8.01
8/31/2021 10:30:00 PM 22.41 72.338 0.195 7.4 3.12 8.02
8/31/2021 10:45:00 PM 22.36 72.248 0.195 7.39 3.22 8.03
8/31/2021 11:00:00 PM 22.31 72.158 0.195 7.39 2.85 8.04
8/31/2021 11:15:00 PM 22.27 72.086 0.195 7.38 2.87 8.04
8/31/2021 11:30:00 PM 22.23 72.014 0.195 7.39 2.76 8.05
8/31/2021 11:45:00 PM 22.19 71.942 0.195 7.39 2.78 8.06
9/1/2021 12:00:00 AM 22.16 71.888 0.196 7.38 3.08 8.06
9/1/2021 12:15:00 AM 22.13 71.834 0.196 7.4 2.94 8.07
9/1/2021 12:30:00 AM 22.1 71.78 0.196 7.37 2.87 8.07
9/1/2021 12:45:00 AM 22.08 71.744 0.196 7.4 2.91 8.07
9/1/2021 1:00:00 AM 22.06 71.708 0.196 7.41 3.04 8.09
9/1/2021 1:15:00 AM 22.03 71.654 0.197 7.4 2.91 8.1
9/1/2021 1:30:00 AM 22 71.6 0.197 7.4 4.88 8.09
9/1/2021 1:45:00 AM 21.98 71.564 0.197 7.39 2.85 8.09
9/1/2021 2:00:00 AM 21.96 71.528 0.197 7.39 3.09 8.1
9/1/2021 2:15:00 AM 21.94 71.492 0.197 7.38 3.35 8.11
9/1/2021 2:30:00 AM 21.92 71.456 0.197 7.4 3.17 8.11
9/1/2021 2:45:00 AM 21.9 71.42 0.197 7.38 2.88 8.12
9/1/2021 3:00:00 AM 21.89 71.402 0.197 7.39 2.96 8.12
9/1/2021 3:15:00 AM 21.87 71.366 0.197 7.39 2.9 8.12
9/1/2021 3:30:00 AM 21.86 71.348 0.197 7.39 3.03 8.13
9/1/2021 3:45:00 AM 21.84 71.312 0.198 7.38 2.88 8.12
9/1/2021 4:00:00 AM 21.83 71.294 0.198 7.38 2.68 8.12
9/1/2021 4:15:00 AM 21.82 71.276 0.198 7.37 2.77 8.12
9/1/2021 4:30:00 AM 21.82 71.276 0.198 7.38 2.81 8.13
9/1/2021 4:45:00 AM 21.81 71.258 0.198 7.36 2.74 8.12
9/1/2021 5:00:00 AM 21.8 71.24 0.198 7.38 2.78 8.13
9/1/2021 5:15:00 AM 21.8 71.24 0.198 7.38 2.69 8.13
9/1/2021 5:30:00 AM 21.79 71.222 0.198 7.38 3.95 8.14
9/1/2021 5:45:00 AM 21.74 71.132 0.197 7.36 2.76 8.15
9/1/2021 6:00:00 AM 21.72 71.096 0.197 7.39 4.56 8.15
9/1/2021 6:15:00 AM 21.69 71.042 0.197 7.39 2.84 8.15
9/1/2021 6:30:00 AM 21.65 70.97 0.197 7.39 2.78 8.15
9/1/2021 6:45:00 AM 21.61 70.898 0.197 7.39 3.29 8.16
9/1/2021 7:00:00 AM 21.58 70.844 0.196 7.37 2.82 8.18
9/1/2021 7:15:00 AM 21.55 70.79 0.196 7.39 2.92 8.19
9/1/2021 7:30:00 AM 21.51 70.718 0.196 7.39 3.55 8.21
9/1/2021 7:45:00 AM 21.47 70.646 0.197 7.4 4.46 8.25
9/1/2021 8:00:00 AM 21.44 70.592 0.197 7.4 3.96 8.27
9/1/2021 8:15:00 AM 21.41 70.538 0.198 7.39 3.68 8.29
9/1/2021 8:30:00 AM 21.36 70.448 0.201 7.42 3.66 8.34
9/1/2021 8:45:00 AM 21.31 70.358 0.204 7.43 3.72 8.38
9/1/2021 9:00:00 AM 21.27 70.286 0.205 7.44 3.65 8.41
9/1/2021 9:15:00 AM 21.23 70.214 0.207 7.45 3.72 8.44
9/1/2021 9:30:00 AM 21.19 70.142 0.208 7.46 3.67 8.49
9/1/2021 9:45:00 AM 21.14 70.052 0.209 7.46 3.75 8.55
9/1/2021 10:00:00 AM 21.1 69.98 0.211 7.48 4.16 8.61
9/1/2021 10:15:00 AM 21.06 69.908 0.212 7.49 5.78 8.68
9/1/2021 10:30:00 AM 21.02 69.836 0.214 7.48 6.96 8.75
9/1/2021 10:45:00 AM 20.97 69.746 0.215 7.51 6.61 8.75
9/1/2021 11:00:00 AM 20.9 69.62 0.215 7.51 6.16 8.76
9/1/2021 11:15:00 AM 20.83 69.494 0.217 7.5 6.73 8.78
9/1/2021 11:30:00 AM 20.76 69.368 0.219 7.5 8.13 8.77
9/1/2021 11:45:00 AM 20.66 69.188 0.224 7.49 9.34 8.76
9/1/2021 12:00:00 PM 20.59 69.062 0.226 7.5 11.59 8.76
9/1/2021 12:15:00 PM 20.53 68.954 0.227 7.49 14.43 8.74
9/1/2021 12:30:00 PM 20.48 68.864 0.229 7.47 16.99 8.69
9/1/2021 12:45:00 PM 20.43 68.774 0.23 7.46 27.23 8.67
9/1/2021 1:00:00 PM 20.37 68.666 0.232 7.44 34 8.66
9/1/2021 1:15:00 PM 20.32 68.576 0.232 7.43 46.53 8.66
9/1/2021 1:30:00 PM 20.24 68.432 0.237 7.39 58.2 8.64
9/1/2021 1:45:00 PM 20.23 68.414 0.23 7.39 65.68 8.66
9/1/2021 2:00:00 PM 20.24 68.432 0.213 7.35 72.32 8.68
9/1/2021 2:15:00 PM 20.26 68.468 0.198 7.36 74.48 8.68
9/1/2021 2:30:00 PM 20.29 68.522 0.189 7.34 73.21 8.66
9/1/2021 2:45:00 PM 20.29 68.522 0.184 7.32 72.92 8.67
9/1/2021 3:00:00 PM 20.31 68.558 0.18 7.34 71.68 8.66
9/1/2021 3:15:00 PM 20.34 68.612 0.177 7.31 72.49 8.67
9/1/2021 3:30:00 PM 20.36 68.648 0.173 7.34 70.23 8.67
9/1/2021 3:45:00 PM 20.4 68.72 0.169 7.33 71.01 8.67
9/1/2021 4:00:00 PM 20.43 68.774 0.164 7.29 67.29 8.66
9/1/2021 4:15:00 PM 20.46 68.828 0.161 7.32 52.51 8.65
9/1/2021 4:30:00 PM 20.5 68.9 0.159 7.31 54.98 8.65
9/1/2021 4:45:00 PM 20.54 68.972 0.157 7.31 53.16 8.64
9/1/2021 5:00:00 PM 20.56 69.008 0.154 7.27 51.98 8.64
9/1/2021 5:15:00 PM 20.57 69.026 0.151 7.26 48.56 8.64
9/1/2021 5:30:00 PM 20.57 69.026 0.148 7.25 56.45 8.65
9/1/2021 5:45:00 PM 20.54 68.972 0.144 7.22 84.99 8.66
9/1/2021 6:00:00 PM 20.51 68.918 0.141 7.19 67.98 8.67
9/1/2021 6:15:00 PM 20.46 68.828 0.136 7.17 82.31 8.69
9/1/2021 6:30:00 PM 20.38 68.684 0.132 7.17 95.63 8.71
9/1/2021 6:45:00 PM 20.28 68.504 0.129 7.1 106.33 8.73
9/1/2021 7:00:00 PM 20.21 68.378 0.127 7.1 116.07 8.75
9/1/2021 7:15:00 PM 20.13 68.234 0.125 7.1 125.25 8.76
9/1/2021 7:30:00 PM 20.05 68.09 0.123 7.08 123.87 8.78
9/1/2021 7:45:00 PM 20.01 68.018 0.123 7.08 128.78 8.78
9/1/2021 8:00:00 PM 20 68 0.122 7.07 126.86 8.78
9/1/2021 8:15:00 PM 20 68 0.122 6.98 120.21 8.79
9/1/2021 8:30:00 PM 20.02 68.036 0.122 7.06 112.64 8.79
9/1/2021 8:45:00 PM 20.03 68.054 0.123 7.07 119.21 8.79
9/1/2021 9:00:00 PM 20.02 68.036 0.124 7.02 113.42 8.8
9/1/2021 9:15:00 PM 20.04 68.07201 0.125 7 104.35 8.8
9/1/2021 9:30:00 PM 20.03 68.054 0.127 7.07 87.35 8.81
9/1/2021 9:45:00 PM 20.03 68.054 0.129 7.07 79.16 8.81
9/1/2021 10:00:00 PM 20.02 68.036 0.131 7.06 77.01 8.82
9/1/2021 10:15:00 PM 19.99 67.982 0.133 7.08 72.68 8.82
9/1/2021 10:30:00 PM 19.97 67.946 0.135 7.07 63.74 8.83
9/1/2021 10:45:00 PM 19.96 67.92799 0.137 7.16 57.61 8.84
9/1/2021 11:00:00 PM 19.96 67.92799 0.138 7.14 55 8.84
9/1/2021 11:15:00 PM 19.95 67.91 0.14 7.12 60.99 8.85
9/1/2021 11:30:00 PM 19.92 67.856 0.142 7.05 55.71 8.85
9/1/2021 11:45:00 PM 19.88 67.784 0.143 7.08 52.81 8.86
9/2/2021 12:00:00 AM 19.85 67.73 0.144 7.06 41.18 8.86
9/2/2021 12:15:00 AM 19.82 67.676 0.146 7.03 45.08 8.87
9/2/2021 12:30:00 AM 19.8 67.64 0.147 7.06 52.81 8.87
9/2/2021 12:45:00 AM 19.73 67.514 0.148 7.09 47.67 8.88
9/2/2021 1:00:00 AM 19.7 67.46 0.149 7.08 40.08 8.9
9/2/2021 1:15:00 AM 19.67 67.406 0.149 7.09 40.84 8.9
9/2/2021 1:30:00 AM 19.66 67.388 0.149 7.1 44.54 8.91
9/2/2021 1:45:00 AM 19.65 67.37 0.15 7.1 38.41 8.92
9/2/2021 2:00:00 AM 19.62 67.316 0.15 7.11 36.19 8.92
9/2/2021 2:15:00 AM 19.59 67.262 0.151 7.1 34.77 8.93
9/2/2021 2:30:00 AM 19.56 67.208 0.151 7.07 31.4 8.94
9/2/2021 2:45:00 AM 19.55 67.19 0.152 7.1 32.29 8.94
9/2/2021 3:00:00 AM 19.53 67.154 0.152 7.13 31.28 8.95
9/2/2021 3:15:00 AM 19.53 67.154 0.152 7.12 29.12 8.95
9/2/2021 3:30:00 AM 19.52 67.136 0.153 7.13 28.25 8.95
9/2/2021 3:45:00 AM 19.51 67.118 0.153 7.11 27.25 8.95
9/2/2021 4:00:00 AM 19.49 67.082 0.153 7.15 24.56 8.96
9/2/2021 4:15:00 AM 19.47 67.046 0.153 7.15 26.23 8.97
9/2/2021 4:30:00 AM 19.44 66.992 0.153 7.15 27.09 8.97
9/2/2021 4:45:00 AM 19.43 66.974 0.153 7.13 24.58 8.97
9/2/2021 5:00:00 AM 19.41 66.938 0.153 7.14 24.53 8.98
9/2/2021 5:15:00 AM 19.37 66.866 0.154 7.15 24.04 8.99
9/2/2021 5:30:00 AM 19.35 66.83 0.154 7.14 20.16 9
9/2/2021 5:45:00 AM 19.32 66.776 0.154 7.16 24.3 8.99
9/2/2021 6:00:00 AM 19.29 66.722 0.154 7.15 21.14 9.02
9/2/2021 6:15:00 AM 19.26 66.668 0.155 7.17 19.52 9.02
9/2/2021 6:30:00 AM 19.23 66.614 0.155 7.17 23.05 9.02
9/2/2021 6:45:00 AM 19.21 66.578 0.155 7.18 20.55 9
9/2/2021 7:00:00 AM 19.19 66.542 0.155 7.17 21.62 9.01
9/2/2021 7:15:00 AM 19.16 66.488 0.155 7.2 20.89 9.04
9/2/2021 7:30:00 AM 19.14 66.452 0.154 7.18 19.69 9.04
9/2/2021 7:45:00 AM 19.11 66.398 0.154 7.19 20.82 9.02
9/2/2021 8:00:00 AM 19.09 66.362 0.154 7.2 19.66 9.05
9/2/2021 8:15:00 AM 19.07 66.326 0.154 7.17 19.59 9.06
9/2/2021 8:30:00 AM 19.05 66.29 0.154 7.15 20.85 9.07
9/2/2021 8:45:00 AM 19.04 66.272 0.154 7.14 20.5 9.08
9/2/2021 9:00:00 AM 19.03 66.254 0.154 7.15 18.01 9.09
9/2/2021 9:15:00 AM 19.03 66.254 0.154 7.17 18.26 9.09
9/2/2021 9:30:00 AM 19.04 66.272 0.154 7.13 15.59 9.09
9/2/2021 9:45:00 AM 19.05 66.29 0.154 7.15 18.4 9.09
9/2/2021 10:00:00 AM 19.08 66.344 0.154 7.17 16.84 9.1
9/2/2021 10:15:00 AM